<?xml version="1.0" encoding="UTF-8" standalone="no" ?>
<gpx xmlns="http://www.topografix.com/GPX/1/1" xmlns:xsi="http://www.w3.org/2001/XMLSchema-instance" xsi:schemaLocation="http://www.topografix.com/GPX/1/1 http://www.topografix.com/GPX/1/1/gpx.xsd" version="1.1" creator="VisuGPX - https://www.visugpx.com">
  <metadata>
    <name>quessoy</name>
  </metadata>
  <trk>
    <name><![CDATA[22 avr. 2019]]></name>
    <trkseg>
      <trkpt lat="48.23932" lon="-2.88251">
        <ele>202</ele>
        <time>2019-04-22T07:32:17Z</time>
      </trkpt>
      <trkpt lat="48.23932" lon="-2.88251">
        <ele>202</ele>
        <time>2019-04-22T07:32:17Z</time>
      </trkpt>
      <trkpt lat="48.23931" lon="-2.8825">
        <ele>204</ele>
        <time>2019-04-22T07:32:18Z</time>
      </trkpt>
      <trkpt lat="48.23935" lon="-2.8825">
        <ele>205</ele>
        <time>2019-04-22T07:32:37Z</time>
      </trkpt>
      <trkpt lat="48.23939" lon="-2.88254">
        <ele>202</ele>
        <time>2019-04-22T07:32:41Z</time>
      </trkpt>
      <trkpt lat="48.23945" lon="-2.88257">
        <ele>201</ele>
        <time>2019-04-22T07:32:46Z</time>
      </trkpt>
      <trkpt lat="48.23948" lon="-2.88264">
        <ele>199</ele>
        <time>2019-04-22T07:32:51Z</time>
      </trkpt>
      <trkpt lat="48.23951" lon="-2.88268">
        <ele>199</ele>
        <time>2019-04-22T07:32:55Z</time>
      </trkpt>
      <trkpt lat="48.23956" lon="-2.88267">
        <ele>199</ele>
        <time>2019-04-22T07:32:59Z</time>
      </trkpt>
      <trkpt lat="48.23961" lon="-2.88265">
        <ele>198</ele>
        <time>2019-04-22T07:33:03Z</time>
      </trkpt>
      <trkpt lat="48.2397" lon="-2.88273">
        <ele>195</ele>
        <time>2019-04-22T07:33:10Z</time>
      </trkpt>
      <trkpt lat="48.23972" lon="-2.8828">
        <ele>195</ele>
        <time>2019-04-22T07:33:13Z</time>
      </trkpt>
      <trkpt lat="48.23972" lon="-2.88288">
        <ele>195</ele>
        <time>2019-04-22T07:33:18Z</time>
      </trkpt>
      <trkpt lat="48.23977" lon="-2.88302">
        <ele>193</ele>
        <time>2019-04-22T07:33:29Z</time>
      </trkpt>
      <trkpt lat="48.23972" lon="-2.88315">
        <ele>192</ele>
        <time>2019-04-22T07:33:36Z</time>
      </trkpt>
      <trkpt lat="48.23966" lon="-2.88317">
        <ele>191</ele>
        <time>2019-04-22T07:33:48Z</time>
      </trkpt>
      <trkpt lat="48.23969" lon="-2.88323">
        <ele>192</ele>
        <time>2019-04-22T07:33:58Z</time>
      </trkpt>
      <trkpt lat="48.23974" lon="-2.88327">
        <ele>192</ele>
        <time>2019-04-22T07:34:01Z</time>
      </trkpt>
      <trkpt lat="48.23984" lon="-2.88344">
        <ele>190</ele>
        <time>2019-04-22T07:34:13Z</time>
      </trkpt>
      <trkpt lat="48.23989" lon="-2.88347">
        <ele>189</ele>
        <time>2019-04-22T07:34:17Z</time>
      </trkpt>
      <trkpt lat="48.23999" lon="-2.88354">
        <ele>185</ele>
        <time>2019-04-22T07:34:24Z</time>
      </trkpt>
      <trkpt lat="48.24002" lon="-2.8836">
        <ele>184</ele>
        <time>2019-04-22T07:34:30Z</time>
      </trkpt>
      <trkpt lat="48.24007" lon="-2.8836">
        <ele>184</ele>
        <time>2019-04-22T07:34:34Z</time>
      </trkpt>
      <trkpt lat="48.24013" lon="-2.88364">
        <ele>183</ele>
        <time>2019-04-22T07:34:37Z</time>
      </trkpt>
      <trkpt lat="48.24023" lon="-2.8837">
        <ele>182</ele>
        <time>2019-04-22T07:34:43Z</time>
      </trkpt>
      <trkpt lat="48.24032" lon="-2.88373">
        <ele>181</ele>
        <time>2019-04-22T07:34:50Z</time>
      </trkpt>
      <trkpt lat="48.24038" lon="-2.88373">
        <ele>182</ele>
        <time>2019-04-22T07:34:53Z</time>
      </trkpt>
      <trkpt lat="48.24053" lon="-2.88367">
        <ele>181</ele>
        <time>2019-04-22T07:35:04Z</time>
      </trkpt>
      <trkpt lat="48.24058" lon="-2.88368">
        <ele>180</ele>
        <time>2019-04-22T07:35:07Z</time>
      </trkpt>
      <trkpt lat="48.24062" lon="-2.88373">
        <ele>180</ele>
        <time>2019-04-22T07:35:10Z</time>
      </trkpt>
      <trkpt lat="48.24068" lon="-2.88385">
        <ele>179</ele>
        <time>2019-04-22T07:35:16Z</time>
      </trkpt>
      <trkpt lat="48.24067" lon="-2.88393">
        <ele>178</ele>
        <time>2019-04-22T07:35:20Z</time>
      </trkpt>
      <trkpt lat="48.24075" lon="-2.88405">
        <ele>176</ele>
        <time>2019-04-22T07:35:27Z</time>
      </trkpt>
      <trkpt lat="48.24074" lon="-2.88413">
        <ele>176</ele>
        <time>2019-04-22T07:35:30Z</time>
      </trkpt>
      <trkpt lat="48.2407" lon="-2.88419">
        <ele>175</ele>
        <time>2019-04-22T07:35:33Z</time>
      </trkpt>
      <trkpt lat="48.2407" lon="-2.88442">
        <ele>173</ele>
        <time>2019-04-22T07:35:42Z</time>
      </trkpt>
      <trkpt lat="48.24071" lon="-2.88451">
        <ele>173</ele>
        <time>2019-04-22T07:35:47Z</time>
      </trkpt>
      <trkpt lat="48.24071" lon="-2.88462">
        <ele>174</ele>
        <time>2019-04-22T07:35:53Z</time>
      </trkpt>
      <trkpt lat="48.24073" lon="-2.8847">
        <ele>174</ele>
        <time>2019-04-22T07:35:57Z</time>
      </trkpt>
      <trkpt lat="48.24077" lon="-2.88475">
        <ele>176</ele>
        <time>2019-04-22T07:36:01Z</time>
      </trkpt>
      <trkpt lat="48.24076" lon="-2.88492">
        <ele>177</ele>
        <time>2019-04-22T07:36:08Z</time>
      </trkpt>
      <trkpt lat="48.24073" lon="-2.88498">
        <ele>177</ele>
        <time>2019-04-22T07:36:10Z</time>
      </trkpt>
      <trkpt lat="48.24071" lon="-2.88504">
        <ele>177</ele>
        <time>2019-04-22T07:36:13Z</time>
      </trkpt>
      <trkpt lat="48.24069" lon="-2.88511">
        <ele>177</ele>
        <time>2019-04-22T07:36:16Z</time>
      </trkpt>
      <trkpt lat="48.24071" lon="-2.88519">
        <ele>178</ele>
        <time>2019-04-22T07:36:19Z</time>
      </trkpt>
      <trkpt lat="48.24068" lon="-2.88526">
        <ele>178</ele>
        <time>2019-04-22T07:36:23Z</time>
      </trkpt>
      <trkpt lat="48.24061" lon="-2.88538">
        <ele>178</ele>
        <time>2019-04-22T07:36:28Z</time>
      </trkpt>
      <trkpt lat="48.24062" lon="-2.88546">
        <ele>177</ele>
        <time>2019-04-22T07:36:32Z</time>
      </trkpt>
      <trkpt lat="48.24063" lon="-2.88555">
        <ele>175</ele>
        <time>2019-04-22T07:36:36Z</time>
      </trkpt>
      <trkpt lat="48.24063" lon="-2.88562">
        <ele>174</ele>
        <time>2019-04-22T07:36:40Z</time>
      </trkpt>
      <trkpt lat="48.24064" lon="-2.8857">
        <ele>173</ele>
        <time>2019-04-22T07:36:44Z</time>
      </trkpt>
      <trkpt lat="48.24067" lon="-2.88575">
        <ele>173</ele>
        <time>2019-04-22T07:36:46Z</time>
      </trkpt>
      <trkpt lat="48.24071" lon="-2.8858">
        <ele>173</ele>
        <time>2019-04-22T07:36:48Z</time>
      </trkpt>
      <trkpt lat="48.24068" lon="-2.8859">
        <ele>173</ele>
        <time>2019-04-22T07:36:52Z</time>
      </trkpt>
      <trkpt lat="48.24076" lon="-2.88603">
        <ele>175</ele>
        <time>2019-04-22T07:36:58Z</time>
      </trkpt>
      <trkpt lat="48.24079" lon="-2.88608">
        <ele>175</ele>
        <time>2019-04-22T07:37:00Z</time>
      </trkpt>
      <trkpt lat="48.24079" lon="-2.88615">
        <ele>176</ele>
        <time>2019-04-22T07:37:03Z</time>
      </trkpt>
      <trkpt lat="48.24074" lon="-2.88622">
        <ele>176</ele>
        <time>2019-04-22T07:37:05Z</time>
      </trkpt>
      <trkpt lat="48.24073" lon="-2.88631">
        <ele>178</ele>
        <time>2019-04-22T07:37:07Z</time>
      </trkpt>
      <trkpt lat="48.24078" lon="-2.88629">
        <ele>179</ele>
        <time>2019-04-22T07:37:17Z</time>
      </trkpt>
      <trkpt lat="48.24084" lon="-2.88629">
        <ele>178</ele>
        <time>2019-04-22T07:37:20Z</time>
      </trkpt>
      <trkpt lat="48.24088" lon="-2.88634">
        <ele>177</ele>
        <time>2019-04-22T07:37:24Z</time>
      </trkpt>
      <trkpt lat="48.24093" lon="-2.88639">
        <ele>177</ele>
        <time>2019-04-22T07:37:29Z</time>
      </trkpt>
      <trkpt lat="48.24102" lon="-2.88654">
        <ele>176</ele>
        <time>2019-04-22T07:37:34Z</time>
      </trkpt>
      <trkpt lat="48.24106" lon="-2.88661">
        <ele>176</ele>
        <time>2019-04-22T07:37:37Z</time>
      </trkpt>
      <trkpt lat="48.24109" lon="-2.88667">
        <ele>176</ele>
        <time>2019-04-22T07:37:42Z</time>
      </trkpt>
      <trkpt lat="48.24113" lon="-2.88672">
        <ele>176</ele>
        <time>2019-04-22T07:37:51Z</time>
      </trkpt>
      <trkpt lat="48.24119" lon="-2.88674">
        <ele>176</ele>
        <time>2019-04-22T07:37:56Z</time>
      </trkpt>
      <trkpt lat="48.24124" lon="-2.88674">
        <ele>177</ele>
        <time>2019-04-22T07:38:00Z</time>
      </trkpt>
      <trkpt lat="48.24129" lon="-2.88678">
        <ele>177</ele>
        <time>2019-04-22T07:38:03Z</time>
      </trkpt>
      <trkpt lat="48.24137" lon="-2.88688">
        <ele>178</ele>
        <time>2019-04-22T07:38:18Z</time>
      </trkpt>
      <trkpt lat="48.24142" lon="-2.88693">
        <ele>177</ele>
        <time>2019-04-22T07:38:21Z</time>
      </trkpt>
      <trkpt lat="48.24146" lon="-2.88697">
        <ele>177</ele>
        <time>2019-04-22T07:38:26Z</time>
      </trkpt>
      <trkpt lat="48.2415" lon="-2.88691">
        <ele>179</ele>
        <time>2019-04-22T07:38:55Z</time>
      </trkpt>
      <trkpt lat="48.24149" lon="-2.88682">
        <ele>180</ele>
        <time>2019-04-22T07:38:58Z</time>
      </trkpt>
      <trkpt lat="48.24148" lon="-2.88681">
        <ele>184</ele>
        <time>2019-04-22T07:39:42Z</time>
      </trkpt>
      <trkpt lat="48.24149" lon="-2.88689">
        <ele>183</ele>
        <time>2019-04-22T07:40:07Z</time>
      </trkpt>
      <trkpt lat="48.24151" lon="-2.88695">
        <ele>183</ele>
        <time>2019-04-22T07:40:16Z</time>
      </trkpt>
      <trkpt lat="48.24157" lon="-2.887">
        <ele>183</ele>
        <time>2019-04-22T07:40:19Z</time>
      </trkpt>
      <trkpt lat="48.24158" lon="-2.88708">
        <ele>182</ele>
        <time>2019-04-22T07:40:22Z</time>
      </trkpt>
      <trkpt lat="48.24163" lon="-2.88713">
        <ele>181</ele>
        <time>2019-04-22T07:40:27Z</time>
      </trkpt>
      <trkpt lat="48.2417" lon="-2.88716">
        <ele>180</ele>
        <time>2019-04-22T07:40:29Z</time>
      </trkpt>
      <trkpt lat="48.24179" lon="-2.88728">
        <ele>177</ele>
        <time>2019-04-22T07:40:34Z</time>
      </trkpt>
      <trkpt lat="48.24183" lon="-2.88733">
        <ele>176</ele>
        <time>2019-04-22T07:40:37Z</time>
      </trkpt>
      <trkpt lat="48.24203" lon="-2.88746">
        <ele>171</ele>
        <time>2019-04-22T07:40:50Z</time>
      </trkpt>
      <trkpt lat="48.24236" lon="-2.88756">
        <ele>166</ele>
        <time>2019-04-22T07:41:07Z</time>
      </trkpt>
      <trkpt lat="48.2424" lon="-2.88761">
        <ele>166</ele>
        <time>2019-04-22T07:41:12Z</time>
      </trkpt>
      <trkpt lat="48.24248" lon="-2.8877">
        <ele>168</ele>
        <time>2019-04-22T07:41:20Z</time>
      </trkpt>
      <trkpt lat="48.24254" lon="-2.88781">
        <ele>169</ele>
        <time>2019-04-22T07:41:29Z</time>
      </trkpt>
      <trkpt lat="48.24257" lon="-2.88786">
        <ele>170</ele>
        <time>2019-04-22T07:41:33Z</time>
      </trkpt>
      <trkpt lat="48.24269" lon="-2.8879">
        <ele>169</ele>
        <time>2019-04-22T07:41:39Z</time>
      </trkpt>
      <trkpt lat="48.24274" lon="-2.88792">
        <ele>169</ele>
        <time>2019-04-22T07:41:42Z</time>
      </trkpt>
      <trkpt lat="48.24306" lon="-2.88801">
        <ele>168</ele>
        <time>2019-04-22T07:42:03Z</time>
      </trkpt>
      <trkpt lat="48.24311" lon="-2.888">
        <ele>168</ele>
        <time>2019-04-22T07:42:06Z</time>
      </trkpt>
      <trkpt lat="48.24317" lon="-2.88799">
        <ele>167</ele>
        <time>2019-04-22T07:42:10Z</time>
      </trkpt>
      <trkpt lat="48.24322" lon="-2.88801">
        <ele>167</ele>
        <time>2019-04-22T07:42:13Z</time>
      </trkpt>
      <trkpt lat="48.24326" lon="-2.88804">
        <ele>166</ele>
        <time>2019-04-22T07:42:17Z</time>
      </trkpt>
      <trkpt lat="48.24327" lon="-2.88822">
        <ele>164</ele>
        <time>2019-04-22T07:42:26Z</time>
      </trkpt>
      <trkpt lat="48.24338" lon="-2.88894">
        <ele>167</ele>
        <time>2019-04-22T07:42:46Z</time>
      </trkpt>
      <trkpt lat="48.24338" lon="-2.88901">
        <ele>168</ele>
        <time>2019-04-22T07:42:48Z</time>
      </trkpt>
      <trkpt lat="48.24338" lon="-2.88911">
        <ele>170</ele>
        <time>2019-04-22T07:42:51Z</time>
      </trkpt>
      <trkpt lat="48.24345" lon="-2.88924">
        <ele>173</ele>
        <time>2019-04-22T07:42:59Z</time>
      </trkpt>
      <trkpt lat="48.24345" lon="-2.88941">
        <ele>175</ele>
        <time>2019-04-22T07:43:06Z</time>
      </trkpt>
      <trkpt lat="48.2435" lon="-2.8897">
        <ele>179</ele>
        <time>2019-04-22T07:43:22Z</time>
      </trkpt>
      <trkpt lat="48.24347" lon="-2.88977">
        <ele>179</ele>
        <time>2019-04-22T07:43:25Z</time>
      </trkpt>
      <trkpt lat="48.24344" lon="-2.88983">
        <ele>179</ele>
        <time>2019-04-22T07:43:27Z</time>
      </trkpt>
      <trkpt lat="48.24347" lon="-2.88991">
        <ele>178</ele>
        <time>2019-04-22T07:43:32Z</time>
      </trkpt>
      <trkpt lat="48.24347" lon="-2.88998">
        <ele>177</ele>
        <time>2019-04-22T07:43:35Z</time>
      </trkpt>
      <trkpt lat="48.24349" lon="-2.89005">
        <ele>176</ele>
        <time>2019-04-22T07:43:38Z</time>
      </trkpt>
      <trkpt lat="48.2435" lon="-2.89013">
        <ele>176</ele>
        <time>2019-04-22T07:43:41Z</time>
      </trkpt>
      <trkpt lat="48.24353" lon="-2.8902">
        <ele>176</ele>
        <time>2019-04-22T07:43:45Z</time>
      </trkpt>
      <trkpt lat="48.2436" lon="-2.89041">
        <ele>178</ele>
        <time>2019-04-22T07:43:55Z</time>
      </trkpt>
      <trkpt lat="48.24362" lon="-2.89058">
        <ele>180</ele>
        <time>2019-04-22T07:44:03Z</time>
      </trkpt>
      <trkpt lat="48.24362" lon="-2.89066">
        <ele>180</ele>
        <time>2019-04-22T07:44:07Z</time>
      </trkpt>
      <trkpt lat="48.24363" lon="-2.89074">
        <ele>180</ele>
        <time>2019-04-22T07:44:11Z</time>
      </trkpt>
      <trkpt lat="48.24362" lon="-2.89081">
        <ele>180</ele>
        <time>2019-04-22T07:44:14Z</time>
      </trkpt>
      <trkpt lat="48.24359" lon="-2.89088">
        <ele>179</ele>
        <time>2019-04-22T07:44:18Z</time>
      </trkpt>
      <trkpt lat="48.24359" lon="-2.89112">
        <ele>180</ele>
        <time>2019-04-22T07:44:33Z</time>
      </trkpt>
      <trkpt lat="48.24361" lon="-2.8913">
        <ele>181</ele>
        <time>2019-04-22T07:44:38Z</time>
      </trkpt>
      <trkpt lat="48.24361" lon="-2.89139">
        <ele>181</ele>
        <time>2019-04-22T07:44:40Z</time>
      </trkpt>
      <trkpt lat="48.24363" lon="-2.89147">
        <ele>181</ele>
        <time>2019-04-22T07:44:42Z</time>
      </trkpt>
      <trkpt lat="48.24367" lon="-2.89155">
        <ele>181</ele>
        <time>2019-04-22T07:44:44Z</time>
      </trkpt>
      <trkpt lat="48.24376" lon="-2.89233">
        <ele>181</ele>
        <time>2019-04-22T07:45:00Z</time>
      </trkpt>
      <trkpt lat="48.24371" lon="-2.89268">
        <ele>181</ele>
        <time>2019-04-22T07:45:05Z</time>
      </trkpt>
      <trkpt lat="48.24375" lon="-2.893">
        <ele>182</ele>
        <time>2019-04-22T07:45:12Z</time>
      </trkpt>
      <trkpt lat="48.24378" lon="-2.89315">
        <ele>184</ele>
        <time>2019-04-22T07:45:16Z</time>
      </trkpt>
      <trkpt lat="48.24382" lon="-2.89321">
        <ele>185</ele>
        <time>2019-04-22T07:45:19Z</time>
      </trkpt>
      <trkpt lat="48.24404" lon="-2.8932">
        <ele>188</ele>
        <time>2019-04-22T07:45:30Z</time>
      </trkpt>
      <trkpt lat="48.24417" lon="-2.89312">
        <ele>188</ele>
        <time>2019-04-22T07:45:34Z</time>
      </trkpt>
      <trkpt lat="48.24443" lon="-2.89286">
        <ele>189</ele>
        <time>2019-04-22T07:45:44Z</time>
      </trkpt>
      <trkpt lat="48.24494" lon="-2.89246">
        <ele>189</ele>
        <time>2019-04-22T07:46:05Z</time>
      </trkpt>
      <trkpt lat="48.24499" lon="-2.89245">
        <ele>188</ele>
        <time>2019-04-22T07:46:11Z</time>
      </trkpt>
      <trkpt lat="48.24507" lon="-2.89254">
        <ele>188</ele>
        <time>2019-04-22T07:46:16Z</time>
      </trkpt>
      <trkpt lat="48.24516" lon="-2.8927">
        <ele>189</ele>
        <time>2019-04-22T07:46:20Z</time>
      </trkpt>
      <trkpt lat="48.24528" lon="-2.89286">
        <ele>189</ele>
        <time>2019-04-22T07:46:24Z</time>
      </trkpt>
      <trkpt lat="48.24546" lon="-2.89325">
        <ele>189</ele>
        <time>2019-04-22T07:46:34Z</time>
      </trkpt>
      <trkpt lat="48.24586" lon="-2.89379">
        <ele>191</ele>
        <time>2019-04-22T07:46:48Z</time>
      </trkpt>
      <trkpt lat="48.24592" lon="-2.89386">
        <ele>192</ele>
        <time>2019-04-22T07:46:50Z</time>
      </trkpt>
      <trkpt lat="48.24597" lon="-2.89393">
        <ele>192</ele>
        <time>2019-04-22T07:46:52Z</time>
      </trkpt>
      <trkpt lat="48.24601" lon="-2.89399">
        <ele>193</ele>
        <time>2019-04-22T07:46:54Z</time>
      </trkpt>
      <trkpt lat="48.24604" lon="-2.89405">
        <ele>194</ele>
        <time>2019-04-22T07:46:57Z</time>
      </trkpt>
      <trkpt lat="48.24611" lon="-2.89418">
        <ele>200</ele>
        <time>2019-04-22T07:47:03Z</time>
      </trkpt>
      <trkpt lat="48.24613" lon="-2.89424">
        <ele>201</ele>
        <time>2019-04-22T07:47:06Z</time>
      </trkpt>
      <trkpt lat="48.2462" lon="-2.89447">
        <ele>207</ele>
        <time>2019-04-22T07:47:15Z</time>
      </trkpt>
      <trkpt lat="48.24629" lon="-2.89459">
        <ele>210</ele>
        <time>2019-04-22T07:47:20Z</time>
      </trkpt>
      <trkpt lat="48.24633" lon="-2.89463">
        <ele>210</ele>
        <time>2019-04-22T07:47:22Z</time>
      </trkpt>
      <trkpt lat="48.24636" lon="-2.8947">
        <ele>212</ele>
        <time>2019-04-22T07:47:26Z</time>
      </trkpt>
      <trkpt lat="48.24646" lon="-2.89472">
        <ele>213</ele>
        <time>2019-04-22T07:47:31Z</time>
      </trkpt>
      <trkpt lat="48.24651" lon="-2.89473">
        <ele>213</ele>
        <time>2019-04-22T07:47:33Z</time>
      </trkpt>
      <trkpt lat="48.24657" lon="-2.89486">
        <ele>211</ele>
        <time>2019-04-22T07:47:39Z</time>
      </trkpt>
      <trkpt lat="48.24666" lon="-2.89506">
        <ele>210</ele>
        <time>2019-04-22T07:47:46Z</time>
      </trkpt>
      <trkpt lat="48.2467" lon="-2.89514">
        <ele>210</ele>
        <time>2019-04-22T07:47:49Z</time>
      </trkpt>
      <trkpt lat="48.24678" lon="-2.89526">
        <ele>211</ele>
        <time>2019-04-22T07:47:53Z</time>
      </trkpt>
      <trkpt lat="48.24747" lon="-2.89595">
        <ele>217</ele>
        <time>2019-04-22T07:48:21Z</time>
      </trkpt>
      <trkpt lat="48.2475" lon="-2.89603">
        <ele>217</ele>
        <time>2019-04-22T07:48:23Z</time>
      </trkpt>
      <trkpt lat="48.24755" lon="-2.89608">
        <ele>217</ele>
        <time>2019-04-22T07:48:26Z</time>
      </trkpt>
      <trkpt lat="48.2476" lon="-2.89611">
        <ele>217</ele>
        <time>2019-04-22T07:48:30Z</time>
      </trkpt>
      <trkpt lat="48.24767" lon="-2.89628">
        <ele>219</ele>
        <time>2019-04-22T07:48:43Z</time>
      </trkpt>
      <trkpt lat="48.24762" lon="-2.89636">
        <ele>220</ele>
        <time>2019-04-22T07:48:46Z</time>
      </trkpt>
      <trkpt lat="48.24757" lon="-2.89639">
        <ele>220</ele>
        <time>2019-04-22T07:48:48Z</time>
      </trkpt>
      <trkpt lat="48.24744" lon="-2.89645">
        <ele>221</ele>
        <time>2019-04-22T07:48:52Z</time>
      </trkpt>
      <trkpt lat="48.24716" lon="-2.8967">
        <ele>223</ele>
        <time>2019-04-22T07:49:00Z</time>
      </trkpt>
      <trkpt lat="48.24693" lon="-2.89675">
        <ele>222</ele>
        <time>2019-04-22T07:49:06Z</time>
      </trkpt>
      <trkpt lat="48.24644" lon="-2.89678">
        <ele>218</ele>
        <time>2019-04-22T07:49:16Z</time>
      </trkpt>
      <trkpt lat="48.24623" lon="-2.89687">
        <ele>217</ele>
        <time>2019-04-22T07:49:21Z</time>
      </trkpt>
      <trkpt lat="48.24614" lon="-2.89696">
        <ele>218</ele>
        <time>2019-04-22T07:49:25Z</time>
      </trkpt>
      <trkpt lat="48.24608" lon="-2.89698">
        <ele>218</ele>
        <time>2019-04-22T07:49:27Z</time>
      </trkpt>
      <trkpt lat="48.24603" lon="-2.89699">
        <ele>218</ele>
        <time>2019-04-22T07:49:29Z</time>
      </trkpt>
      <trkpt lat="48.24603" lon="-2.89706">
        <ele>218</ele>
        <time>2019-04-22T07:49:32Z</time>
      </trkpt>
      <trkpt lat="48.24598" lon="-2.89711">
        <ele>218</ele>
        <time>2019-04-22T07:49:38Z</time>
      </trkpt>
      <trkpt lat="48.24593" lon="-2.89714">
        <ele>218</ele>
        <time>2019-04-22T07:49:40Z</time>
      </trkpt>
      <trkpt lat="48.24589" lon="-2.89721">
        <ele>218</ele>
        <time>2019-04-22T07:49:43Z</time>
      </trkpt>
      <trkpt lat="48.24583" lon="-2.89727">
        <ele>219</ele>
        <time>2019-04-22T07:49:45Z</time>
      </trkpt>
      <trkpt lat="48.24576" lon="-2.89739">
        <ele>220</ele>
        <time>2019-04-22T07:50:05Z</time>
      </trkpt>
      <trkpt lat="48.24573" lon="-2.89747">
        <ele>220</ele>
        <time>2019-04-22T07:50:09Z</time>
      </trkpt>
      <trkpt lat="48.24564" lon="-2.89774">
        <ele>222</ele>
        <time>2019-04-22T07:50:15Z</time>
      </trkpt>
      <trkpt lat="48.2456" lon="-2.89783">
        <ele>222</ele>
        <time>2019-04-22T07:50:17Z</time>
      </trkpt>
      <trkpt lat="48.24535" lon="-2.89836">
        <ele>225</ele>
        <time>2019-04-22T07:50:30Z</time>
      </trkpt>
      <trkpt lat="48.24531" lon="-2.89841">
        <ele>226</ele>
        <time>2019-04-22T07:50:32Z</time>
      </trkpt>
      <trkpt lat="48.24524" lon="-2.89852">
        <ele>231</ele>
        <time>2019-04-22T07:50:53Z</time>
      </trkpt>
      <trkpt lat="48.24519" lon="-2.89869">
        <ele>232</ele>
        <time>2019-04-22T07:51:01Z</time>
      </trkpt>
      <trkpt lat="48.2451" lon="-2.89892">
        <ele>235</ele>
        <time>2019-04-22T07:51:08Z</time>
      </trkpt>
      <trkpt lat="48.24507" lon="-2.89907">
        <ele>239</ele>
        <time>2019-04-22T07:51:15Z</time>
      </trkpt>
      <trkpt lat="48.24504" lon="-2.89913">
        <ele>240</ele>
        <time>2019-04-22T07:51:19Z</time>
      </trkpt>
      <trkpt lat="48.245" lon="-2.89917">
        <ele>241</ele>
        <time>2019-04-22T07:51:22Z</time>
      </trkpt>
      <trkpt lat="48.24495" lon="-2.8992">
        <ele>242</ele>
        <time>2019-04-22T07:51:25Z</time>
      </trkpt>
      <trkpt lat="48.2449" lon="-2.89923">
        <ele>243</ele>
        <time>2019-04-22T07:51:29Z</time>
      </trkpt>
      <trkpt lat="48.24485" lon="-2.89926">
        <ele>243</ele>
        <time>2019-04-22T07:51:34Z</time>
      </trkpt>
      <trkpt lat="48.24474" lon="-2.8993">
        <ele>241</ele>
        <time>2019-04-22T07:51:41Z</time>
      </trkpt>
      <trkpt lat="48.2447" lon="-2.89933">
        <ele>240</ele>
        <time>2019-04-22T07:51:46Z</time>
      </trkpt>
      <trkpt lat="48.24461" lon="-2.89942">
        <ele>239</ele>
        <time>2019-04-22T07:51:50Z</time>
      </trkpt>
      <trkpt lat="48.24457" lon="-2.89946">
        <ele>238</ele>
        <time>2019-04-22T07:51:52Z</time>
      </trkpt>
      <trkpt lat="48.24452" lon="-2.8995">
        <ele>238</ele>
        <time>2019-04-22T07:51:55Z</time>
      </trkpt>
      <trkpt lat="48.24447" lon="-2.89951">
        <ele>237</ele>
        <time>2019-04-22T07:51:59Z</time>
      </trkpt>
      <trkpt lat="48.24442" lon="-2.89953">
        <ele>235</ele>
        <time>2019-04-22T07:52:03Z</time>
      </trkpt>
      <trkpt lat="48.24437" lon="-2.89957">
        <ele>233</ele>
        <time>2019-04-22T07:52:07Z</time>
      </trkpt>
      <trkpt lat="48.24426" lon="-2.89961">
        <ele>231</ele>
        <time>2019-04-22T07:52:13Z</time>
      </trkpt>
      <trkpt lat="48.24422" lon="-2.89964">
        <ele>231</ele>
        <time>2019-04-22T07:52:16Z</time>
      </trkpt>
      <trkpt lat="48.24417" lon="-2.89964">
        <ele>230</ele>
        <time>2019-04-22T07:52:19Z</time>
      </trkpt>
      <trkpt lat="48.24408" lon="-2.89973">
        <ele>229</ele>
        <time>2019-04-22T07:52:25Z</time>
      </trkpt>
      <trkpt lat="48.24403" lon="-2.89977">
        <ele>228</ele>
        <time>2019-04-22T07:52:32Z</time>
      </trkpt>
      <trkpt lat="48.24385" lon="-2.89981">
        <ele>228</ele>
        <time>2019-04-22T07:52:40Z</time>
      </trkpt>
      <trkpt lat="48.24373" lon="-2.8998">
        <ele>228</ele>
        <time>2019-04-22T07:52:46Z</time>
      </trkpt>
      <trkpt lat="48.24368" lon="-2.8998">
        <ele>228</ele>
        <time>2019-04-22T07:52:49Z</time>
      </trkpt>
      <trkpt lat="48.24363" lon="-2.89977">
        <ele>228</ele>
        <time>2019-04-22T07:52:52Z</time>
      </trkpt>
      <trkpt lat="48.2436" lon="-2.89971">
        <ele>229</ele>
        <time>2019-04-22T07:52:56Z</time>
      </trkpt>
      <trkpt lat="48.24354" lon="-2.8995">
        <ele>227</ele>
        <time>2019-04-22T07:53:07Z</time>
      </trkpt>
      <trkpt lat="48.24353" lon="-2.89937">
        <ele>224</ele>
        <time>2019-04-22T07:53:14Z</time>
      </trkpt>
      <trkpt lat="48.24351" lon="-2.89928">
        <ele>222</ele>
        <time>2019-04-22T07:53:17Z</time>
      </trkpt>
      <trkpt lat="48.24346" lon="-2.89927">
        <ele>222</ele>
        <time>2019-04-22T07:53:21Z</time>
      </trkpt>
      <trkpt lat="48.24321" lon="-2.89938">
        <ele>218</ele>
        <time>2019-04-22T07:53:29Z</time>
      </trkpt>
      <trkpt lat="48.24307" lon="-2.8994">
        <ele>217</ele>
        <time>2019-04-22T07:53:33Z</time>
      </trkpt>
      <trkpt lat="48.24287" lon="-2.89946">
        <ele>216</ele>
        <time>2019-04-22T07:53:39Z</time>
      </trkpt>
      <trkpt lat="48.24261" lon="-2.89951">
        <ele>215</ele>
        <time>2019-04-22T07:53:47Z</time>
      </trkpt>
      <trkpt lat="48.24235" lon="-2.89958">
        <ele>215</ele>
        <time>2019-04-22T07:53:55Z</time>
      </trkpt>
      <trkpt lat="48.24216" lon="-2.89957">
        <ele>216</ele>
        <time>2019-04-22T07:54:01Z</time>
      </trkpt>
      <trkpt lat="48.2421" lon="-2.89958">
        <ele>216</ele>
        <time>2019-04-22T07:54:03Z</time>
      </trkpt>
      <trkpt lat="48.24205" lon="-2.89964">
        <ele>217</ele>
        <time>2019-04-22T07:54:05Z</time>
      </trkpt>
      <trkpt lat="48.24205" lon="-2.89971">
        <ele>217</ele>
        <time>2019-04-22T07:54:07Z</time>
      </trkpt>
      <trkpt lat="48.24206" lon="-2.89977">
        <ele>218</ele>
        <time>2019-04-22T07:54:10Z</time>
      </trkpt>
      <trkpt lat="48.24212" lon="-2.90003">
        <ele>219</ele>
        <time>2019-04-22T07:54:17Z</time>
      </trkpt>
      <trkpt lat="48.24238" lon="-2.90053">
        <ele>221</ele>
        <time>2019-04-22T07:54:31Z</time>
      </trkpt>
      <trkpt lat="48.24244" lon="-2.90058">
        <ele>223</ele>
        <time>2019-04-22T07:54:34Z</time>
      </trkpt>
      <trkpt lat="48.24248" lon="-2.90064">
        <ele>224</ele>
        <time>2019-04-22T07:54:36Z</time>
      </trkpt>
      <trkpt lat="48.24252" lon="-2.90068">
        <ele>227</ele>
        <time>2019-04-22T07:54:38Z</time>
      </trkpt>
      <trkpt lat="48.24256" lon="-2.90073">
        <ele>228</ele>
        <time>2019-04-22T07:54:42Z</time>
      </trkpt>
      <trkpt lat="48.24259" lon="-2.90079">
        <ele>230</ele>
        <time>2019-04-22T07:54:47Z</time>
      </trkpt>
      <trkpt lat="48.24267" lon="-2.90089">
        <ele>231</ele>
        <time>2019-04-22T07:54:57Z</time>
      </trkpt>
      <trkpt lat="48.2427" lon="-2.90095">
        <ele>231</ele>
        <time>2019-04-22T07:55:02Z</time>
      </trkpt>
      <trkpt lat="48.24276" lon="-2.90108">
        <ele>232</ele>
        <time>2019-04-22T07:55:11Z</time>
      </trkpt>
      <trkpt lat="48.2428" lon="-2.90124">
        <ele>235</ele>
        <time>2019-04-22T07:55:17Z</time>
      </trkpt>
      <trkpt lat="48.24282" lon="-2.90132">
        <ele>235</ele>
        <time>2019-04-22T07:55:21Z</time>
      </trkpt>
      <trkpt lat="48.24286" lon="-2.90136">
        <ele>236</ele>
        <time>2019-04-22T07:55:25Z</time>
      </trkpt>
      <trkpt lat="48.24289" lon="-2.90141">
        <ele>237</ele>
        <time>2019-04-22T07:55:29Z</time>
      </trkpt>
      <trkpt lat="48.24292" lon="-2.90157">
        <ele>239</ele>
        <time>2019-04-22T07:55:37Z</time>
      </trkpt>
      <trkpt lat="48.24293" lon="-2.90164">
        <ele>241</ele>
        <time>2019-04-22T07:55:41Z</time>
      </trkpt>
      <trkpt lat="48.24296" lon="-2.90171">
        <ele>241</ele>
        <time>2019-04-22T07:55:45Z</time>
      </trkpt>
      <trkpt lat="48.24304" lon="-2.90193">
        <ele>246</ele>
        <time>2019-04-22T07:55:58Z</time>
      </trkpt>
      <trkpt lat="48.24307" lon="-2.90199">
        <ele>247</ele>
        <time>2019-04-22T07:56:02Z</time>
      </trkpt>
      <trkpt lat="48.24313" lon="-2.90211">
        <ele>249</ele>
        <time>2019-04-22T07:56:09Z</time>
      </trkpt>
      <trkpt lat="48.24316" lon="-2.90218">
        <ele>249</ele>
        <time>2019-04-22T07:56:13Z</time>
      </trkpt>
      <trkpt lat="48.24318" lon="-2.90223">
        <ele>250</ele>
        <time>2019-04-22T07:56:17Z</time>
      </trkpt>
      <trkpt lat="48.24326" lon="-2.90235">
        <ele>250</ele>
        <time>2019-04-22T07:56:25Z</time>
      </trkpt>
      <trkpt lat="48.24329" lon="-2.90241">
        <ele>250</ele>
        <time>2019-04-22T07:56:29Z</time>
      </trkpt>
      <trkpt lat="48.24332" lon="-2.90249">
        <ele>250</ele>
        <time>2019-04-22T07:56:34Z</time>
      </trkpt>
      <trkpt lat="48.24338" lon="-2.90262">
        <ele>251</ele>
        <time>2019-04-22T07:56:41Z</time>
      </trkpt>
      <trkpt lat="48.24339" lon="-2.90269">
        <ele>251</ele>
        <time>2019-04-22T07:56:44Z</time>
      </trkpt>
      <trkpt lat="48.24331" lon="-2.90279">
        <ele>253</ele>
        <time>2019-04-22T07:56:52Z</time>
      </trkpt>
      <trkpt lat="48.24326" lon="-2.9028">
        <ele>253</ele>
        <time>2019-04-22T07:56:56Z</time>
      </trkpt>
      <trkpt lat="48.24321" lon="-2.90281">
        <ele>253</ele>
        <time>2019-04-22T07:56:59Z</time>
      </trkpt>
      <trkpt lat="48.24316" lon="-2.90283">
        <ele>254</ele>
        <time>2019-04-22T07:57:02Z</time>
      </trkpt>
      <trkpt lat="48.24312" lon="-2.90284">
        <ele>255</ele>
        <time>2019-04-22T07:57:05Z</time>
      </trkpt>
      <trkpt lat="48.24301" lon="-2.90285">
        <ele>256</ele>
        <time>2019-04-22T07:57:12Z</time>
      </trkpt>
      <trkpt lat="48.24296" lon="-2.90286">
        <ele>257</ele>
        <time>2019-04-22T07:57:15Z</time>
      </trkpt>
      <trkpt lat="48.24291" lon="-2.90287">
        <ele>257</ele>
        <time>2019-04-22T07:57:18Z</time>
      </trkpt>
      <trkpt lat="48.24282" lon="-2.90292">
        <ele>256</ele>
        <time>2019-04-22T07:57:24Z</time>
      </trkpt>
      <trkpt lat="48.24275" lon="-2.90292">
        <ele>257</ele>
        <time>2019-04-22T07:57:27Z</time>
      </trkpt>
      <trkpt lat="48.24264" lon="-2.90296">
        <ele>256</ele>
        <time>2019-04-22T07:57:33Z</time>
      </trkpt>
      <trkpt lat="48.24258" lon="-2.90297">
        <ele>255</ele>
        <time>2019-04-22T07:57:36Z</time>
      </trkpt>
      <trkpt lat="48.24248" lon="-2.90298">
        <ele>254</ele>
        <time>2019-04-22T07:57:43Z</time>
      </trkpt>
      <trkpt lat="48.24243" lon="-2.903">
        <ele>254</ele>
        <time>2019-04-22T07:57:48Z</time>
      </trkpt>
      <trkpt lat="48.24238" lon="-2.90302">
        <ele>254</ele>
        <time>2019-04-22T07:57:51Z</time>
      </trkpt>
      <trkpt lat="48.24233" lon="-2.90302">
        <ele>253</ele>
        <time>2019-04-22T07:57:55Z</time>
      </trkpt>
      <trkpt lat="48.24222" lon="-2.90305">
        <ele>250</ele>
        <time>2019-04-22T07:58:03Z</time>
      </trkpt>
      <trkpt lat="48.24217" lon="-2.90306">
        <ele>250</ele>
        <time>2019-04-22T07:58:07Z</time>
      </trkpt>
      <trkpt lat="48.24213" lon="-2.90308">
        <ele>249</ele>
        <time>2019-04-22T07:58:10Z</time>
      </trkpt>
      <trkpt lat="48.24209" lon="-2.90311">
        <ele>248</ele>
        <time>2019-04-22T07:58:16Z</time>
      </trkpt>
      <trkpt lat="48.2419" lon="-2.90324">
        <ele>244</ele>
        <time>2019-04-22T07:58:31Z</time>
      </trkpt>
      <trkpt lat="48.24186" lon="-2.90327">
        <ele>244</ele>
        <time>2019-04-22T07:58:35Z</time>
      </trkpt>
      <trkpt lat="48.24176" lon="-2.90335">
        <ele>243</ele>
        <time>2019-04-22T07:58:40Z</time>
      </trkpt>
      <trkpt lat="48.24156" lon="-2.90339">
        <ele>245</ele>
        <time>2019-04-22T07:58:55Z</time>
      </trkpt>
      <trkpt lat="48.2415" lon="-2.90338">
        <ele>245</ele>
        <time>2019-04-22T07:58:58Z</time>
      </trkpt>
      <trkpt lat="48.24129" lon="-2.90335">
        <ele>245</ele>
        <time>2019-04-22T07:59:10Z</time>
      </trkpt>
      <trkpt lat="48.24124" lon="-2.90334">
        <ele>245</ele>
        <time>2019-04-22T07:59:13Z</time>
      </trkpt>
      <trkpt lat="48.24109" lon="-2.90334">
        <ele>243</ele>
        <time>2019-04-22T07:59:21Z</time>
      </trkpt>
      <trkpt lat="48.24104" lon="-2.90333">
        <ele>243</ele>
        <time>2019-04-22T07:59:25Z</time>
      </trkpt>
      <trkpt lat="48.24034" lon="-2.90324">
        <ele>236</ele>
        <time>2019-04-22T07:59:54Z</time>
      </trkpt>
      <trkpt lat="48.23941" lon="-2.90296">
        <ele>231</ele>
        <time>2019-04-22T08:00:24Z</time>
      </trkpt>
      <trkpt lat="48.23882" lon="-2.90289">
        <ele>228</ele>
        <time>2019-04-22T08:00:44Z</time>
      </trkpt>
      <trkpt lat="48.23875" lon="-2.90288">
        <ele>228</ele>
        <time>2019-04-22T08:00:46Z</time>
      </trkpt>
      <trkpt lat="48.2387" lon="-2.90294">
        <ele>228</ele>
        <time>2019-04-22T08:00:48Z</time>
      </trkpt>
      <trkpt lat="48.23859" lon="-2.90471">
        <ele>233</ele>
        <time>2019-04-22T08:01:18Z</time>
      </trkpt>
      <trkpt lat="48.23857" lon="-2.90484">
        <ele>234</ele>
        <time>2019-04-22T08:01:20Z</time>
      </trkpt>
      <trkpt lat="48.23855" lon="-2.90514">
        <ele>236</ele>
        <time>2019-04-22T08:01:26Z</time>
      </trkpt>
      <trkpt lat="48.23855" lon="-2.90522">
        <ele>237</ele>
        <time>2019-04-22T08:01:28Z</time>
      </trkpt>
      <trkpt lat="48.2386" lon="-2.90526">
        <ele>238</ele>
        <time>2019-04-22T08:01:30Z</time>
      </trkpt>
      <trkpt lat="48.23924" lon="-2.90542">
        <ele>242</ele>
        <time>2019-04-22T08:01:54Z</time>
      </trkpt>
      <trkpt lat="48.23962" lon="-2.90553">
        <ele>245</ele>
        <time>2019-04-22T08:02:03Z</time>
      </trkpt>
      <trkpt lat="48.23978" lon="-2.90564">
        <ele>247</ele>
        <time>2019-04-22T08:02:10Z</time>
      </trkpt>
      <trkpt lat="48.23984" lon="-2.90566">
        <ele>248</ele>
        <time>2019-04-22T08:02:12Z</time>
      </trkpt>
      <trkpt lat="48.24003" lon="-2.90581">
        <ele>249</ele>
        <time>2019-04-22T08:02:18Z</time>
      </trkpt>
      <trkpt lat="48.2403" lon="-2.90616">
        <ele>250</ele>
        <time>2019-04-22T08:02:30Z</time>
      </trkpt>
      <trkpt lat="48.24034" lon="-2.90621">
        <ele>251</ele>
        <time>2019-04-22T08:02:33Z</time>
      </trkpt>
      <trkpt lat="48.24039" lon="-2.90626">
        <ele>252</ele>
        <time>2019-04-22T08:02:37Z</time>
      </trkpt>
      <trkpt lat="48.24042" lon="-2.90632">
        <ele>254</ele>
        <time>2019-04-22T08:02:40Z</time>
      </trkpt>
      <trkpt lat="48.24045" lon="-2.90638">
        <ele>255</ele>
        <time>2019-04-22T08:02:43Z</time>
      </trkpt>
      <trkpt lat="48.24047" lon="-2.90645">
        <ele>257</ele>
        <time>2019-04-22T08:02:47Z</time>
      </trkpt>
      <trkpt lat="48.24039" lon="-2.90654">
        <ele>259</ele>
        <time>2019-04-22T08:02:56Z</time>
      </trkpt>
      <trkpt lat="48.24034" lon="-2.90658">
        <ele>260</ele>
        <time>2019-04-22T08:02:58Z</time>
      </trkpt>
      <trkpt lat="48.24029" lon="-2.90662">
        <ele>261</ele>
        <time>2019-04-22T08:03:00Z</time>
      </trkpt>
      <trkpt lat="48.24025" lon="-2.90669">
        <ele>262</ele>
        <time>2019-04-22T08:03:04Z</time>
      </trkpt>
      <trkpt lat="48.24021" lon="-2.90675">
        <ele>264</ele>
        <time>2019-04-22T08:03:10Z</time>
      </trkpt>
      <trkpt lat="48.24019" lon="-2.90682">
        <ele>264</ele>
        <time>2019-04-22T08:03:17Z</time>
      </trkpt>
      <trkpt lat="48.24015" lon="-2.90685">
        <ele>264</ele>
        <time>2019-04-22T08:03:21Z</time>
      </trkpt>
      <trkpt lat="48.24003" lon="-2.90716">
        <ele>261</ele>
        <time>2019-04-22T08:03:40Z</time>
      </trkpt>
      <trkpt lat="48.24001" lon="-2.90723">
        <ele>261</ele>
        <time>2019-04-22T08:03:44Z</time>
      </trkpt>
      <trkpt lat="48.23997" lon="-2.90737">
        <ele>259</ele>
        <time>2019-04-22T08:03:50Z</time>
      </trkpt>
      <trkpt lat="48.23996" lon="-2.90745">
        <ele>259</ele>
        <time>2019-04-22T08:03:53Z</time>
      </trkpt>
      <trkpt lat="48.23997" lon="-2.90752">
        <ele>259</ele>
        <time>2019-04-22T08:03:56Z</time>
      </trkpt>
      <trkpt lat="48.24001" lon="-2.9076">
        <ele>258</ele>
        <time>2019-04-22T08:03:59Z</time>
      </trkpt>
      <trkpt lat="48.24007" lon="-2.90764">
        <ele>258</ele>
        <time>2019-04-22T08:04:02Z</time>
      </trkpt>
      <trkpt lat="48.24014" lon="-2.90775">
        <ele>257</ele>
        <time>2019-04-22T08:04:09Z</time>
      </trkpt>
      <trkpt lat="48.24016" lon="-2.90782">
        <ele>259</ele>
        <time>2019-04-22T08:04:14Z</time>
      </trkpt>
      <trkpt lat="48.24013" lon="-2.9079">
        <ele>263</ele>
        <time>2019-04-22T08:04:18Z</time>
      </trkpt>
      <trkpt lat="48.24009" lon="-2.90795">
        <ele>265</ele>
        <time>2019-04-22T08:04:21Z</time>
      </trkpt>
      <trkpt lat="48.24007" lon="-2.90803">
        <ele>267</ele>
        <time>2019-04-22T08:04:24Z</time>
      </trkpt>
      <trkpt lat="48.24006" lon="-2.90811">
        <ele>268</ele>
        <time>2019-04-22T08:04:28Z</time>
      </trkpt>
      <trkpt lat="48.24001" lon="-2.90825">
        <ele>269</ele>
        <time>2019-04-22T08:04:34Z</time>
      </trkpt>
      <trkpt lat="48.24002" lon="-2.90835">
        <ele>270</ele>
        <time>2019-04-22T08:04:38Z</time>
      </trkpt>
      <trkpt lat="48.24003" lon="-2.90842">
        <ele>271</ele>
        <time>2019-04-22T08:04:42Z</time>
      </trkpt>
      <trkpt lat="48.24001" lon="-2.9085">
        <ele>271</ele>
        <time>2019-04-22T08:04:46Z</time>
      </trkpt>
      <trkpt lat="48.23997" lon="-2.90855">
        <ele>271</ele>
        <time>2019-04-22T08:04:49Z</time>
      </trkpt>
      <trkpt lat="48.23992" lon="-2.90869">
        <ele>271</ele>
        <time>2019-04-22T08:04:59Z</time>
      </trkpt>
      <trkpt lat="48.23989" lon="-2.90874">
        <ele>270</ele>
        <time>2019-04-22T08:05:03Z</time>
      </trkpt>
      <trkpt lat="48.23985" lon="-2.9088">
        <ele>268</ele>
        <time>2019-04-22T08:05:08Z</time>
      </trkpt>
      <trkpt lat="48.2398" lon="-2.9088">
        <ele>267</ele>
        <time>2019-04-22T08:05:12Z</time>
      </trkpt>
      <trkpt lat="48.23976" lon="-2.90874">
        <ele>265</ele>
        <time>2019-04-22T08:05:16Z</time>
      </trkpt>
      <trkpt lat="48.23969" lon="-2.90864">
        <ele>264</ele>
        <time>2019-04-22T08:05:22Z</time>
      </trkpt>
      <trkpt lat="48.23965" lon="-2.90859">
        <ele>264</ele>
        <time>2019-04-22T08:05:26Z</time>
      </trkpt>
      <trkpt lat="48.23961" lon="-2.90853">
        <ele>264</ele>
        <time>2019-04-22T08:05:30Z</time>
      </trkpt>
      <trkpt lat="48.23934" lon="-2.90823">
        <ele>260</ele>
        <time>2019-04-22T08:05:47Z</time>
      </trkpt>
      <trkpt lat="48.2385" lon="-2.9077">
        <ele>250</ele>
        <time>2019-04-22T08:06:15Z</time>
      </trkpt>
      <trkpt lat="48.23842" lon="-2.90768">
        <ele>249</ele>
        <time>2019-04-22T08:06:17Z</time>
      </trkpt>
      <trkpt lat="48.23835" lon="-2.90768">
        <ele>247</ele>
        <time>2019-04-22T08:06:19Z</time>
      </trkpt>
      <trkpt lat="48.23828" lon="-2.90772">
        <ele>247</ele>
        <time>2019-04-22T08:06:21Z</time>
      </trkpt>
      <trkpt lat="48.23823" lon="-2.9078">
        <ele>247</ele>
        <time>2019-04-22T08:06:23Z</time>
      </trkpt>
      <trkpt lat="48.2384" lon="-2.90975">
        <ele>257</ele>
        <time>2019-04-22T08:06:51Z</time>
      </trkpt>
      <trkpt lat="48.23857" lon="-2.91042">
        <ele>259</ele>
        <time>2019-04-22T08:07:05Z</time>
      </trkpt>
      <trkpt lat="48.2386" lon="-2.9105">
        <ele>259</ele>
        <time>2019-04-22T08:07:07Z</time>
      </trkpt>
      <trkpt lat="48.23863" lon="-2.91058">
        <ele>259</ele>
        <time>2019-04-22T08:07:09Z</time>
      </trkpt>
      <trkpt lat="48.23865" lon="-2.91068">
        <ele>260</ele>
        <time>2019-04-22T08:07:11Z</time>
      </trkpt>
      <trkpt lat="48.23873" lon="-2.91101">
        <ele>260</ele>
        <time>2019-04-22T08:07:19Z</time>
      </trkpt>
      <trkpt lat="48.23887" lon="-2.91148">
        <ele>263</ele>
        <time>2019-04-22T08:07:29Z</time>
      </trkpt>
      <trkpt lat="48.23893" lon="-2.91163">
        <ele>264</ele>
        <time>2019-04-22T08:07:33Z</time>
      </trkpt>
      <trkpt lat="48.239" lon="-2.91178">
        <ele>266</ele>
        <time>2019-04-22T08:07:38Z</time>
      </trkpt>
      <trkpt lat="48.23909" lon="-2.91187">
        <ele>268</ele>
        <time>2019-04-22T08:07:42Z</time>
      </trkpt>
      <trkpt lat="48.23914" lon="-2.91189">
        <ele>269</ele>
        <time>2019-04-22T08:07:44Z</time>
      </trkpt>
      <trkpt lat="48.2392" lon="-2.91187">
        <ele>270</ele>
        <time>2019-04-22T08:07:47Z</time>
      </trkpt>
      <trkpt lat="48.23929" lon="-2.91148">
        <ele>273</ele>
        <time>2019-04-22T08:07:56Z</time>
      </trkpt>
      <trkpt lat="48.23983" lon="-2.91025">
        <ele>284</ele>
        <time>2019-04-22T08:08:26Z</time>
      </trkpt>
      <trkpt lat="48.23996" lon="-2.90984">
        <ele>286</ele>
        <time>2019-04-22T08:08:36Z</time>
      </trkpt>
      <trkpt lat="48.24001" lon="-2.90978">
        <ele>287</ele>
        <time>2019-04-22T08:08:39Z</time>
      </trkpt>
      <trkpt lat="48.24006" lon="-2.90975">
        <ele>288</ele>
        <time>2019-04-22T08:08:41Z</time>
      </trkpt>
      <trkpt lat="48.24034" lon="-2.90954">
        <ele>291</ele>
        <time>2019-04-22T08:08:49Z</time>
      </trkpt>
      <trkpt lat="48.24041" lon="-2.90952">
        <ele>292</ele>
        <time>2019-04-22T08:08:51Z</time>
      </trkpt>
      <trkpt lat="48.24048" lon="-2.9095">
        <ele>292</ele>
        <time>2019-04-22T08:08:53Z</time>
      </trkpt>
      <trkpt lat="48.24053" lon="-2.90947">
        <ele>292</ele>
        <time>2019-04-22T08:08:55Z</time>
      </trkpt>
      <trkpt lat="48.24059" lon="-2.90947">
        <ele>293</ele>
        <time>2019-04-22T08:08:58Z</time>
      </trkpt>
      <trkpt lat="48.24064" lon="-2.9095">
        <ele>293</ele>
        <time>2019-04-22T08:09:00Z</time>
      </trkpt>
      <trkpt lat="48.24069" lon="-2.90952">
        <ele>294</ele>
        <time>2019-04-22T08:09:03Z</time>
      </trkpt>
      <trkpt lat="48.24108" lon="-2.90973">
        <ele>297</ele>
        <time>2019-04-22T08:09:16Z</time>
      </trkpt>
      <trkpt lat="48.24141" lon="-2.91003">
        <ele>301</ele>
        <time>2019-04-22T08:09:30Z</time>
      </trkpt>
      <trkpt lat="48.24152" lon="-2.91008">
        <ele>300</ele>
        <time>2019-04-22T08:09:34Z</time>
      </trkpt>
      <trkpt lat="48.24158" lon="-2.9101">
        <ele>300</ele>
        <time>2019-04-22T08:09:36Z</time>
      </trkpt>
      <trkpt lat="48.24163" lon="-2.91013">
        <ele>299</ele>
        <time>2019-04-22T08:09:38Z</time>
      </trkpt>
      <trkpt lat="48.24173" lon="-2.91023">
        <ele>300</ele>
        <time>2019-04-22T08:09:42Z</time>
      </trkpt>
      <trkpt lat="48.24178" lon="-2.91031">
        <ele>300</ele>
        <time>2019-04-22T08:09:44Z</time>
      </trkpt>
      <trkpt lat="48.24185" lon="-2.91046">
        <ele>302</ele>
        <time>2019-04-22T08:09:48Z</time>
      </trkpt>
      <trkpt lat="48.24189" lon="-2.9105">
        <ele>302</ele>
        <time>2019-04-22T08:09:50Z</time>
      </trkpt>
      <trkpt lat="48.24194" lon="-2.91053">
        <ele>302</ele>
        <time>2019-04-22T08:09:52Z</time>
      </trkpt>
      <trkpt lat="48.24199" lon="-2.91056">
        <ele>303</ele>
        <time>2019-04-22T08:09:55Z</time>
      </trkpt>
      <trkpt lat="48.24203" lon="-2.91056">
        <ele>303</ele>
        <time>2019-04-22T08:09:59Z</time>
      </trkpt>
      <trkpt lat="48.24211" lon="-2.91066">
        <ele>304</ele>
        <time>2019-04-22T08:10:07Z</time>
      </trkpt>
      <trkpt lat="48.24214" lon="-2.91074">
        <ele>303</ele>
        <time>2019-04-22T08:10:11Z</time>
      </trkpt>
      <trkpt lat="48.24216" lon="-2.91082">
        <ele>302</ele>
        <time>2019-04-22T08:10:15Z</time>
      </trkpt>
      <trkpt lat="48.24218" lon="-2.91089">
        <ele>300</ele>
        <time>2019-04-22T08:10:19Z</time>
      </trkpt>
      <trkpt lat="48.2422" lon="-2.91096">
        <ele>299</ele>
        <time>2019-04-22T08:10:22Z</time>
      </trkpt>
      <trkpt lat="48.24229" lon="-2.91106">
        <ele>296</ele>
        <time>2019-04-22T08:10:27Z</time>
      </trkpt>
      <trkpt lat="48.24246" lon="-2.91109">
        <ele>292</ele>
        <time>2019-04-22T08:10:37Z</time>
      </trkpt>
      <trkpt lat="48.24249" lon="-2.91115">
        <ele>290</ele>
        <time>2019-04-22T08:10:42Z</time>
      </trkpt>
      <trkpt lat="48.24248" lon="-2.91123">
        <ele>289</ele>
        <time>2019-04-22T08:10:47Z</time>
      </trkpt>
      <trkpt lat="48.24247" lon="-2.91131">
        <ele>286</ele>
        <time>2019-04-22T08:10:52Z</time>
      </trkpt>
      <trkpt lat="48.24247" lon="-2.91138">
        <ele>286</ele>
        <time>2019-04-22T08:10:55Z</time>
      </trkpt>
      <trkpt lat="48.24242" lon="-2.91211">
        <ele>286</ele>
        <time>2019-04-22T08:11:27Z</time>
      </trkpt>
      <trkpt lat="48.24242" lon="-2.91238">
        <ele>284</ele>
        <time>2019-04-22T08:11:40Z</time>
      </trkpt>
      <trkpt lat="48.24244" lon="-2.91254">
        <ele>282</ele>
        <time>2019-04-22T08:11:46Z</time>
      </trkpt>
      <trkpt lat="48.24244" lon="-2.91263">
        <ele>282</ele>
        <time>2019-04-22T08:11:51Z</time>
      </trkpt>
      <trkpt lat="48.24239" lon="-2.91268">
        <ele>282</ele>
        <time>2019-04-22T08:11:53Z</time>
      </trkpt>
      <trkpt lat="48.24236" lon="-2.91274">
        <ele>282</ele>
        <time>2019-04-22T08:11:58Z</time>
      </trkpt>
      <trkpt lat="48.24241" lon="-2.91277">
        <ele>282</ele>
        <time>2019-04-22T08:12:09Z</time>
      </trkpt>
      <trkpt lat="48.24248" lon="-2.91264">
        <ele>281</ele>
        <time>2019-04-22T08:12:26Z</time>
      </trkpt>
      <trkpt lat="48.24256" lon="-2.91256">
        <ele>279</ele>
        <time>2019-04-22T08:12:31Z</time>
      </trkpt>
      <trkpt lat="48.24261" lon="-2.91254">
        <ele>278</ele>
        <time>2019-04-22T08:12:34Z</time>
      </trkpt>
      <trkpt lat="48.24296" lon="-2.91235">
        <ele>276</ele>
        <time>2019-04-22T08:12:57Z</time>
      </trkpt>
      <trkpt lat="48.24301" lon="-2.91232">
        <ele>275</ele>
        <time>2019-04-22T08:13:00Z</time>
      </trkpt>
      <trkpt lat="48.24317" lon="-2.91225">
        <ele>272</ele>
        <time>2019-04-22T08:13:10Z</time>
      </trkpt>
      <trkpt lat="48.24344" lon="-2.91214">
        <ele>270</ele>
        <time>2019-04-22T08:13:20Z</time>
      </trkpt>
      <trkpt lat="48.24393" lon="-2.91196">
        <ele>269</ele>
        <time>2019-04-22T08:13:35Z</time>
      </trkpt>
      <trkpt lat="48.24441" lon="-2.91179">
        <ele>273</ele>
        <time>2019-04-22T08:13:48Z</time>
      </trkpt>
      <trkpt lat="48.24447" lon="-2.91176">
        <ele>273</ele>
        <time>2019-04-22T08:13:50Z</time>
      </trkpt>
      <trkpt lat="48.24453" lon="-2.91173">
        <ele>273</ele>
        <time>2019-04-22T08:13:52Z</time>
      </trkpt>
      <trkpt lat="48.24468" lon="-2.91169">
        <ele>275</ele>
        <time>2019-04-22T08:14:00Z</time>
      </trkpt>
      <trkpt lat="48.24479" lon="-2.91163">
        <ele>275</ele>
        <time>2019-04-22T08:14:06Z</time>
      </trkpt>
      <trkpt lat="48.24484" lon="-2.91163">
        <ele>275</ele>
        <time>2019-04-22T08:14:09Z</time>
      </trkpt>
      <trkpt lat="48.24488" lon="-2.91166">
        <ele>276</ele>
        <time>2019-04-22T08:14:14Z</time>
      </trkpt>
      <trkpt lat="48.24491" lon="-2.91173">
        <ele>276</ele>
        <time>2019-04-22T08:14:19Z</time>
      </trkpt>
      <trkpt lat="48.2449" lon="-2.91181">
        <ele>275</ele>
        <time>2019-04-22T08:14:23Z</time>
      </trkpt>
      <trkpt lat="48.24487" lon="-2.91187">
        <ele>275</ele>
        <time>2019-04-22T08:14:27Z</time>
      </trkpt>
      <trkpt lat="48.24482" lon="-2.91191">
        <ele>274</ele>
        <time>2019-04-22T08:14:31Z</time>
      </trkpt>
      <trkpt lat="48.24477" lon="-2.91193">
        <ele>274</ele>
        <time>2019-04-22T08:14:37Z</time>
      </trkpt>
      <trkpt lat="48.24468" lon="-2.91201">
        <ele>275</ele>
        <time>2019-04-22T08:14:44Z</time>
      </trkpt>
      <trkpt lat="48.24459" lon="-2.91206">
        <ele>274</ele>
        <time>2019-04-22T08:14:50Z</time>
      </trkpt>
      <trkpt lat="48.24454" lon="-2.91206">
        <ele>274</ele>
        <time>2019-04-22T08:14:54Z</time>
      </trkpt>
      <trkpt lat="48.2445" lon="-2.9121">
        <ele>273</ele>
        <time>2019-04-22T08:14:58Z</time>
      </trkpt>
      <trkpt lat="48.24445" lon="-2.91214">
        <ele>273</ele>
        <time>2019-04-22T08:15:02Z</time>
      </trkpt>
      <trkpt lat="48.24441" lon="-2.91213">
        <ele>273</ele>
        <time>2019-04-22T08:15:05Z</time>
      </trkpt>
      <trkpt lat="48.24436" lon="-2.91211">
        <ele>273</ele>
        <time>2019-04-22T08:15:09Z</time>
      </trkpt>
      <trkpt lat="48.24427" lon="-2.91219">
        <ele>274</ele>
        <time>2019-04-22T08:15:15Z</time>
      </trkpt>
      <trkpt lat="48.24423" lon="-2.91222">
        <ele>275</ele>
        <time>2019-04-22T08:15:18Z</time>
      </trkpt>
      <trkpt lat="48.24418" lon="-2.91222">
        <ele>275</ele>
        <time>2019-04-22T08:15:21Z</time>
      </trkpt>
      <trkpt lat="48.24414" lon="-2.91219">
        <ele>276</ele>
        <time>2019-04-22T08:15:25Z</time>
      </trkpt>
      <trkpt lat="48.24407" lon="-2.91223">
        <ele>276</ele>
        <time>2019-04-22T08:15:29Z</time>
      </trkpt>
      <trkpt lat="48.24403" lon="-2.91228">
        <ele>276</ele>
        <time>2019-04-22T08:15:31Z</time>
      </trkpt>
      <trkpt lat="48.244" lon="-2.91234">
        <ele>276</ele>
        <time>2019-04-22T08:15:34Z</time>
      </trkpt>
      <trkpt lat="48.24397" lon="-2.9124">
        <ele>276</ele>
        <time>2019-04-22T08:15:37Z</time>
      </trkpt>
      <trkpt lat="48.24393" lon="-2.91245">
        <ele>276</ele>
        <time>2019-04-22T08:15:40Z</time>
      </trkpt>
      <trkpt lat="48.24384" lon="-2.91251">
        <ele>275</ele>
        <time>2019-04-22T08:15:46Z</time>
      </trkpt>
      <trkpt lat="48.24374" lon="-2.91258">
        <ele>274</ele>
        <time>2019-04-22T08:15:52Z</time>
      </trkpt>
      <trkpt lat="48.24369" lon="-2.91263">
        <ele>273</ele>
        <time>2019-04-22T08:15:55Z</time>
      </trkpt>
      <trkpt lat="48.24365" lon="-2.91269">
        <ele>271</ele>
        <time>2019-04-22T08:15:59Z</time>
      </trkpt>
      <trkpt lat="48.24361" lon="-2.91272">
        <ele>271</ele>
        <time>2019-04-22T08:16:03Z</time>
      </trkpt>
      <trkpt lat="48.24344" lon="-2.91282">
        <ele>267</ele>
        <time>2019-04-22T08:16:13Z</time>
      </trkpt>
      <trkpt lat="48.24336" lon="-2.91291">
        <ele>267</ele>
        <time>2019-04-22T08:16:17Z</time>
      </trkpt>
      <trkpt lat="48.24331" lon="-2.91294">
        <ele>267</ele>
        <time>2019-04-22T08:16:20Z</time>
      </trkpt>
      <trkpt lat="48.24326" lon="-2.91297">
        <ele>267</ele>
        <time>2019-04-22T08:16:23Z</time>
      </trkpt>
      <trkpt lat="48.24323" lon="-2.91302">
        <ele>267</ele>
        <time>2019-04-22T08:16:25Z</time>
      </trkpt>
      <trkpt lat="48.2432" lon="-2.91308">
        <ele>267</ele>
        <time>2019-04-22T08:16:27Z</time>
      </trkpt>
      <trkpt lat="48.2429" lon="-2.91328">
        <ele>266</ele>
        <time>2019-04-22T08:16:40Z</time>
      </trkpt>
      <trkpt lat="48.24285" lon="-2.91332">
        <ele>265</ele>
        <time>2019-04-22T08:16:42Z</time>
      </trkpt>
      <trkpt lat="48.24282" lon="-2.91337">
        <ele>265</ele>
        <time>2019-04-22T08:16:44Z</time>
      </trkpt>
      <trkpt lat="48.24278" lon="-2.9134">
        <ele>265</ele>
        <time>2019-04-22T08:16:46Z</time>
      </trkpt>
      <trkpt lat="48.24272" lon="-2.91345">
        <ele>266</ele>
        <time>2019-04-22T08:16:49Z</time>
      </trkpt>
      <trkpt lat="48.24262" lon="-2.91349">
        <ele>267</ele>
        <time>2019-04-22T08:16:55Z</time>
      </trkpt>
      <trkpt lat="48.24257" lon="-2.91351">
        <ele>267</ele>
        <time>2019-04-22T08:16:58Z</time>
      </trkpt>
      <trkpt lat="48.24254" lon="-2.91356">
        <ele>268</ele>
        <time>2019-04-22T08:17:02Z</time>
      </trkpt>
      <trkpt lat="48.24246" lon="-2.91367">
        <ele>268</ele>
        <time>2019-04-22T08:17:10Z</time>
      </trkpt>
      <trkpt lat="48.24241" lon="-2.91368">
        <ele>267</ele>
        <time>2019-04-22T08:17:14Z</time>
      </trkpt>
      <trkpt lat="48.24213" lon="-2.91382">
        <ele>263</ele>
        <time>2019-04-22T08:17:31Z</time>
      </trkpt>
      <trkpt lat="48.2418" lon="-2.91403">
        <ele>262</ele>
        <time>2019-04-22T08:17:43Z</time>
      </trkpt>
      <trkpt lat="48.2413" lon="-2.91425">
        <ele>261</ele>
        <time>2019-04-22T08:17:57Z</time>
      </trkpt>
      <trkpt lat="48.24124" lon="-2.9143">
        <ele>261</ele>
        <time>2019-04-22T08:17:59Z</time>
      </trkpt>
      <trkpt lat="48.241" lon="-2.91443">
        <ele>262</ele>
        <time>2019-04-22T08:18:07Z</time>
      </trkpt>
      <trkpt lat="48.24089" lon="-2.91455">
        <ele>263</ele>
        <time>2019-04-22T08:18:11Z</time>
      </trkpt>
      <trkpt lat="48.24076" lon="-2.91466">
        <ele>264</ele>
        <time>2019-04-22T08:18:15Z</time>
      </trkpt>
      <trkpt lat="48.2407" lon="-2.9147">
        <ele>265</ele>
        <time>2019-04-22T08:18:17Z</time>
      </trkpt>
      <trkpt lat="48.24047" lon="-2.91455">
        <ele>267</ele>
        <time>2019-04-22T08:18:25Z</time>
      </trkpt>
      <trkpt lat="48.24041" lon="-2.91455">
        <ele>267</ele>
        <time>2019-04-22T08:18:28Z</time>
      </trkpt>
      <trkpt lat="48.24022" lon="-2.91464">
        <ele>269</ele>
        <time>2019-04-22T08:18:48Z</time>
      </trkpt>
      <trkpt lat="48.24017" lon="-2.91467">
        <ele>270</ele>
        <time>2019-04-22T08:18:50Z</time>
      </trkpt>
      <trkpt lat="48.24012" lon="-2.91469">
        <ele>270</ele>
        <time>2019-04-22T08:18:52Z</time>
      </trkpt>
      <trkpt lat="48.24001" lon="-2.91474">
        <ele>270</ele>
        <time>2019-04-22T08:18:58Z</time>
      </trkpt>
      <trkpt lat="48.23997" lon="-2.91478">
        <ele>270</ele>
        <time>2019-04-22T08:19:01Z</time>
      </trkpt>
      <trkpt lat="48.23992" lon="-2.9148">
        <ele>270</ele>
        <time>2019-04-22T08:19:04Z</time>
      </trkpt>
      <trkpt lat="48.23982" lon="-2.91485">
        <ele>271</ele>
        <time>2019-04-22T08:19:11Z</time>
      </trkpt>
      <trkpt lat="48.23977" lon="-2.91486">
        <ele>272</ele>
        <time>2019-04-22T08:19:16Z</time>
      </trkpt>
      <trkpt lat="48.23972" lon="-2.91488">
        <ele>273</ele>
        <time>2019-04-22T08:19:19Z</time>
      </trkpt>
      <trkpt lat="48.23938" lon="-2.91508">
        <ele>270</ele>
        <time>2019-04-22T08:19:37Z</time>
      </trkpt>
      <trkpt lat="48.23924" lon="-2.91513">
        <ele>268</ele>
        <time>2019-04-22T08:19:41Z</time>
      </trkpt>
      <trkpt lat="48.23913" lon="-2.91515">
        <ele>267</ele>
        <time>2019-04-22T08:19:43Z</time>
      </trkpt>
      <trkpt lat="48.23907" lon="-2.91516">
        <ele>266</ele>
        <time>2019-04-22T08:19:45Z</time>
      </trkpt>
      <trkpt lat="48.23901" lon="-2.91517">
        <ele>266</ele>
        <time>2019-04-22T08:19:47Z</time>
      </trkpt>
      <trkpt lat="48.23896" lon="-2.91521">
        <ele>266</ele>
        <time>2019-04-22T08:19:50Z</time>
      </trkpt>
      <trkpt lat="48.23892" lon="-2.91523">
        <ele>266</ele>
        <time>2019-04-22T08:19:53Z</time>
      </trkpt>
      <trkpt lat="48.23868" lon="-2.91529">
        <ele>264</ele>
        <time>2019-04-22T08:20:02Z</time>
      </trkpt>
      <trkpt lat="48.23863" lon="-2.9153">
        <ele>263</ele>
        <time>2019-04-22T08:20:05Z</time>
      </trkpt>
      <trkpt lat="48.23859" lon="-2.9153">
        <ele>263</ele>
        <time>2019-04-22T08:20:09Z</time>
      </trkpt>
      <trkpt lat="48.23854" lon="-2.91532">
        <ele>264</ele>
        <time>2019-04-22T08:20:13Z</time>
      </trkpt>
      <trkpt lat="48.23841" lon="-2.91546">
        <ele>265</ele>
        <time>2019-04-22T08:20:24Z</time>
      </trkpt>
      <trkpt lat="48.23836" lon="-2.91548">
        <ele>264</ele>
        <time>2019-04-22T08:20:27Z</time>
      </trkpt>
      <trkpt lat="48.23833" lon="-2.91553">
        <ele>264</ele>
        <time>2019-04-22T08:20:30Z</time>
      </trkpt>
      <trkpt lat="48.23833" lon="-2.91561">
        <ele>263</ele>
        <time>2019-04-22T08:20:34Z</time>
      </trkpt>
      <trkpt lat="48.23826" lon="-2.91575">
        <ele>262</ele>
        <time>2019-04-22T08:20:40Z</time>
      </trkpt>
      <trkpt lat="48.23822" lon="-2.91579">
        <ele>263</ele>
        <time>2019-04-22T08:20:44Z</time>
      </trkpt>
      <trkpt lat="48.23817" lon="-2.91579">
        <ele>262</ele>
        <time>2019-04-22T08:20:48Z</time>
      </trkpt>
      <trkpt lat="48.23812" lon="-2.91583">
        <ele>262</ele>
        <time>2019-04-22T08:20:54Z</time>
      </trkpt>
      <trkpt lat="48.23815" lon="-2.91589">
        <ele>261</ele>
        <time>2019-04-22T08:20:59Z</time>
      </trkpt>
      <trkpt lat="48.23819" lon="-2.91596">
        <ele>258</ele>
        <time>2019-04-22T08:21:03Z</time>
      </trkpt>
      <trkpt lat="48.23834" lon="-2.91621">
        <ele>255</ele>
        <time>2019-04-22T08:21:15Z</time>
      </trkpt>
      <trkpt lat="48.23839" lon="-2.91624">
        <ele>255</ele>
        <time>2019-04-22T08:21:18Z</time>
      </trkpt>
      <trkpt lat="48.23853" lon="-2.91637">
        <ele>255</ele>
        <time>2019-04-22T08:21:28Z</time>
      </trkpt>
      <trkpt lat="48.23862" lon="-2.91645">
        <ele>253</ele>
        <time>2019-04-22T08:21:35Z</time>
      </trkpt>
      <trkpt lat="48.23867" lon="-2.91647">
        <ele>252</ele>
        <time>2019-04-22T08:21:38Z</time>
      </trkpt>
      <trkpt lat="48.2388" lon="-2.9166">
        <ele>250</ele>
        <time>2019-04-22T08:21:49Z</time>
      </trkpt>
      <trkpt lat="48.23898" lon="-2.91672">
        <ele>249</ele>
        <time>2019-04-22T08:22:03Z</time>
      </trkpt>
      <trkpt lat="48.23902" lon="-2.91678">
        <ele>248</ele>
        <time>2019-04-22T08:22:07Z</time>
      </trkpt>
      <trkpt lat="48.23915" lon="-2.91688">
        <ele>247</ele>
        <time>2019-04-22T08:22:16Z</time>
      </trkpt>
      <trkpt lat="48.2392" lon="-2.91691">
        <ele>246</ele>
        <time>2019-04-22T08:22:20Z</time>
      </trkpt>
      <trkpt lat="48.23955" lon="-2.91705">
        <ele>243</ele>
        <time>2019-04-22T08:22:43Z</time>
      </trkpt>
      <trkpt lat="48.2396" lon="-2.91706">
        <ele>242</ele>
        <time>2019-04-22T08:22:47Z</time>
      </trkpt>
      <trkpt lat="48.23965" lon="-2.91706">
        <ele>241</ele>
        <time>2019-04-22T08:22:53Z</time>
      </trkpt>
      <trkpt lat="48.2398" lon="-2.91706">
        <ele>239</ele>
        <time>2019-04-22T08:23:04Z</time>
      </trkpt>
      <trkpt lat="48.23984" lon="-2.91706">
        <ele>238</ele>
        <time>2019-04-22T08:23:07Z</time>
      </trkpt>
      <trkpt lat="48.23988" lon="-2.91711">
        <ele>237</ele>
        <time>2019-04-22T08:23:13Z</time>
      </trkpt>
      <trkpt lat="48.23988" lon="-2.91719">
        <ele>240</ele>
        <time>2019-04-22T08:23:20Z</time>
      </trkpt>
      <trkpt lat="48.23993" lon="-2.91723">
        <ele>240</ele>
        <time>2019-04-22T08:23:24Z</time>
      </trkpt>
      <trkpt lat="48.23994" lon="-2.9173">
        <ele>238</ele>
        <time>2019-04-22T08:23:29Z</time>
      </trkpt>
      <trkpt lat="48.23994" lon="-2.91739">
        <ele>237</ele>
        <time>2019-04-22T08:23:35Z</time>
      </trkpt>
      <trkpt lat="48.2399" lon="-2.91743">
        <ele>237</ele>
        <time>2019-04-22T08:23:39Z</time>
      </trkpt>
      <trkpt lat="48.23974" lon="-2.91755">
        <ele>238</ele>
        <time>2019-04-22T08:23:47Z</time>
      </trkpt>
      <trkpt lat="48.2395" lon="-2.91787">
        <ele>240</ele>
        <time>2019-04-22T08:23:57Z</time>
      </trkpt>
      <trkpt lat="48.23904" lon="-2.9183">
        <ele>240</ele>
        <time>2019-04-22T08:24:15Z</time>
      </trkpt>
      <trkpt lat="48.23891" lon="-2.91843">
        <ele>239</ele>
        <time>2019-04-22T08:24:18Z</time>
      </trkpt>
      <trkpt lat="48.23888" lon="-2.91848">
        <ele>239</ele>
        <time>2019-04-22T08:24:20Z</time>
      </trkpt>
      <trkpt lat="48.23884" lon="-2.91855">
        <ele>239</ele>
        <time>2019-04-22T08:24:23Z</time>
      </trkpt>
      <trkpt lat="48.23884" lon="-2.91889">
        <ele>240</ele>
        <time>2019-04-22T08:24:34Z</time>
      </trkpt>
      <trkpt lat="48.23884" lon="-2.91896">
        <ele>240</ele>
        <time>2019-04-22T08:24:37Z</time>
      </trkpt>
      <trkpt lat="48.23884" lon="-2.91904">
        <ele>238</ele>
        <time>2019-04-22T08:24:41Z</time>
      </trkpt>
      <trkpt lat="48.23885" lon="-2.91912">
        <ele>237</ele>
        <time>2019-04-22T08:24:44Z</time>
      </trkpt>
      <trkpt lat="48.23886" lon="-2.9192">
        <ele>236</ele>
        <time>2019-04-22T08:24:48Z</time>
      </trkpt>
      <trkpt lat="48.23885" lon="-2.91927">
        <ele>234</ele>
        <time>2019-04-22T08:24:54Z</time>
      </trkpt>
      <trkpt lat="48.23885" lon="-2.91936">
        <ele>233</ele>
        <time>2019-04-22T08:24:59Z</time>
      </trkpt>
      <trkpt lat="48.23884" lon="-2.91945">
        <ele>231</ele>
        <time>2019-04-22T08:25:03Z</time>
      </trkpt>
      <trkpt lat="48.23882" lon="-2.91952">
        <ele>231</ele>
        <time>2019-04-22T08:25:06Z</time>
      </trkpt>
      <trkpt lat="48.23877" lon="-2.91974">
        <ele>226</ele>
        <time>2019-04-22T08:25:17Z</time>
      </trkpt>
      <trkpt lat="48.23875" lon="-2.92006">
        <ele>224</ele>
        <time>2019-04-22T08:25:28Z</time>
      </trkpt>
      <trkpt lat="48.23875" lon="-2.92015">
        <ele>223</ele>
        <time>2019-04-22T08:25:32Z</time>
      </trkpt>
      <trkpt lat="48.2388" lon="-2.92017">
        <ele>224</ele>
        <time>2019-04-22T08:25:37Z</time>
      </trkpt>
      <trkpt lat="48.23989" lon="-2.91886">
        <ele>217</ele>
        <time>2019-04-22T08:26:07Z</time>
      </trkpt>
      <trkpt lat="48.24056" lon="-2.91821">
        <ele>222</ele>
        <time>2019-04-22T08:26:21Z</time>
      </trkpt>
      <trkpt lat="48.24074" lon="-2.9181">
        <ele>223</ele>
        <time>2019-04-22T08:26:24Z</time>
      </trkpt>
      <trkpt lat="48.24132" lon="-2.91747">
        <ele>227</ele>
        <time>2019-04-22T08:26:55Z</time>
      </trkpt>
      <trkpt lat="48.24147" lon="-2.91739">
        <ele>227</ele>
        <time>2019-04-22T08:27:07Z</time>
      </trkpt>
      <trkpt lat="48.24157" lon="-2.91728">
        <ele>227</ele>
        <time>2019-04-22T08:27:11Z</time>
      </trkpt>
      <trkpt lat="48.24207" lon="-2.91693">
        <ele>229</ele>
        <time>2019-04-22T08:27:21Z</time>
      </trkpt>
      <trkpt lat="48.24218" lon="-2.91682">
        <ele>229</ele>
        <time>2019-04-22T08:27:23Z</time>
      </trkpt>
      <trkpt lat="48.24249" lon="-2.9166">
        <ele>230</ele>
        <time>2019-04-22T08:27:28Z</time>
      </trkpt>
      <trkpt lat="48.24386" lon="-2.91539">
        <ele>240</ele>
        <time>2019-04-22T08:27:58Z</time>
      </trkpt>
      <trkpt lat="48.24451" lon="-2.91478">
        <ele>248</ele>
        <time>2019-04-22T08:28:15Z</time>
      </trkpt>
      <trkpt lat="48.24548" lon="-2.91371">
        <ele>260</ele>
        <time>2019-04-22T08:28:43Z</time>
      </trkpt>
      <trkpt lat="48.24588" lon="-2.91333">
        <ele>260</ele>
        <time>2019-04-22T08:28:55Z</time>
      </trkpt>
      <trkpt lat="48.24661" lon="-2.91258">
        <ele>264</ele>
        <time>2019-04-22T08:29:17Z</time>
      </trkpt>
      <trkpt lat="48.24678" lon="-2.91249">
        <ele>263</ele>
        <time>2019-04-22T08:29:21Z</time>
      </trkpt>
      <trkpt lat="48.24691" lon="-2.91246">
        <ele>262</ele>
        <time>2019-04-22T08:29:24Z</time>
      </trkpt>
      <trkpt lat="48.24724" lon="-2.91235">
        <ele>266</ele>
        <time>2019-04-22T08:29:34Z</time>
      </trkpt>
      <trkpt lat="48.24767" lon="-2.91202">
        <ele>271</ele>
        <time>2019-04-22T08:29:52Z</time>
      </trkpt>
      <trkpt lat="48.24769" lon="-2.91193">
        <ele>271</ele>
        <time>2019-04-22T08:29:55Z</time>
      </trkpt>
      <trkpt lat="48.24769" lon="-2.91184">
        <ele>272</ele>
        <time>2019-04-22T08:29:58Z</time>
      </trkpt>
      <trkpt lat="48.24766" lon="-2.91177">
        <ele>272</ele>
        <time>2019-04-22T08:30:01Z</time>
      </trkpt>
      <trkpt lat="48.2476" lon="-2.91163">
        <ele>272</ele>
        <time>2019-04-22T08:30:08Z</time>
      </trkpt>
      <trkpt lat="48.24751" lon="-2.91154">
        <ele>272</ele>
        <time>2019-04-22T08:30:15Z</time>
      </trkpt>
      <trkpt lat="48.24742" lon="-2.91144">
        <ele>274</ele>
        <time>2019-04-22T08:30:22Z</time>
      </trkpt>
      <trkpt lat="48.24738" lon="-2.91141">
        <ele>274</ele>
        <time>2019-04-22T08:30:25Z</time>
      </trkpt>
      <trkpt lat="48.2473" lon="-2.91134">
        <ele>273</ele>
        <time>2019-04-22T08:30:31Z</time>
      </trkpt>
      <trkpt lat="48.24725" lon="-2.91129">
        <ele>273</ele>
        <time>2019-04-22T08:30:34Z</time>
      </trkpt>
      <trkpt lat="48.24715" lon="-2.91123">
        <ele>272</ele>
        <time>2019-04-22T08:30:41Z</time>
      </trkpt>
      <trkpt lat="48.24705" lon="-2.91123">
        <ele>272</ele>
        <time>2019-04-22T08:30:47Z</time>
      </trkpt>
      <trkpt lat="48.24684" lon="-2.91125">
        <ele>273</ele>
        <time>2019-04-22T08:31:00Z</time>
      </trkpt>
      <trkpt lat="48.24642" lon="-2.91129">
        <ele>271</ele>
        <time>2019-04-22T08:31:13Z</time>
      </trkpt>
      <trkpt lat="48.24607" lon="-2.91134">
        <ele>272</ele>
        <time>2019-04-22T08:31:22Z</time>
      </trkpt>
      <trkpt lat="48.24582" lon="-2.91136">
        <ele>273</ele>
        <time>2019-04-22T08:31:31Z</time>
      </trkpt>
      <trkpt lat="48.2457" lon="-2.91133">
        <ele>273</ele>
        <time>2019-04-22T08:31:34Z</time>
      </trkpt>
      <trkpt lat="48.24566" lon="-2.91131">
        <ele>274</ele>
        <time>2019-04-22T08:31:35Z</time>
      </trkpt>
      <trkpt lat="48.24543" lon="-2.91105">
        <ele>275</ele>
        <time>2019-04-22T08:31:42Z</time>
      </trkpt>
      <trkpt lat="48.2446" lon="-2.91021">
        <ele>280</ele>
        <time>2019-04-22T08:32:12Z</time>
      </trkpt>
      <trkpt lat="48.24456" lon="-2.91016">
        <ele>281</ele>
        <time>2019-04-22T08:32:15Z</time>
      </trkpt>
      <trkpt lat="48.24437" lon="-2.90993">
        <ele>286</ele>
        <time>2019-04-22T08:32:31Z</time>
      </trkpt>
      <trkpt lat="48.24415" lon="-2.90973">
        <ele>288</ele>
        <time>2019-04-22T08:32:48Z</time>
      </trkpt>
      <trkpt lat="48.24356" lon="-2.90912">
        <ele>290</ele>
        <time>2019-04-22T08:33:19Z</time>
      </trkpt>
      <trkpt lat="48.2434" lon="-2.90895">
        <ele>290</ele>
        <time>2019-04-22T08:33:25Z</time>
      </trkpt>
      <trkpt lat="48.24333" lon="-2.90886">
        <ele>289</ele>
        <time>2019-04-22T08:33:33Z</time>
      </trkpt>
      <trkpt lat="48.24324" lon="-2.90876">
        <ele>289</ele>
        <time>2019-04-22T08:33:40Z</time>
      </trkpt>
      <trkpt lat="48.2432" lon="-2.90869">
        <ele>289</ele>
        <time>2019-04-22T08:33:43Z</time>
      </trkpt>
      <trkpt lat="48.24317" lon="-2.90864">
        <ele>289</ele>
        <time>2019-04-22T08:33:47Z</time>
      </trkpt>
      <trkpt lat="48.24304" lon="-2.9084">
        <ele>292</ele>
        <time>2019-04-22T08:33:59Z</time>
      </trkpt>
      <trkpt lat="48.24302" lon="-2.90833">
        <ele>294</ele>
        <time>2019-04-22T08:34:04Z</time>
      </trkpt>
      <trkpt lat="48.24293" lon="-2.90825">
        <ele>296</ele>
        <time>2019-04-22T08:34:12Z</time>
      </trkpt>
      <trkpt lat="48.24287" lon="-2.90823">
        <ele>298</ele>
        <time>2019-04-22T08:34:17Z</time>
      </trkpt>
      <trkpt lat="48.24282" lon="-2.90822">
        <ele>299</ele>
        <time>2019-04-22T08:34:20Z</time>
      </trkpt>
      <trkpt lat="48.24277" lon="-2.90823">
        <ele>299</ele>
        <time>2019-04-22T08:35:13Z</time>
      </trkpt>
      <trkpt lat="48.24274" lon="-2.90827">
        <ele>299</ele>
        <time>2019-04-22T08:35:18Z</time>
      </trkpt>
      <trkpt lat="48.24273" lon="-2.90834">
        <ele>300</ele>
        <time>2019-04-22T08:35:42Z</time>
      </trkpt>
      <trkpt lat="48.24268" lon="-2.90835">
        <ele>300</ele>
        <time>2019-04-22T08:35:59Z</time>
      </trkpt>
      <trkpt lat="48.24264" lon="-2.9084">
        <ele>299</ele>
        <time>2019-04-22T08:36:10Z</time>
      </trkpt>
      <trkpt lat="48.24259" lon="-2.90842">
        <ele>299</ele>
        <time>2019-04-22T08:36:29Z</time>
      </trkpt>
      <trkpt lat="48.24253" lon="-2.90839">
        <ele>300</ele>
        <time>2019-04-22T08:36:34Z</time>
      </trkpt>
      <trkpt lat="48.24248" lon="-2.90841">
        <ele>300</ele>
        <time>2019-04-22T08:36:37Z</time>
      </trkpt>
      <trkpt lat="48.24232" lon="-2.90847">
        <ele>301</ele>
        <time>2019-04-22T08:36:52Z</time>
      </trkpt>
      <trkpt lat="48.24235" lon="-2.90839">
        <ele>301</ele>
        <time>2019-04-22T08:37:25Z</time>
      </trkpt>
      <trkpt lat="48.24241" lon="-2.90836">
        <ele>301</ele>
        <time>2019-04-22T08:37:29Z</time>
      </trkpt>
      <trkpt lat="48.24245" lon="-2.90836">
        <ele>298</ele>
        <time>2019-04-22T08:37:36Z</time>
      </trkpt>
      <trkpt lat="48.24246" lon="-2.90828">
        <ele>297</ele>
        <time>2019-04-22T08:37:41Z</time>
      </trkpt>
      <trkpt lat="48.2425" lon="-2.90831">
        <ele>296</ele>
        <time>2019-04-22T08:38:46Z</time>
      </trkpt>
      <trkpt lat="48.24256" lon="-2.90835">
        <ele>297</ele>
        <time>2019-04-22T08:38:49Z</time>
      </trkpt>
      <trkpt lat="48.24261" lon="-2.90837">
        <ele>298</ele>
        <time>2019-04-22T08:38:52Z</time>
      </trkpt>
      <trkpt lat="48.24252" lon="-2.90836">
        <ele>298</ele>
        <time>2019-04-22T08:43:58Z</time>
      </trkpt>
      <trkpt lat="48.24252" lon="-2.90836">
        <ele>298</ele>
        <time>2019-04-22T08:43:59Z</time>
      </trkpt>
      <trkpt lat="48.24247" lon="-2.90838">
        <ele>299</ele>
        <time>2019-04-22T08:44:46Z</time>
      </trkpt>
      <trkpt lat="48.24237" lon="-2.90841">
        <ele>299</ele>
        <time>2019-04-22T08:44:53Z</time>
      </trkpt>
      <trkpt lat="48.24238" lon="-2.90835">
        <ele>295</ele>
        <time>2019-04-22T08:47:17Z</time>
      </trkpt>
      <trkpt lat="48.24241" lon="-2.90829">
        <ele>294</ele>
        <time>2019-04-22T08:47:24Z</time>
      </trkpt>
      <trkpt lat="48.24241" lon="-2.90822">
        <ele>294</ele>
        <time>2019-04-22T08:47:35Z</time>
      </trkpt>
      <trkpt lat="48.24245" lon="-2.90818">
        <ele>295</ele>
        <time>2019-04-22T08:48:31Z</time>
      </trkpt>
      <trkpt lat="48.2425" lon="-2.90813">
        <ele>294</ele>
        <time>2019-04-22T08:48:36Z</time>
      </trkpt>
      <trkpt lat="48.24254" lon="-2.90808">
        <ele>294</ele>
        <time>2019-04-22T08:48:40Z</time>
      </trkpt>
      <trkpt lat="48.24257" lon="-2.90802">
        <ele>294</ele>
        <time>2019-04-22T08:48:44Z</time>
      </trkpt>
      <trkpt lat="48.2426" lon="-2.90784">
        <ele>291</ele>
        <time>2019-04-22T08:48:51Z</time>
      </trkpt>
      <trkpt lat="48.24261" lon="-2.90776">
        <ele>291</ele>
        <time>2019-04-22T08:48:54Z</time>
      </trkpt>
      <trkpt lat="48.24256" lon="-2.90762">
        <ele>291</ele>
        <time>2019-04-22T08:49:00Z</time>
      </trkpt>
      <trkpt lat="48.24253" lon="-2.90755">
        <ele>291</ele>
        <time>2019-04-22T08:49:03Z</time>
      </trkpt>
      <trkpt lat="48.24251" lon="-2.90747">
        <ele>291</ele>
        <time>2019-04-22T08:49:06Z</time>
      </trkpt>
      <trkpt lat="48.2425" lon="-2.90741">
        <ele>291</ele>
        <time>2019-04-22T08:49:09Z</time>
      </trkpt>
      <trkpt lat="48.24252" lon="-2.90734">
        <ele>291</ele>
        <time>2019-04-22T08:49:13Z</time>
      </trkpt>
      <trkpt lat="48.24256" lon="-2.9072">
        <ele>292</ele>
        <time>2019-04-22T08:49:21Z</time>
      </trkpt>
      <trkpt lat="48.24266" lon="-2.90675">
        <ele>290</ele>
        <time>2019-04-22T08:49:37Z</time>
      </trkpt>
      <trkpt lat="48.24268" lon="-2.90668">
        <ele>289</ele>
        <time>2019-04-22T08:49:39Z</time>
      </trkpt>
      <trkpt lat="48.2427" lon="-2.9066">
        <ele>289</ele>
        <time>2019-04-22T08:49:41Z</time>
      </trkpt>
      <trkpt lat="48.24271" lon="-2.90651">
        <ele>289</ele>
        <time>2019-04-22T08:49:43Z</time>
      </trkpt>
      <trkpt lat="48.24272" lon="-2.90644">
        <ele>288</ele>
        <time>2019-04-22T08:49:46Z</time>
      </trkpt>
      <trkpt lat="48.24275" lon="-2.90638">
        <ele>288</ele>
        <time>2019-04-22T08:49:49Z</time>
      </trkpt>
      <trkpt lat="48.24279" lon="-2.90636">
        <ele>288</ele>
        <time>2019-04-22T08:49:54Z</time>
      </trkpt>
      <trkpt lat="48.24285" lon="-2.90636">
        <ele>287</ele>
        <time>2019-04-22T08:49:58Z</time>
      </trkpt>
      <trkpt lat="48.2429" lon="-2.90635">
        <ele>286</ele>
        <time>2019-04-22T08:50:02Z</time>
      </trkpt>
      <trkpt lat="48.24298" lon="-2.90608">
        <ele>283</ele>
        <time>2019-04-22T08:50:16Z</time>
      </trkpt>
      <trkpt lat="48.24301" lon="-2.90602">
        <ele>284</ele>
        <time>2019-04-22T08:50:20Z</time>
      </trkpt>
      <trkpt lat="48.24302" lon="-2.90585">
        <ele>287</ele>
        <time>2019-04-22T08:50:28Z</time>
      </trkpt>
      <trkpt lat="48.24304" lon="-2.90563">
        <ele>287</ele>
        <time>2019-04-22T08:50:38Z</time>
      </trkpt>
      <trkpt lat="48.24306" lon="-2.90556">
        <ele>287</ele>
        <time>2019-04-22T08:50:41Z</time>
      </trkpt>
      <trkpt lat="48.24306" lon="-2.90549">
        <ele>287</ele>
        <time>2019-04-22T08:50:45Z</time>
      </trkpt>
      <trkpt lat="48.24308" lon="-2.90541">
        <ele>287</ele>
        <time>2019-04-22T08:50:51Z</time>
      </trkpt>
      <trkpt lat="48.24312" lon="-2.90527">
        <ele>286</ele>
        <time>2019-04-22T08:51:00Z</time>
      </trkpt>
      <trkpt lat="48.24317" lon="-2.90505">
        <ele>282</ele>
        <time>2019-04-22T08:51:11Z</time>
      </trkpt>
      <trkpt lat="48.24334" lon="-2.90482">
        <ele>280</ele>
        <time>2019-04-22T08:51:23Z</time>
      </trkpt>
      <trkpt lat="48.24338" lon="-2.90474">
        <ele>280</ele>
        <time>2019-04-22T08:51:26Z</time>
      </trkpt>
      <trkpt lat="48.2434" lon="-2.90466">
        <ele>280</ele>
        <time>2019-04-22T08:51:29Z</time>
      </trkpt>
      <trkpt lat="48.24358" lon="-2.90434">
        <ele>277</ele>
        <time>2019-04-22T08:51:44Z</time>
      </trkpt>
      <trkpt lat="48.24361" lon="-2.90428">
        <ele>275</ele>
        <time>2019-04-22T08:51:48Z</time>
      </trkpt>
      <trkpt lat="48.24367" lon="-2.90427">
        <ele>274</ele>
        <time>2019-04-22T08:51:52Z</time>
      </trkpt>
      <trkpt lat="48.24373" lon="-2.90429">
        <ele>273</ele>
        <time>2019-04-22T08:51:55Z</time>
      </trkpt>
      <trkpt lat="48.24378" lon="-2.90431">
        <ele>272</ele>
        <time>2019-04-22T08:51:58Z</time>
      </trkpt>
      <trkpt lat="48.24386" lon="-2.90419">
        <ele>270</ele>
        <time>2019-04-22T08:52:04Z</time>
      </trkpt>
      <trkpt lat="48.2439" lon="-2.90413">
        <ele>269</ele>
        <time>2019-04-22T08:52:07Z</time>
      </trkpt>
      <trkpt lat="48.24397" lon="-2.904">
        <ele>269</ele>
        <time>2019-04-22T08:52:13Z</time>
      </trkpt>
      <trkpt lat="48.24405" lon="-2.90381">
        <ele>269</ele>
        <time>2019-04-22T08:52:22Z</time>
      </trkpt>
      <trkpt lat="48.24417" lon="-2.90352">
        <ele>268</ele>
        <time>2019-04-22T08:52:34Z</time>
      </trkpt>
      <trkpt lat="48.24419" lon="-2.90346">
        <ele>266</ele>
        <time>2019-04-22T08:52:37Z</time>
      </trkpt>
      <trkpt lat="48.24437" lon="-2.90339">
        <ele>264</ele>
        <time>2019-04-22T08:52:43Z</time>
      </trkpt>
      <trkpt lat="48.2446" lon="-2.9033">
        <ele>262</ele>
        <time>2019-04-22T08:52:49Z</time>
      </trkpt>
      <trkpt lat="48.24489" lon="-2.90311">
        <ele>261</ele>
        <time>2019-04-22T08:52:57Z</time>
      </trkpt>
      <trkpt lat="48.24502" lon="-2.90304">
        <ele>260</ele>
        <time>2019-04-22T08:53:01Z</time>
      </trkpt>
      <trkpt lat="48.24508" lon="-2.90299">
        <ele>260</ele>
        <time>2019-04-22T08:53:03Z</time>
      </trkpt>
      <trkpt lat="48.24515" lon="-2.9029">
        <ele>261</ele>
        <time>2019-04-22T08:53:05Z</time>
      </trkpt>
      <trkpt lat="48.24518" lon="-2.90279">
        <ele>262</ele>
        <time>2019-04-22T08:53:07Z</time>
      </trkpt>
      <trkpt lat="48.24518" lon="-2.90269">
        <ele>262</ele>
        <time>2019-04-22T08:53:09Z</time>
      </trkpt>
      <trkpt lat="48.24515" lon="-2.90255">
        <ele>265</ele>
        <time>2019-04-22T08:53:15Z</time>
      </trkpt>
      <trkpt lat="48.24513" lon="-2.90242">
        <ele>267</ele>
        <time>2019-04-22T08:53:21Z</time>
      </trkpt>
      <trkpt lat="48.24511" lon="-2.90234">
        <ele>269</ele>
        <time>2019-04-22T08:53:25Z</time>
      </trkpt>
      <trkpt lat="48.24512" lon="-2.90226">
        <ele>270</ele>
        <time>2019-04-22T08:53:29Z</time>
      </trkpt>
      <trkpt lat="48.24539" lon="-2.90215">
        <ele>271</ele>
        <time>2019-04-22T08:53:46Z</time>
      </trkpt>
      <trkpt lat="48.24545" lon="-2.90215">
        <ele>270</ele>
        <time>2019-04-22T08:53:49Z</time>
      </trkpt>
      <trkpt lat="48.24558" lon="-2.90211">
        <ele>268</ele>
        <time>2019-04-22T08:53:55Z</time>
      </trkpt>
      <trkpt lat="48.24576" lon="-2.9021">
        <ele>267</ele>
        <time>2019-04-22T08:54:01Z</time>
      </trkpt>
      <trkpt lat="48.24593" lon="-2.90205">
        <ele>266</ele>
        <time>2019-04-22T08:54:08Z</time>
      </trkpt>
      <trkpt lat="48.24598" lon="-2.90202">
        <ele>266</ele>
        <time>2019-04-22T08:54:11Z</time>
      </trkpt>
      <trkpt lat="48.24602" lon="-2.90196">
        <ele>267</ele>
        <time>2019-04-22T08:54:14Z</time>
      </trkpt>
      <trkpt lat="48.24607" lon="-2.90191">
        <ele>268</ele>
        <time>2019-04-22T08:54:18Z</time>
      </trkpt>
      <trkpt lat="48.24616" lon="-2.90184">
        <ele>271</ele>
        <time>2019-04-22T08:54:24Z</time>
      </trkpt>
      <trkpt lat="48.24623" lon="-2.90183">
        <ele>273</ele>
        <time>2019-04-22T08:54:27Z</time>
      </trkpt>
      <trkpt lat="48.24628" lon="-2.9018">
        <ele>274</ele>
        <time>2019-04-22T08:54:30Z</time>
      </trkpt>
      <trkpt lat="48.24634" lon="-2.90179">
        <ele>276</ele>
        <time>2019-04-22T08:54:33Z</time>
      </trkpt>
      <trkpt lat="48.2464" lon="-2.90179">
        <ele>277</ele>
        <time>2019-04-22T08:54:36Z</time>
      </trkpt>
      <trkpt lat="48.24645" lon="-2.90179">
        <ele>277</ele>
        <time>2019-04-22T08:54:39Z</time>
      </trkpt>
      <trkpt lat="48.24651" lon="-2.90177">
        <ele>278</ele>
        <time>2019-04-22T08:54:43Z</time>
      </trkpt>
      <trkpt lat="48.24654" lon="-2.90172">
        <ele>279</ele>
        <time>2019-04-22T08:54:47Z</time>
      </trkpt>
      <trkpt lat="48.24654" lon="-2.90165">
        <ele>281</ele>
        <time>2019-04-22T08:54:53Z</time>
      </trkpt>
      <trkpt lat="48.2465" lon="-2.90158">
        <ele>282</ele>
        <time>2019-04-22T08:54:56Z</time>
      </trkpt>
      <trkpt lat="48.2465" lon="-2.90151">
        <ele>282</ele>
        <time>2019-04-22T08:55:00Z</time>
      </trkpt>
      <trkpt lat="48.2465" lon="-2.90134">
        <ele>280</ele>
        <time>2019-04-22T08:55:07Z</time>
      </trkpt>
      <trkpt lat="48.2465" lon="-2.90127">
        <ele>279</ele>
        <time>2019-04-22T08:55:12Z</time>
      </trkpt>
      <trkpt lat="48.24653" lon="-2.90121">
        <ele>278</ele>
        <time>2019-04-22T08:55:16Z</time>
      </trkpt>
      <trkpt lat="48.24649" lon="-2.90107">
        <ele>276</ele>
        <time>2019-04-22T08:55:21Z</time>
      </trkpt>
      <trkpt lat="48.24636" lon="-2.9006">
        <ele>274</ele>
        <time>2019-04-22T08:55:43Z</time>
      </trkpt>
      <trkpt lat="48.24632" lon="-2.90046">
        <ele>271</ele>
        <time>2019-04-22T08:55:53Z</time>
      </trkpt>
      <trkpt lat="48.24634" lon="-2.9004">
        <ele>270</ele>
        <time>2019-04-22T08:55:56Z</time>
      </trkpt>
      <trkpt lat="48.24638" lon="-2.90025">
        <ele>269</ele>
        <time>2019-04-22T08:56:05Z</time>
      </trkpt>
      <trkpt lat="48.24643" lon="-2.90021">
        <ele>269</ele>
        <time>2019-04-22T08:56:10Z</time>
      </trkpt>
      <trkpt lat="48.24654" lon="-2.90025">
        <ele>268</ele>
        <time>2019-04-22T08:56:17Z</time>
      </trkpt>
      <trkpt lat="48.24726" lon="-2.90007">
        <ele>273</ele>
        <time>2019-04-22T08:56:48Z</time>
      </trkpt>
      <trkpt lat="48.24732" lon="-2.90006">
        <ele>274</ele>
        <time>2019-04-22T08:56:52Z</time>
      </trkpt>
      <trkpt lat="48.24737" lon="-2.90004">
        <ele>274</ele>
        <time>2019-04-22T08:56:56Z</time>
      </trkpt>
      <trkpt lat="48.24742" lon="-2.90002">
        <ele>274</ele>
        <time>2019-04-22T08:57:00Z</time>
      </trkpt>
      <trkpt lat="48.24748" lon="-2.9">
        <ele>274</ele>
        <time>2019-04-22T08:57:08Z</time>
      </trkpt>
      <trkpt lat="48.24753" lon="-2.89997">
        <ele>273</ele>
        <time>2019-04-22T08:57:11Z</time>
      </trkpt>
      <trkpt lat="48.24759" lon="-2.89994">
        <ele>273</ele>
        <time>2019-04-22T08:57:19Z</time>
      </trkpt>
      <trkpt lat="48.24765" lon="-2.89991">
        <ele>274</ele>
        <time>2019-04-22T08:57:21Z</time>
      </trkpt>
      <trkpt lat="48.24796" lon="-2.89981">
        <ele>275</ele>
        <time>2019-04-22T08:57:54Z</time>
      </trkpt>
      <trkpt lat="48.24813" lon="-2.89976">
        <ele>273</ele>
        <time>2019-04-22T08:58:04Z</time>
      </trkpt>
      <trkpt lat="48.2482" lon="-2.89975">
        <ele>271</ele>
        <time>2019-04-22T08:58:07Z</time>
      </trkpt>
      <trkpt lat="48.24829" lon="-2.89967">
        <ele>270</ele>
        <time>2019-04-22T08:58:11Z</time>
      </trkpt>
      <trkpt lat="48.24829" lon="-2.8996">
        <ele>270</ele>
        <time>2019-04-22T08:58:15Z</time>
      </trkpt>
      <trkpt lat="48.24826" lon="-2.89956">
        <ele>270</ele>
        <time>2019-04-22T08:58:18Z</time>
      </trkpt>
      <trkpt lat="48.24824" lon="-2.89948">
        <ele>269</ele>
        <time>2019-04-22T08:58:22Z</time>
      </trkpt>
      <trkpt lat="48.24825" lon="-2.8994">
        <ele>269</ele>
        <time>2019-04-22T08:58:26Z</time>
      </trkpt>
      <trkpt lat="48.24829" lon="-2.89934">
        <ele>269</ele>
        <time>2019-04-22T08:58:30Z</time>
      </trkpt>
      <trkpt lat="48.24833" lon="-2.8993">
        <ele>269</ele>
        <time>2019-04-22T08:58:35Z</time>
      </trkpt>
      <trkpt lat="48.24838" lon="-2.89926">
        <ele>268</ele>
        <time>2019-04-22T08:58:39Z</time>
      </trkpt>
      <trkpt lat="48.24846" lon="-2.89918">
        <ele>267</ele>
        <time>2019-04-22T08:58:46Z</time>
      </trkpt>
      <trkpt lat="48.2485" lon="-2.89913">
        <ele>266</ele>
        <time>2019-04-22T08:58:50Z</time>
      </trkpt>
      <trkpt lat="48.24855" lon="-2.89908">
        <ele>266</ele>
        <time>2019-04-22T08:58:54Z</time>
      </trkpt>
      <trkpt lat="48.24856" lon="-2.899">
        <ele>266</ele>
        <time>2019-04-22T08:58:59Z</time>
      </trkpt>
      <trkpt lat="48.24853" lon="-2.89893">
        <ele>264</ele>
        <time>2019-04-22T08:59:03Z</time>
      </trkpt>
      <trkpt lat="48.24849" lon="-2.89888">
        <ele>263</ele>
        <time>2019-04-22T08:59:06Z</time>
      </trkpt>
      <trkpt lat="48.24847" lon="-2.89881">
        <ele>262</ele>
        <time>2019-04-22T08:59:09Z</time>
      </trkpt>
      <trkpt lat="48.24849" lon="-2.89873">
        <ele>260</ele>
        <time>2019-04-22T08:59:13Z</time>
      </trkpt>
      <trkpt lat="48.2485" lon="-2.89866">
        <ele>258</ele>
        <time>2019-04-22T08:59:16Z</time>
      </trkpt>
      <trkpt lat="48.24848" lon="-2.89856">
        <ele>257</ele>
        <time>2019-04-22T08:59:19Z</time>
      </trkpt>
      <trkpt lat="48.24839" lon="-2.89836">
        <ele>254</ele>
        <time>2019-04-22T08:59:27Z</time>
      </trkpt>
      <trkpt lat="48.24838" lon="-2.89828">
        <ele>253</ele>
        <time>2019-04-22T08:59:30Z</time>
      </trkpt>
      <trkpt lat="48.24839" lon="-2.89821">
        <ele>253</ele>
        <time>2019-04-22T08:59:33Z</time>
      </trkpt>
      <trkpt lat="48.2484" lon="-2.89813">
        <ele>252</ele>
        <time>2019-04-22T08:59:37Z</time>
      </trkpt>
      <trkpt lat="48.24836" lon="-2.89808">
        <ele>252</ele>
        <time>2019-04-22T08:59:41Z</time>
      </trkpt>
      <trkpt lat="48.2483" lon="-2.89806">
        <ele>252</ele>
        <time>2019-04-22T08:59:48Z</time>
      </trkpt>
      <trkpt lat="48.24825" lon="-2.89807">
        <ele>253</ele>
        <time>2019-04-22T08:59:51Z</time>
      </trkpt>
      <trkpt lat="48.24816" lon="-2.89809">
        <ele>253</ele>
        <time>2019-04-22T08:59:55Z</time>
      </trkpt>
      <trkpt lat="48.24795" lon="-2.89817">
        <ele>253</ele>
        <time>2019-04-22T09:00:01Z</time>
      </trkpt>
      <trkpt lat="48.24775" lon="-2.89821">
        <ele>253</ele>
        <time>2019-04-22T09:00:05Z</time>
      </trkpt>
      <trkpt lat="48.24748" lon="-2.8982">
        <ele>251</ele>
        <time>2019-04-22T09:00:13Z</time>
      </trkpt>
      <trkpt lat="48.24734" lon="-2.89823">
        <ele>252</ele>
        <time>2019-04-22T09:00:17Z</time>
      </trkpt>
      <trkpt lat="48.24727" lon="-2.89824">
        <ele>252</ele>
        <time>2019-04-22T09:00:19Z</time>
      </trkpt>
      <trkpt lat="48.24722" lon="-2.89825">
        <ele>253</ele>
        <time>2019-04-22T09:00:21Z</time>
      </trkpt>
      <trkpt lat="48.24705" lon="-2.89839">
        <ele>256</ele>
        <time>2019-04-22T09:00:31Z</time>
      </trkpt>
      <trkpt lat="48.24702" lon="-2.89843">
        <ele>257</ele>
        <time>2019-04-22T09:00:35Z</time>
      </trkpt>
      <trkpt lat="48.24697" lon="-2.89844">
        <ele>258</ele>
        <time>2019-04-22T09:00:38Z</time>
      </trkpt>
      <trkpt lat="48.24691" lon="-2.89845">
        <ele>258</ele>
        <time>2019-04-22T09:00:42Z</time>
      </trkpt>
      <trkpt lat="48.24673" lon="-2.89842">
        <ele>258</ele>
        <time>2019-04-22T09:00:49Z</time>
      </trkpt>
      <trkpt lat="48.24668" lon="-2.89839">
        <ele>259</ele>
        <time>2019-04-22T09:00:52Z</time>
      </trkpt>
      <trkpt lat="48.24659" lon="-2.89819">
        <ele>257</ele>
        <time>2019-04-22T09:01:01Z</time>
      </trkpt>
      <trkpt lat="48.24644" lon="-2.89788">
        <ele>250</ele>
        <time>2019-04-22T09:01:15Z</time>
      </trkpt>
      <trkpt lat="48.24639" lon="-2.89784">
        <ele>247</ele>
        <time>2019-04-22T09:01:18Z</time>
      </trkpt>
      <trkpt lat="48.24632" lon="-2.89775">
        <ele>243</ele>
        <time>2019-04-22T09:01:25Z</time>
      </trkpt>
      <trkpt lat="48.2462" lon="-2.89747">
        <ele>237</ele>
        <time>2019-04-22T09:01:33Z</time>
      </trkpt>
      <trkpt lat="48.24617" lon="-2.89739">
        <ele>236</ele>
        <time>2019-04-22T09:01:36Z</time>
      </trkpt>
      <trkpt lat="48.24616" lon="-2.89732">
        <ele>235</ele>
        <time>2019-04-22T09:01:38Z</time>
      </trkpt>
      <trkpt lat="48.24613" lon="-2.89724">
        <ele>235</ele>
        <time>2019-04-22T09:01:41Z</time>
      </trkpt>
      <trkpt lat="48.2461" lon="-2.89718">
        <ele>236</ele>
        <time>2019-04-22T09:01:43Z</time>
      </trkpt>
      <trkpt lat="48.24613" lon="-2.89709">
        <ele>236</ele>
        <time>2019-04-22T09:01:47Z</time>
      </trkpt>
      <trkpt lat="48.24621" lon="-2.89696">
        <ele>237</ele>
        <time>2019-04-22T09:01:52Z</time>
      </trkpt>
      <trkpt lat="48.24628" lon="-2.89694">
        <ele>237</ele>
        <time>2019-04-22T09:01:54Z</time>
      </trkpt>
      <trkpt lat="48.2464" lon="-2.89696">
        <ele>236</ele>
        <time>2019-04-22T09:01:57Z</time>
      </trkpt>
      <trkpt lat="48.2477" lon="-2.89661">
        <ele>226</ele>
        <time>2019-04-22T09:02:22Z</time>
      </trkpt>
      <trkpt lat="48.24786" lon="-2.89639">
        <ele>225</ele>
        <time>2019-04-22T09:02:29Z</time>
      </trkpt>
      <trkpt lat="48.24799" lon="-2.89635">
        <ele>225</ele>
        <time>2019-04-22T09:02:35Z</time>
      </trkpt>
      <trkpt lat="48.24817" lon="-2.89622">
        <ele>225</ele>
        <time>2019-04-22T09:02:40Z</time>
      </trkpt>
      <trkpt lat="48.24826" lon="-2.89598">
        <ele>225</ele>
        <time>2019-04-22T09:02:46Z</time>
      </trkpt>
      <trkpt lat="48.24823" lon="-2.89569">
        <ele>223</ele>
        <time>2019-04-22T09:02:52Z</time>
      </trkpt>
      <trkpt lat="48.24824" lon="-2.8956">
        <ele>222</ele>
        <time>2019-04-22T09:02:54Z</time>
      </trkpt>
      <trkpt lat="48.24825" lon="-2.89552">
        <ele>222</ele>
        <time>2019-04-22T09:02:56Z</time>
      </trkpt>
      <trkpt lat="48.24827" lon="-2.89543">
        <ele>222</ele>
        <time>2019-04-22T09:02:58Z</time>
      </trkpt>
      <trkpt lat="48.24831" lon="-2.89537">
        <ele>222</ele>
        <time>2019-04-22T09:03:00Z</time>
      </trkpt>
      <trkpt lat="48.24838" lon="-2.89519">
        <ele>221</ele>
        <time>2019-04-22T09:03:04Z</time>
      </trkpt>
      <trkpt lat="48.24858" lon="-2.89484">
        <ele>220</ele>
        <time>2019-04-22T09:03:13Z</time>
      </trkpt>
      <trkpt lat="48.24884" lon="-2.8946">
        <ele>219</ele>
        <time>2019-04-22T09:03:21Z</time>
      </trkpt>
      <trkpt lat="48.24892" lon="-2.89451">
        <ele>219</ele>
        <time>2019-04-22T09:03:23Z</time>
      </trkpt>
      <trkpt lat="48.249" lon="-2.89445">
        <ele>219</ele>
        <time>2019-04-22T09:03:25Z</time>
      </trkpt>
      <trkpt lat="48.24906" lon="-2.89443">
        <ele>219</ele>
        <time>2019-04-22T09:03:27Z</time>
      </trkpt>
      <trkpt lat="48.24935" lon="-2.89455">
        <ele>222</ele>
        <time>2019-04-22T09:03:35Z</time>
      </trkpt>
      <trkpt lat="48.24942" lon="-2.89459">
        <ele>223</ele>
        <time>2019-04-22T09:03:37Z</time>
      </trkpt>
      <trkpt lat="48.24945" lon="-2.89466">
        <ele>226</ele>
        <time>2019-04-22T09:03:39Z</time>
      </trkpt>
      <trkpt lat="48.2495" lon="-2.89462">
        <ele>228</ele>
        <time>2019-04-22T09:03:42Z</time>
      </trkpt>
      <trkpt lat="48.24956" lon="-2.89461">
        <ele>231</ele>
        <time>2019-04-22T09:03:45Z</time>
      </trkpt>
      <trkpt lat="48.2496" lon="-2.89463">
        <ele>232</ele>
        <time>2019-04-22T09:03:46Z</time>
      </trkpt>
      <trkpt lat="48.24966" lon="-2.8947">
        <ele>235</ele>
        <time>2019-04-22T09:03:48Z</time>
      </trkpt>
      <trkpt lat="48.2497" lon="-2.89479">
        <ele>237</ele>
        <time>2019-04-22T09:03:50Z</time>
      </trkpt>
      <trkpt lat="48.24974" lon="-2.89488">
        <ele>241</ele>
        <time>2019-04-22T09:03:52Z</time>
      </trkpt>
      <trkpt lat="48.24978" lon="-2.89494">
        <ele>243</ele>
        <time>2019-04-22T09:03:54Z</time>
      </trkpt>
      <trkpt lat="48.24983" lon="-2.89495">
        <ele>244</ele>
        <time>2019-04-22T09:03:56Z</time>
      </trkpt>
      <trkpt lat="48.24985" lon="-2.89505">
        <ele>246</ele>
        <time>2019-04-22T09:03:58Z</time>
      </trkpt>
      <trkpt lat="48.24986" lon="-2.89514">
        <ele>248</ele>
        <time>2019-04-22T09:04:00Z</time>
      </trkpt>
      <trkpt lat="48.24991" lon="-2.89518">
        <ele>253</ele>
        <time>2019-04-22T09:04:04Z</time>
      </trkpt>
      <trkpt lat="48.24997" lon="-2.89516">
        <ele>254</ele>
        <time>2019-04-22T09:04:11Z</time>
      </trkpt>
      <trkpt lat="48.2501" lon="-2.89527">
        <ele>257</ele>
        <time>2019-04-22T09:04:18Z</time>
      </trkpt>
      <trkpt lat="48.2505" lon="-2.89559">
        <ele>262</ele>
        <time>2019-04-22T09:04:32Z</time>
      </trkpt>
      <trkpt lat="48.25055" lon="-2.89567">
        <ele>261</ele>
        <time>2019-04-22T09:04:34Z</time>
      </trkpt>
      <trkpt lat="48.25059" lon="-2.89572">
        <ele>260</ele>
        <time>2019-04-22T09:04:37Z</time>
      </trkpt>
      <trkpt lat="48.25069" lon="-2.89563">
        <ele>262</ele>
        <time>2019-04-22T09:04:42Z</time>
      </trkpt>
      <trkpt lat="48.2507" lon="-2.89555">
        <ele>264</ele>
        <time>2019-04-22T09:04:45Z</time>
      </trkpt>
      <trkpt lat="48.25068" lon="-2.89547">
        <ele>265</ele>
        <time>2019-04-22T09:04:48Z</time>
      </trkpt>
      <trkpt lat="48.25068" lon="-2.89538">
        <ele>266</ele>
        <time>2019-04-22T09:04:52Z</time>
      </trkpt>
      <trkpt lat="48.25071" lon="-2.89529">
        <ele>267</ele>
        <time>2019-04-22T09:04:56Z</time>
      </trkpt>
      <trkpt lat="48.25075" lon="-2.89524">
        <ele>267</ele>
        <time>2019-04-22T09:04:58Z</time>
      </trkpt>
      <trkpt lat="48.251" lon="-2.89506">
        <ele>262</ele>
        <time>2019-04-22T09:05:08Z</time>
      </trkpt>
      <trkpt lat="48.25105" lon="-2.89502">
        <ele>262</ele>
        <time>2019-04-22T09:05:10Z</time>
      </trkpt>
      <trkpt lat="48.25155" lon="-2.89473">
        <ele>262</ele>
        <time>2019-04-22T09:05:26Z</time>
      </trkpt>
      <trkpt lat="48.2516" lon="-2.89468">
        <ele>262</ele>
        <time>2019-04-22T09:05:29Z</time>
      </trkpt>
      <trkpt lat="48.25195" lon="-2.89419">
        <ele>267</ele>
        <time>2019-04-22T09:05:58Z</time>
      </trkpt>
      <trkpt lat="48.25192" lon="-2.89412">
        <ele>269</ele>
        <time>2019-04-22T09:06:02Z</time>
      </trkpt>
      <trkpt lat="48.2518" lon="-2.8938">
        <ele>271</ele>
        <time>2019-04-22T09:06:14Z</time>
      </trkpt>
      <trkpt lat="48.25175" lon="-2.89371">
        <ele>271</ele>
        <time>2019-04-22T09:06:16Z</time>
      </trkpt>
      <trkpt lat="48.25162" lon="-2.8935">
        <ele>270</ele>
        <time>2019-04-22T09:06:22Z</time>
      </trkpt>
      <trkpt lat="48.25155" lon="-2.8934">
        <ele>269</ele>
        <time>2019-04-22T09:06:26Z</time>
      </trkpt>
      <trkpt lat="48.25104" lon="-2.89237">
        <ele>267</ele>
        <time>2019-04-22T09:06:46Z</time>
      </trkpt>
      <trkpt lat="48.25102" lon="-2.8923">
        <ele>267</ele>
        <time>2019-04-22T09:06:47Z</time>
      </trkpt>
      <trkpt lat="48.25101" lon="-2.89214">
        <ele>267</ele>
        <time>2019-04-22T09:06:49Z</time>
      </trkpt>
      <trkpt lat="48.25103" lon="-2.89205">
        <ele>267</ele>
        <time>2019-04-22T09:06:51Z</time>
      </trkpt>
      <trkpt lat="48.25104" lon="-2.89194">
        <ele>268</ele>
        <time>2019-04-22T09:06:53Z</time>
      </trkpt>
      <trkpt lat="48.25111" lon="-2.89177">
        <ele>268</ele>
        <time>2019-04-22T09:06:57Z</time>
      </trkpt>
      <trkpt lat="48.25115" lon="-2.89168">
        <ele>268</ele>
        <time>2019-04-22T09:06:59Z</time>
      </trkpt>
      <trkpt lat="48.25121" lon="-2.89168">
        <ele>267</ele>
        <time>2019-04-22T09:07:01Z</time>
      </trkpt>
      <trkpt lat="48.25194" lon="-2.89281">
        <ele>268</ele>
        <time>2019-04-22T09:07:20Z</time>
      </trkpt>
      <trkpt lat="48.25204" lon="-2.893">
        <ele>268</ele>
        <time>2019-04-22T09:07:23Z</time>
      </trkpt>
      <trkpt lat="48.25254" lon="-2.89378">
        <ele>272</ele>
        <time>2019-04-22T09:07:41Z</time>
      </trkpt>
      <trkpt lat="48.25259" lon="-2.89386">
        <ele>273</ele>
        <time>2019-04-22T09:07:43Z</time>
      </trkpt>
      <trkpt lat="48.25264" lon="-2.89387">
        <ele>276</ele>
        <time>2019-04-22T09:07:46Z</time>
      </trkpt>
      <trkpt lat="48.25269" lon="-2.89384">
        <ele>278</ele>
        <time>2019-04-22T09:07:49Z</time>
      </trkpt>
      <trkpt lat="48.25302" lon="-2.89354">
        <ele>281</ele>
        <time>2019-04-22T09:07:59Z</time>
      </trkpt>
      <trkpt lat="48.25309" lon="-2.89345">
        <ele>282</ele>
        <time>2019-04-22T09:08:01Z</time>
      </trkpt>
      <trkpt lat="48.25313" lon="-2.8934">
        <ele>282</ele>
        <time>2019-04-22T09:08:02Z</time>
      </trkpt>
      <trkpt lat="48.25312" lon="-2.89329">
        <ele>282</ele>
        <time>2019-04-22T09:08:04Z</time>
      </trkpt>
      <trkpt lat="48.25243" lon="-2.89231">
        <ele>286</ele>
        <time>2019-04-22T09:08:24Z</time>
      </trkpt>
      <trkpt lat="48.25234" lon="-2.89215">
        <ele>287</ele>
        <time>2019-04-22T09:08:28Z</time>
      </trkpt>
      <trkpt lat="48.25225" lon="-2.89202">
        <ele>288</ele>
        <time>2019-04-22T09:08:32Z</time>
      </trkpt>
      <trkpt lat="48.25221" lon="-2.89195">
        <ele>288</ele>
        <time>2019-04-22T09:08:34Z</time>
      </trkpt>
      <trkpt lat="48.25174" lon="-2.89129">
        <ele>285</ele>
        <time>2019-04-22T09:08:53Z</time>
      </trkpt>
      <trkpt lat="48.25166" lon="-2.89116">
        <ele>283</ele>
        <time>2019-04-22T09:08:59Z</time>
      </trkpt>
      <trkpt lat="48.2516" lon="-2.8911">
        <ele>282</ele>
        <time>2019-04-22T09:09:01Z</time>
      </trkpt>
      <trkpt lat="48.25154" lon="-2.89106">
        <ele>280</ele>
        <time>2019-04-22T09:09:03Z</time>
      </trkpt>
      <trkpt lat="48.25149" lon="-2.89101">
        <ele>280</ele>
        <time>2019-04-22T09:09:06Z</time>
      </trkpt>
      <trkpt lat="48.25148" lon="-2.89094">
        <ele>279</ele>
        <time>2019-04-22T09:09:11Z</time>
      </trkpt>
      <trkpt lat="48.25153" lon="-2.89082">
        <ele>279</ele>
        <time>2019-04-22T09:09:19Z</time>
      </trkpt>
      <trkpt lat="48.25156" lon="-2.89075">
        <ele>278</ele>
        <time>2019-04-22T09:09:22Z</time>
      </trkpt>
      <trkpt lat="48.2516" lon="-2.89069">
        <ele>278</ele>
        <time>2019-04-22T09:09:26Z</time>
      </trkpt>
      <trkpt lat="48.25163" lon="-2.89063">
        <ele>277</ele>
        <time>2019-04-22T09:09:29Z</time>
      </trkpt>
      <trkpt lat="48.25169" lon="-2.89049">
        <ele>277</ele>
        <time>2019-04-22T09:09:37Z</time>
      </trkpt>
      <trkpt lat="48.25172" lon="-2.89042">
        <ele>277</ele>
        <time>2019-04-22T09:09:41Z</time>
      </trkpt>
      <trkpt lat="48.25187" lon="-2.89017">
        <ele>277</ele>
        <time>2019-04-22T09:09:54Z</time>
      </trkpt>
      <trkpt lat="48.25194" lon="-2.89003">
        <ele>277</ele>
        <time>2019-04-22T09:09:59Z</time>
      </trkpt>
      <trkpt lat="48.25201" lon="-2.88991">
        <ele>277</ele>
        <time>2019-04-22T09:10:04Z</time>
      </trkpt>
      <trkpt lat="48.25254" lon="-2.88889">
        <ele>278</ele>
        <time>2019-04-22T09:10:25Z</time>
      </trkpt>
      <trkpt lat="48.25256" lon="-2.8888">
        <ele>277</ele>
        <time>2019-04-22T09:10:27Z</time>
      </trkpt>
      <trkpt lat="48.25244" lon="-2.88842">
        <ele>273</ele>
        <time>2019-04-22T09:10:40Z</time>
      </trkpt>
      <trkpt lat="48.25228" lon="-2.88819">
        <ele>269</ele>
        <time>2019-04-22T09:10:52Z</time>
      </trkpt>
      <trkpt lat="48.25224" lon="-2.88816">
        <ele>269</ele>
        <time>2019-04-22T09:10:56Z</time>
      </trkpt>
      <trkpt lat="48.2522" lon="-2.88811">
        <ele>268</ele>
        <time>2019-04-22T09:11:00Z</time>
      </trkpt>
      <trkpt lat="48.25208" lon="-2.88811">
        <ele>267</ele>
        <time>2019-04-22T09:11:06Z</time>
      </trkpt>
      <trkpt lat="48.25205" lon="-2.88816">
        <ele>266</ele>
        <time>2019-04-22T09:11:10Z</time>
      </trkpt>
      <trkpt lat="48.25184" lon="-2.8884">
        <ele>265</ele>
        <time>2019-04-22T09:11:27Z</time>
      </trkpt>
      <trkpt lat="48.2518" lon="-2.88843">
        <ele>264</ele>
        <time>2019-04-22T09:11:30Z</time>
      </trkpt>
      <trkpt lat="48.25174" lon="-2.88847">
        <ele>263</ele>
        <time>2019-04-22T09:11:35Z</time>
      </trkpt>
      <trkpt lat="48.25162" lon="-2.88863">
        <ele>262</ele>
        <time>2019-04-22T09:11:43Z</time>
      </trkpt>
      <trkpt lat="48.25158" lon="-2.88868">
        <ele>262</ele>
        <time>2019-04-22T09:11:45Z</time>
      </trkpt>
      <trkpt lat="48.25153" lon="-2.88873">
        <ele>263</ele>
        <time>2019-04-22T09:11:47Z</time>
      </trkpt>
      <trkpt lat="48.25148" lon="-2.88875">
        <ele>263</ele>
        <time>2019-04-22T09:11:49Z</time>
      </trkpt>
      <trkpt lat="48.25137" lon="-2.88879">
        <ele>264</ele>
        <time>2019-04-22T09:11:54Z</time>
      </trkpt>
      <trkpt lat="48.25128" lon="-2.88888">
        <ele>264</ele>
        <time>2019-04-22T09:11:58Z</time>
      </trkpt>
      <trkpt lat="48.25123" lon="-2.88893">
        <ele>264</ele>
        <time>2019-04-22T09:12:01Z</time>
      </trkpt>
      <trkpt lat="48.25119" lon="-2.88897">
        <ele>265</ele>
        <time>2019-04-22T09:12:05Z</time>
      </trkpt>
      <trkpt lat="48.25114" lon="-2.88902">
        <ele>265</ele>
        <time>2019-04-22T09:12:09Z</time>
      </trkpt>
      <trkpt lat="48.25109" lon="-2.88907">
        <ele>265</ele>
        <time>2019-04-22T09:12:13Z</time>
      </trkpt>
      <trkpt lat="48.25104" lon="-2.88911">
        <ele>264</ele>
        <time>2019-04-22T09:12:16Z</time>
      </trkpt>
      <trkpt lat="48.25099" lon="-2.88914">
        <ele>264</ele>
        <time>2019-04-22T09:12:19Z</time>
      </trkpt>
      <trkpt lat="48.2509" lon="-2.88921">
        <ele>262</ele>
        <time>2019-04-22T09:12:23Z</time>
      </trkpt>
      <trkpt lat="48.25024" lon="-2.89094">
        <ele>252</ele>
        <time>2019-04-22T09:12:50Z</time>
      </trkpt>
      <trkpt lat="48.25015" lon="-2.89132">
        <ele>249</ele>
        <time>2019-04-22T09:12:56Z</time>
      </trkpt>
      <trkpt lat="48.25012" lon="-2.89142">
        <ele>249</ele>
        <time>2019-04-22T09:12:58Z</time>
      </trkpt>
      <trkpt lat="48.25008" lon="-2.89149">
        <ele>249</ele>
        <time>2019-04-22T09:13:00Z</time>
      </trkpt>
      <trkpt lat="48.25002" lon="-2.89165">
        <ele>249</ele>
        <time>2019-04-22T09:13:04Z</time>
      </trkpt>
      <trkpt lat="48.2499" lon="-2.89181">
        <ele>252</ele>
        <time>2019-04-22T09:13:11Z</time>
      </trkpt>
      <trkpt lat="48.24973" lon="-2.89215">
        <ele>256</ele>
        <time>2019-04-22T09:13:31Z</time>
      </trkpt>
      <trkpt lat="48.24969" lon="-2.89221">
        <ele>255</ele>
        <time>2019-04-22T09:13:35Z</time>
      </trkpt>
      <trkpt lat="48.24954" lon="-2.89243">
        <ele>253</ele>
        <time>2019-04-22T09:13:50Z</time>
      </trkpt>
      <trkpt lat="48.24948" lon="-2.89255">
        <ele>251</ele>
        <time>2019-04-22T09:13:57Z</time>
      </trkpt>
      <trkpt lat="48.24945" lon="-2.89262">
        <ele>250</ele>
        <time>2019-04-22T09:14:01Z</time>
      </trkpt>
      <trkpt lat="48.2494" lon="-2.89265">
        <ele>250</ele>
        <time>2019-04-22T09:14:05Z</time>
      </trkpt>
      <trkpt lat="48.24936" lon="-2.89251">
        <ele>249</ele>
        <time>2019-04-22T09:14:11Z</time>
      </trkpt>
      <trkpt lat="48.24934" lon="-2.89234">
        <ele>248</ele>
        <time>2019-04-22T09:14:17Z</time>
      </trkpt>
      <trkpt lat="48.24936" lon="-2.89226">
        <ele>247</ele>
        <time>2019-04-22T09:14:20Z</time>
      </trkpt>
      <trkpt lat="48.24935" lon="-2.89219">
        <ele>246</ele>
        <time>2019-04-22T09:14:23Z</time>
      </trkpt>
      <trkpt lat="48.24933" lon="-2.89212">
        <ele>243</ele>
        <time>2019-04-22T09:14:26Z</time>
      </trkpt>
      <trkpt lat="48.24933" lon="-2.89204">
        <ele>242</ele>
        <time>2019-04-22T09:14:29Z</time>
      </trkpt>
      <trkpt lat="48.24933" lon="-2.89197">
        <ele>239</ele>
        <time>2019-04-22T09:14:32Z</time>
      </trkpt>
      <trkpt lat="48.24933" lon="-2.8919">
        <ele>238</ele>
        <time>2019-04-22T09:14:35Z</time>
      </trkpt>
      <trkpt lat="48.24933" lon="-2.89171">
        <ele>233</ele>
        <time>2019-04-22T09:14:41Z</time>
      </trkpt>
      <trkpt lat="48.24936" lon="-2.89153">
        <ele>231</ele>
        <time>2019-04-22T09:14:45Z</time>
      </trkpt>
      <trkpt lat="48.24941" lon="-2.89145">
        <ele>230</ele>
        <time>2019-04-22T09:14:47Z</time>
      </trkpt>
      <trkpt lat="48.24945" lon="-2.89137">
        <ele>229</ele>
        <time>2019-04-22T09:14:49Z</time>
      </trkpt>
      <trkpt lat="48.24967" lon="-2.89087">
        <ele>227</ele>
        <time>2019-04-22T09:14:57Z</time>
      </trkpt>
      <trkpt lat="48.25001" lon="-2.89019">
        <ele>225</ele>
        <time>2019-04-22T09:15:05Z</time>
      </trkpt>
      <trkpt lat="48.25017" lon="-2.8896">
        <ele>221</ele>
        <time>2019-04-22T09:15:14Z</time>
      </trkpt>
      <trkpt lat="48.25049" lon="-2.88889">
        <ele>218</ele>
        <time>2019-04-22T09:15:25Z</time>
      </trkpt>
      <trkpt lat="48.25071" lon="-2.88864">
        <ele>217</ele>
        <time>2019-04-22T09:15:31Z</time>
      </trkpt>
      <trkpt lat="48.25078" lon="-2.88853">
        <ele>216</ele>
        <time>2019-04-22T09:15:33Z</time>
      </trkpt>
      <trkpt lat="48.2508" lon="-2.88841">
        <ele>215</ele>
        <time>2019-04-22T09:15:35Z</time>
      </trkpt>
      <trkpt lat="48.25083" lon="-2.88831">
        <ele>214</ele>
        <time>2019-04-22T09:15:37Z</time>
      </trkpt>
      <trkpt lat="48.25087" lon="-2.88824">
        <ele>213</ele>
        <time>2019-04-22T09:15:39Z</time>
      </trkpt>
      <trkpt lat="48.25096" lon="-2.88811">
        <ele>211</ele>
        <time>2019-04-22T09:15:45Z</time>
      </trkpt>
      <trkpt lat="48.25106" lon="-2.88799">
        <ele>212</ele>
        <time>2019-04-22T09:15:49Z</time>
      </trkpt>
      <trkpt lat="48.2514" lon="-2.8877">
        <ele>210</ele>
        <time>2019-04-22T09:16:01Z</time>
      </trkpt>
      <trkpt lat="48.25146" lon="-2.88759">
        <ele>210</ele>
        <time>2019-04-22T09:16:04Z</time>
      </trkpt>
      <trkpt lat="48.2515" lon="-2.88751">
        <ele>209</ele>
        <time>2019-04-22T09:16:06Z</time>
      </trkpt>
      <trkpt lat="48.25154" lon="-2.88747">
        <ele>209</ele>
        <time>2019-04-22T09:16:08Z</time>
      </trkpt>
      <trkpt lat="48.2516" lon="-2.88738">
        <ele>209</ele>
        <time>2019-04-22T09:16:11Z</time>
      </trkpt>
      <trkpt lat="48.25171" lon="-2.88728">
        <ele>209</ele>
        <time>2019-04-22T09:16:15Z</time>
      </trkpt>
      <trkpt lat="48.25176" lon="-2.8872">
        <ele>209</ele>
        <time>2019-04-22T09:16:18Z</time>
      </trkpt>
      <trkpt lat="48.25183" lon="-2.88718">
        <ele>210</ele>
        <time>2019-04-22T09:16:22Z</time>
      </trkpt>
      <trkpt lat="48.25188" lon="-2.88714">
        <ele>214</ele>
        <time>2019-04-22T09:16:27Z</time>
      </trkpt>
      <trkpt lat="48.25192" lon="-2.88709">
        <ele>215</ele>
        <time>2019-04-22T09:16:29Z</time>
      </trkpt>
      <trkpt lat="48.25201" lon="-2.88697">
        <ele>218</ele>
        <time>2019-04-22T09:16:34Z</time>
      </trkpt>
      <trkpt lat="48.25205" lon="-2.88693">
        <ele>220</ele>
        <time>2019-04-22T09:16:36Z</time>
      </trkpt>
      <trkpt lat="48.25218" lon="-2.88678">
        <ele>223</ele>
        <time>2019-04-22T09:16:44Z</time>
      </trkpt>
      <trkpt lat="48.25221" lon="-2.88674">
        <ele>224</ele>
        <time>2019-04-22T09:16:47Z</time>
      </trkpt>
      <trkpt lat="48.25225" lon="-2.88667">
        <ele>225</ele>
        <time>2019-04-22T09:16:50Z</time>
      </trkpt>
      <trkpt lat="48.25227" lon="-2.88658">
        <ele>225</ele>
        <time>2019-04-22T09:16:53Z</time>
      </trkpt>
      <trkpt lat="48.25228" lon="-2.88652">
        <ele>226</ele>
        <time>2019-04-22T09:16:55Z</time>
      </trkpt>
      <trkpt lat="48.25232" lon="-2.88645">
        <ele>226</ele>
        <time>2019-04-22T09:16:58Z</time>
      </trkpt>
      <trkpt lat="48.25244" lon="-2.88638">
        <ele>224</ele>
        <time>2019-04-22T09:17:03Z</time>
      </trkpt>
      <trkpt lat="48.25249" lon="-2.88632">
        <ele>223</ele>
        <time>2019-04-22T09:17:05Z</time>
      </trkpt>
      <trkpt lat="48.25252" lon="-2.88624">
        <ele>223</ele>
        <time>2019-04-22T09:17:07Z</time>
      </trkpt>
      <trkpt lat="48.25256" lon="-2.8861">
        <ele>224</ele>
        <time>2019-04-22T09:17:11Z</time>
      </trkpt>
      <trkpt lat="48.25247" lon="-2.88589">
        <ele>226</ele>
        <time>2019-04-22T09:17:21Z</time>
      </trkpt>
      <trkpt lat="48.25249" lon="-2.88582">
        <ele>225</ele>
        <time>2019-04-22T09:17:26Z</time>
      </trkpt>
      <trkpt lat="48.25265" lon="-2.88566">
        <ele>223</ele>
        <time>2019-04-22T09:17:41Z</time>
      </trkpt>
      <trkpt lat="48.25274" lon="-2.88559">
        <ele>223</ele>
        <time>2019-04-22T09:17:47Z</time>
      </trkpt>
      <trkpt lat="48.25279" lon="-2.88557">
        <ele>223</ele>
        <time>2019-04-22T09:17:53Z</time>
      </trkpt>
      <trkpt lat="48.25284" lon="-2.88555">
        <ele>223</ele>
        <time>2019-04-22T09:17:55Z</time>
      </trkpt>
      <trkpt lat="48.25293" lon="-2.88546">
        <ele>222</ele>
        <time>2019-04-22T09:17:59Z</time>
      </trkpt>
      <trkpt lat="48.25298" lon="-2.8854">
        <ele>223</ele>
        <time>2019-04-22T09:18:02Z</time>
      </trkpt>
      <trkpt lat="48.25301" lon="-2.88534">
        <ele>223</ele>
        <time>2019-04-22T09:18:06Z</time>
      </trkpt>
      <trkpt lat="48.25304" lon="-2.88527">
        <ele>223</ele>
        <time>2019-04-22T09:18:11Z</time>
      </trkpt>
      <trkpt lat="48.25321" lon="-2.88524">
        <ele>223</ele>
        <time>2019-04-22T09:18:20Z</time>
      </trkpt>
      <trkpt lat="48.25337" lon="-2.88514">
        <ele>222</ele>
        <time>2019-04-22T09:18:27Z</time>
      </trkpt>
      <trkpt lat="48.25353" lon="-2.88505">
        <ele>224</ele>
        <time>2019-04-22T09:18:40Z</time>
      </trkpt>
      <trkpt lat="48.25357" lon="-2.88502">
        <ele>224</ele>
        <time>2019-04-22T09:18:43Z</time>
      </trkpt>
      <trkpt lat="48.25363" lon="-2.88498">
        <ele>225</ele>
        <time>2019-04-22T09:18:47Z</time>
      </trkpt>
      <trkpt lat="48.25367" lon="-2.88493">
        <ele>225</ele>
        <time>2019-04-22T09:18:51Z</time>
      </trkpt>
      <trkpt lat="48.2538" lon="-2.88457">
        <ele>227</ele>
        <time>2019-04-22T09:19:08Z</time>
      </trkpt>
      <trkpt lat="48.25389" lon="-2.88448">
        <ele>229</ele>
        <time>2019-04-22T09:19:19Z</time>
      </trkpt>
      <trkpt lat="48.25394" lon="-2.88445">
        <ele>230</ele>
        <time>2019-04-22T09:19:23Z</time>
      </trkpt>
      <trkpt lat="48.25399" lon="-2.88443">
        <ele>230</ele>
        <time>2019-04-22T09:19:26Z</time>
      </trkpt>
      <trkpt lat="48.25404" lon="-2.8844">
        <ele>230</ele>
        <time>2019-04-22T09:19:30Z</time>
      </trkpt>
      <trkpt lat="48.2541" lon="-2.88437">
        <ele>230</ele>
        <time>2019-04-22T09:19:32Z</time>
      </trkpt>
      <trkpt lat="48.25415" lon="-2.88435">
        <ele>229</ele>
        <time>2019-04-22T09:19:34Z</time>
      </trkpt>
      <trkpt lat="48.25419" lon="-2.88429">
        <ele>229</ele>
        <time>2019-04-22T09:19:37Z</time>
      </trkpt>
      <trkpt lat="48.25423" lon="-2.88423">
        <ele>227</ele>
        <time>2019-04-22T09:19:42Z</time>
      </trkpt>
      <trkpt lat="48.25427" lon="-2.88419">
        <ele>227</ele>
        <time>2019-04-22T09:19:45Z</time>
      </trkpt>
      <trkpt lat="48.25431" lon="-2.88413">
        <ele>226</ele>
        <time>2019-04-22T09:19:48Z</time>
      </trkpt>
      <trkpt lat="48.25437" lon="-2.88409">
        <ele>226</ele>
        <time>2019-04-22T09:19:51Z</time>
      </trkpt>
      <trkpt lat="48.25443" lon="-2.88394">
        <ele>225</ele>
        <time>2019-04-22T09:19:58Z</time>
      </trkpt>
      <trkpt lat="48.25447" lon="-2.8839">
        <ele>225</ele>
        <time>2019-04-22T09:20:11Z</time>
      </trkpt>
      <trkpt lat="48.25452" lon="-2.88387">
        <ele>225</ele>
        <time>2019-04-22T09:20:14Z</time>
      </trkpt>
      <trkpt lat="48.25456" lon="-2.88382">
        <ele>226</ele>
        <time>2019-04-22T09:20:18Z</time>
      </trkpt>
      <trkpt lat="48.25469" lon="-2.88362">
        <ele>230</ele>
        <time>2019-04-22T09:20:46Z</time>
      </trkpt>
      <trkpt lat="48.25473" lon="-2.88354">
        <ele>230</ele>
        <time>2019-04-22T09:20:48Z</time>
      </trkpt>
      <trkpt lat="48.2548" lon="-2.88341">
        <ele>229</ele>
        <time>2019-04-22T09:20:53Z</time>
      </trkpt>
      <trkpt lat="48.25477" lon="-2.88335">
        <ele>228</ele>
        <time>2019-04-22T09:20:58Z</time>
      </trkpt>
      <trkpt lat="48.25465" lon="-2.88303">
        <ele>222</ele>
        <time>2019-04-22T09:21:17Z</time>
      </trkpt>
      <trkpt lat="48.25462" lon="-2.88299">
        <ele>220</ele>
        <time>2019-04-22T09:21:22Z</time>
      </trkpt>
      <trkpt lat="48.25458" lon="-2.88293">
        <ele>218</ele>
        <time>2019-04-22T09:21:32Z</time>
      </trkpt>
      <trkpt lat="48.25459" lon="-2.88286">
        <ele>217</ele>
        <time>2019-04-22T09:21:37Z</time>
      </trkpt>
      <trkpt lat="48.25478" lon="-2.8826">
        <ele>215</ele>
        <time>2019-04-22T09:21:46Z</time>
      </trkpt>
      <trkpt lat="48.25492" lon="-2.8825">
        <ele>213</ele>
        <time>2019-04-22T09:21:50Z</time>
      </trkpt>
      <trkpt lat="48.25515" lon="-2.88216">
        <ele>209</ele>
        <time>2019-04-22T09:21:57Z</time>
      </trkpt>
      <trkpt lat="48.25615" lon="-2.8815">
        <ele>204</ele>
        <time>2019-04-22T09:22:27Z</time>
      </trkpt>
      <trkpt lat="48.25623" lon="-2.88142">
        <ele>204</ele>
        <time>2019-04-22T09:22:29Z</time>
      </trkpt>
      <trkpt lat="48.25629" lon="-2.88134">
        <ele>204</ele>
        <time>2019-04-22T09:22:31Z</time>
      </trkpt>
      <trkpt lat="48.25638" lon="-2.88113">
        <ele>204</ele>
        <time>2019-04-22T09:22:38Z</time>
      </trkpt>
      <trkpt lat="48.25642" lon="-2.88107">
        <ele>203</ele>
        <time>2019-04-22T09:22:40Z</time>
      </trkpt>
      <trkpt lat="48.25648" lon="-2.88103">
        <ele>203</ele>
        <time>2019-04-22T09:22:42Z</time>
      </trkpt>
      <trkpt lat="48.25653" lon="-2.88097">
        <ele>203</ele>
        <time>2019-04-22T09:22:44Z</time>
      </trkpt>
      <trkpt lat="48.25667" lon="-2.88087">
        <ele>204</ele>
        <time>2019-04-22T09:22:48Z</time>
      </trkpt>
      <trkpt lat="48.25712" lon="-2.88065">
        <ele>205</ele>
        <time>2019-04-22T09:22:58Z</time>
      </trkpt>
      <trkpt lat="48.25734" lon="-2.88035">
        <ele>206</ele>
        <time>2019-04-22T09:23:06Z</time>
      </trkpt>
      <trkpt lat="48.25736" lon="-2.88028">
        <ele>207</ele>
        <time>2019-04-22T09:23:08Z</time>
      </trkpt>
      <trkpt lat="48.25738" lon="-2.88022">
        <ele>207</ele>
        <time>2019-04-22T09:23:11Z</time>
      </trkpt>
      <trkpt lat="48.25747" lon="-2.88001">
        <ele>206</ele>
        <time>2019-04-22T09:23:18Z</time>
      </trkpt>
      <trkpt lat="48.25768" lon="-2.87976">
        <ele>206</ele>
        <time>2019-04-22T09:23:29Z</time>
      </trkpt>
      <trkpt lat="48.25794" lon="-2.87923">
        <ele>205</ele>
        <time>2019-04-22T09:23:57Z</time>
      </trkpt>
      <trkpt lat="48.25797" lon="-2.87915">
        <ele>205</ele>
        <time>2019-04-22T09:24:00Z</time>
      </trkpt>
      <trkpt lat="48.25802" lon="-2.87894">
        <ele>207</ele>
        <time>2019-04-22T09:24:10Z</time>
      </trkpt>
      <trkpt lat="48.25806" lon="-2.87872">
        <ele>206</ele>
        <time>2019-04-22T09:24:20Z</time>
      </trkpt>
      <trkpt lat="48.25822" lon="-2.87832">
        <ele>199</ele>
        <time>2019-04-22T09:24:42Z</time>
      </trkpt>
      <trkpt lat="48.25826" lon="-2.87824">
        <ele>197</ele>
        <time>2019-04-22T09:24:46Z</time>
      </trkpt>
      <trkpt lat="48.2583" lon="-2.87821">
        <ele>196</ele>
        <time>2019-04-22T09:24:49Z</time>
      </trkpt>
      <trkpt lat="48.25852" lon="-2.87789">
        <ele>197</ele>
        <time>2019-04-22T09:25:08Z</time>
      </trkpt>
      <trkpt lat="48.25867" lon="-2.87777">
        <ele>198</ele>
        <time>2019-04-22T09:25:17Z</time>
      </trkpt>
      <trkpt lat="48.2587" lon="-2.8777">
        <ele>198</ele>
        <time>2019-04-22T09:25:21Z</time>
      </trkpt>
      <trkpt lat="48.25869" lon="-2.87762">
        <ele>199</ele>
        <time>2019-04-22T09:25:24Z</time>
      </trkpt>
      <trkpt lat="48.2587" lon="-2.87754">
        <ele>199</ele>
        <time>2019-04-22T09:25:28Z</time>
      </trkpt>
      <trkpt lat="48.2589" lon="-2.87727">
        <ele>198</ele>
        <time>2019-04-22T09:25:45Z</time>
      </trkpt>
      <trkpt lat="48.25898" lon="-2.87717">
        <ele>198</ele>
        <time>2019-04-22T09:25:53Z</time>
      </trkpt>
      <trkpt lat="48.25908" lon="-2.87701">
        <ele>198</ele>
        <time>2019-04-22T09:26:03Z</time>
      </trkpt>
      <trkpt lat="48.25916" lon="-2.87674">
        <ele>197</ele>
        <time>2019-04-22T09:26:16Z</time>
      </trkpt>
      <trkpt lat="48.25918" lon="-2.87665">
        <ele>196</ele>
        <time>2019-04-22T09:26:20Z</time>
      </trkpt>
      <trkpt lat="48.25946" lon="-2.87602">
        <ele>190</ele>
        <time>2019-04-22T09:26:51Z</time>
      </trkpt>
      <trkpt lat="48.25961" lon="-2.87573">
        <ele>188</ele>
        <time>2019-04-22T09:27:06Z</time>
      </trkpt>
      <trkpt lat="48.25968" lon="-2.87563">
        <ele>189</ele>
        <time>2019-04-22T09:27:15Z</time>
      </trkpt>
      <trkpt lat="48.25971" lon="-2.87556">
        <ele>188</ele>
        <time>2019-04-22T09:27:20Z</time>
      </trkpt>
      <trkpt lat="48.25979" lon="-2.87548">
        <ele>186</ele>
        <time>2019-04-22T09:27:26Z</time>
      </trkpt>
      <trkpt lat="48.25984" lon="-2.87546">
        <ele>186</ele>
        <time>2019-04-22T09:27:29Z</time>
      </trkpt>
      <trkpt lat="48.25989" lon="-2.87541">
        <ele>186</ele>
        <time>2019-04-22T09:27:33Z</time>
      </trkpt>
      <trkpt lat="48.25995" lon="-2.87538">
        <ele>186</ele>
        <time>2019-04-22T09:27:37Z</time>
      </trkpt>
      <trkpt lat="48.2601" lon="-2.8753">
        <ele>184</ele>
        <time>2019-04-22T09:27:48Z</time>
      </trkpt>
      <trkpt lat="48.26021" lon="-2.87526">
        <ele>183</ele>
        <time>2019-04-22T09:27:54Z</time>
      </trkpt>
      <trkpt lat="48.26027" lon="-2.87523">
        <ele>182</ele>
        <time>2019-04-22T09:27:57Z</time>
      </trkpt>
      <trkpt lat="48.26032" lon="-2.87521">
        <ele>182</ele>
        <time>2019-04-22T09:27:59Z</time>
      </trkpt>
      <trkpt lat="48.26047" lon="-2.87518">
        <ele>183</ele>
        <time>2019-04-22T09:28:11Z</time>
      </trkpt>
      <trkpt lat="48.26052" lon="-2.87516">
        <ele>183</ele>
        <time>2019-04-22T09:28:13Z</time>
      </trkpt>
      <trkpt lat="48.26075" lon="-2.87516">
        <ele>178</ele>
        <time>2019-04-22T09:28:21Z</time>
      </trkpt>
      <trkpt lat="48.26096" lon="-2.87514">
        <ele>178</ele>
        <time>2019-04-22T09:28:34Z</time>
      </trkpt>
      <trkpt lat="48.26107" lon="-2.87509">
        <ele>181</ele>
        <time>2019-04-22T09:28:42Z</time>
      </trkpt>
      <trkpt lat="48.26116" lon="-2.87501">
        <ele>183</ele>
        <time>2019-04-22T09:28:52Z</time>
      </trkpt>
      <trkpt lat="48.26122" lon="-2.87499">
        <ele>182</ele>
        <time>2019-04-22T09:28:55Z</time>
      </trkpt>
      <trkpt lat="48.26124" lon="-2.87495">
        <ele>181</ele>
        <time>2019-04-22T09:29:11Z</time>
      </trkpt>
      <trkpt lat="48.26125" lon="-2.87487">
        <ele>180</ele>
        <time>2019-04-22T09:29:14Z</time>
      </trkpt>
      <trkpt lat="48.26125" lon="-2.87479">
        <ele>179</ele>
        <time>2019-04-22T09:29:17Z</time>
      </trkpt>
      <trkpt lat="48.26128" lon="-2.87473">
        <ele>179</ele>
        <time>2019-04-22T09:29:20Z</time>
      </trkpt>
      <trkpt lat="48.26136" lon="-2.87465">
        <ele>180</ele>
        <time>2019-04-22T09:29:27Z</time>
      </trkpt>
      <trkpt lat="48.26179" lon="-2.8746">
        <ele>180</ele>
        <time>2019-04-22T09:29:50Z</time>
      </trkpt>
      <trkpt lat="48.26199" lon="-2.87451">
        <ele>182</ele>
        <time>2019-04-22T09:30:01Z</time>
      </trkpt>
      <trkpt lat="48.26208" lon="-2.87442">
        <ele>184</ele>
        <time>2019-04-22T09:30:08Z</time>
      </trkpt>
      <trkpt lat="48.26212" lon="-2.87437">
        <ele>185</ele>
        <time>2019-04-22T09:30:12Z</time>
      </trkpt>
      <trkpt lat="48.26212" lon="-2.87429">
        <ele>185</ele>
        <time>2019-04-22T09:30:16Z</time>
      </trkpt>
      <trkpt lat="48.26204" lon="-2.87351">
        <ele>180</ele>
        <time>2019-04-22T09:30:47Z</time>
      </trkpt>
      <trkpt lat="48.26202" lon="-2.87336">
        <ele>178</ele>
        <time>2019-04-22T09:30:55Z</time>
      </trkpt>
      <trkpt lat="48.26201" lon="-2.87328">
        <ele>178</ele>
        <time>2019-04-22T09:30:58Z</time>
      </trkpt>
      <trkpt lat="48.26199" lon="-2.87321">
        <ele>177</ele>
        <time>2019-04-22T09:31:01Z</time>
      </trkpt>
      <trkpt lat="48.26193" lon="-2.873">
        <ele>176</ele>
        <time>2019-04-22T09:31:11Z</time>
      </trkpt>
      <trkpt lat="48.26184" lon="-2.87273">
        <ele>167</ele>
        <time>2019-04-22T09:31:26Z</time>
      </trkpt>
      <trkpt lat="48.26182" lon="-2.87266">
        <ele>165</ele>
        <time>2019-04-22T09:31:29Z</time>
      </trkpt>
      <trkpt lat="48.26178" lon="-2.87259">
        <ele>165</ele>
        <time>2019-04-22T09:31:33Z</time>
      </trkpt>
      <trkpt lat="48.26176" lon="-2.87252">
        <ele>164</ele>
        <time>2019-04-22T09:31:36Z</time>
      </trkpt>
      <trkpt lat="48.2617" lon="-2.87239">
        <ele>164</ele>
        <time>2019-04-22T09:31:42Z</time>
      </trkpt>
      <trkpt lat="48.26168" lon="-2.87232">
        <ele>163</ele>
        <time>2019-04-22T09:31:45Z</time>
      </trkpt>
      <trkpt lat="48.2615" lon="-2.87167">
        <ele>157</ele>
        <time>2019-04-22T09:32:15Z</time>
      </trkpt>
      <trkpt lat="48.26145" lon="-2.87151">
        <ele>158</ele>
        <time>2019-04-22T09:32:21Z</time>
      </trkpt>
      <trkpt lat="48.26143" lon="-2.87143">
        <ele>158</ele>
        <time>2019-04-22T09:32:25Z</time>
      </trkpt>
      <trkpt lat="48.26146" lon="-2.87127">
        <ele>156</ele>
        <time>2019-04-22T09:32:34Z</time>
      </trkpt>
      <trkpt lat="48.26149" lon="-2.87122">
        <ele>155</ele>
        <time>2019-04-22T09:32:38Z</time>
      </trkpt>
      <trkpt lat="48.26154" lon="-2.87118">
        <ele>155</ele>
        <time>2019-04-22T09:32:41Z</time>
      </trkpt>
      <trkpt lat="48.26159" lon="-2.87113">
        <ele>155</ele>
        <time>2019-04-22T09:32:45Z</time>
      </trkpt>
      <trkpt lat="48.26169" lon="-2.87106">
        <ele>155</ele>
        <time>2019-04-22T09:32:51Z</time>
      </trkpt>
      <trkpt lat="48.26186" lon="-2.87085">
        <ele>154</ele>
        <time>2019-04-22T09:33:02Z</time>
      </trkpt>
      <trkpt lat="48.26194" lon="-2.87073">
        <ele>154</ele>
        <time>2019-04-22T09:33:09Z</time>
      </trkpt>
      <trkpt lat="48.26198" lon="-2.87058">
        <ele>154</ele>
        <time>2019-04-22T09:33:16Z</time>
      </trkpt>
      <trkpt lat="48.262" lon="-2.87051">
        <ele>153</ele>
        <time>2019-04-22T09:33:19Z</time>
      </trkpt>
      <trkpt lat="48.26202" lon="-2.87045">
        <ele>153</ele>
        <time>2019-04-22T09:33:22Z</time>
      </trkpt>
      <trkpt lat="48.26219" lon="-2.87007">
        <ele>156</ele>
        <time>2019-04-22T09:33:40Z</time>
      </trkpt>
      <trkpt lat="48.26227" lon="-2.86995">
        <ele>155</ele>
        <time>2019-04-22T09:33:47Z</time>
      </trkpt>
      <trkpt lat="48.26235" lon="-2.86956">
        <ele>156</ele>
        <time>2019-04-22T09:34:03Z</time>
      </trkpt>
      <trkpt lat="48.26238" lon="-2.86941">
        <ele>157</ele>
        <time>2019-04-22T09:34:10Z</time>
      </trkpt>
      <trkpt lat="48.26241" lon="-2.86924">
        <ele>156</ele>
        <time>2019-04-22T09:34:17Z</time>
      </trkpt>
      <trkpt lat="48.26246" lon="-2.86901">
        <ele>153</ele>
        <time>2019-04-22T09:34:27Z</time>
      </trkpt>
      <trkpt lat="48.26249" lon="-2.86893">
        <ele>151</ele>
        <time>2019-04-22T09:34:31Z</time>
      </trkpt>
      <trkpt lat="48.26252" lon="-2.86871">
        <ele>150</ele>
        <time>2019-04-22T09:34:41Z</time>
      </trkpt>
      <trkpt lat="48.26252" lon="-2.86863">
        <ele>152</ele>
        <time>2019-04-22T09:34:45Z</time>
      </trkpt>
      <trkpt lat="48.26254" lon="-2.86855">
        <ele>152</ele>
        <time>2019-04-22T09:34:48Z</time>
      </trkpt>
      <trkpt lat="48.26258" lon="-2.86842">
        <ele>154</ele>
        <time>2019-04-22T09:34:54Z</time>
      </trkpt>
      <trkpt lat="48.26258" lon="-2.86836">
        <ele>154</ele>
        <time>2019-04-22T09:34:58Z</time>
      </trkpt>
      <trkpt lat="48.26253" lon="-2.86834">
        <ele>154</ele>
        <time>2019-04-22T09:35:03Z</time>
      </trkpt>
      <trkpt lat="48.26247" lon="-2.86836">
        <ele>155</ele>
        <time>2019-04-22T09:35:07Z</time>
      </trkpt>
      <trkpt lat="48.26243" lon="-2.86842">
        <ele>155</ele>
        <time>2019-04-22T09:35:10Z</time>
      </trkpt>
      <trkpt lat="48.26235" lon="-2.86864">
        <ele>152</ele>
        <time>2019-04-22T09:35:17Z</time>
      </trkpt>
      <trkpt lat="48.26232" lon="-2.8687">
        <ele>151</ele>
        <time>2019-04-22T09:35:19Z</time>
      </trkpt>
      <trkpt lat="48.26224" lon="-2.86886">
        <ele>151</ele>
        <time>2019-04-22T09:35:23Z</time>
      </trkpt>
      <trkpt lat="48.26192" lon="-2.86923">
        <ele>151</ele>
        <time>2019-04-22T09:35:33Z</time>
      </trkpt>
      <trkpt lat="48.26184" lon="-2.86935">
        <ele>151</ele>
        <time>2019-04-22T09:35:37Z</time>
      </trkpt>
      <trkpt lat="48.26158" lon="-2.87011">
        <ele>148</ele>
        <time>2019-04-22T09:35:52Z</time>
      </trkpt>
      <trkpt lat="48.26155" lon="-2.87016">
        <ele>148</ele>
        <time>2019-04-22T09:35:53Z</time>
      </trkpt>
      <trkpt lat="48.2611" lon="-2.87052">
        <ele>148</ele>
        <time>2019-04-22T09:36:09Z</time>
      </trkpt>
      <trkpt lat="48.26104" lon="-2.87054">
        <ele>147</ele>
        <time>2019-04-22T09:36:11Z</time>
      </trkpt>
      <trkpt lat="48.26098" lon="-2.87053">
        <ele>147</ele>
        <time>2019-04-22T09:36:14Z</time>
      </trkpt>
      <trkpt lat="48.26091" lon="-2.8705">
        <ele>146</ele>
        <time>2019-04-22T09:36:17Z</time>
      </trkpt>
      <trkpt lat="48.2608" lon="-2.87046">
        <ele>147</ele>
        <time>2019-04-22T09:36:23Z</time>
      </trkpt>
      <trkpt lat="48.26075" lon="-2.87046">
        <ele>147</ele>
        <time>2019-04-22T09:36:25Z</time>
      </trkpt>
      <trkpt lat="48.26067" lon="-2.87047">
        <ele>148</ele>
        <time>2019-04-22T09:36:27Z</time>
      </trkpt>
      <trkpt lat="48.25979" lon="-2.871">
        <ele>149</ele>
        <time>2019-04-22T09:36:53Z</time>
      </trkpt>
      <trkpt lat="48.25974" lon="-2.87105">
        <ele>149</ele>
        <time>2019-04-22T09:36:55Z</time>
      </trkpt>
      <trkpt lat="48.25968" lon="-2.87109">
        <ele>149</ele>
        <time>2019-04-22T09:36:57Z</time>
      </trkpt>
      <trkpt lat="48.2595" lon="-2.87117">
        <ele>150</ele>
        <time>2019-04-22T09:37:03Z</time>
      </trkpt>
      <trkpt lat="48.25926" lon="-2.87119">
        <ele>151</ele>
        <time>2019-04-22T09:37:09Z</time>
      </trkpt>
      <trkpt lat="48.25894" lon="-2.87123">
        <ele>151</ele>
        <time>2019-04-22T09:37:17Z</time>
      </trkpt>
      <trkpt lat="48.25876" lon="-2.8713">
        <ele>152</ele>
        <time>2019-04-22T09:37:23Z</time>
      </trkpt>
      <trkpt lat="48.25864" lon="-2.87132">
        <ele>152</ele>
        <time>2019-04-22T09:37:28Z</time>
      </trkpt>
      <trkpt lat="48.2586" lon="-2.87133">
        <ele>152</ele>
        <time>2019-04-22T09:37:30Z</time>
      </trkpt>
      <trkpt lat="48.25815" lon="-2.87129">
        <ele>151</ele>
        <time>2019-04-22T09:37:57Z</time>
      </trkpt>
      <trkpt lat="48.258" lon="-2.87136">
        <ele>153</ele>
        <time>2019-04-22T09:38:09Z</time>
      </trkpt>
      <trkpt lat="48.25734" lon="-2.87147">
        <ele>154</ele>
        <time>2019-04-22T09:38:32Z</time>
      </trkpt>
      <trkpt lat="48.25714" lon="-2.87159">
        <ele>154</ele>
        <time>2019-04-22T09:38:44Z</time>
      </trkpt>
      <trkpt lat="48.25708" lon="-2.87163">
        <ele>153</ele>
        <time>2019-04-22T09:38:49Z</time>
      </trkpt>
      <trkpt lat="48.25702" lon="-2.87167">
        <ele>153</ele>
        <time>2019-04-22T09:38:51Z</time>
      </trkpt>
      <trkpt lat="48.25697" lon="-2.87169">
        <ele>153</ele>
        <time>2019-04-22T09:38:53Z</time>
      </trkpt>
      <trkpt lat="48.25675" lon="-2.87159">
        <ele>152</ele>
        <time>2019-04-22T09:39:02Z</time>
      </trkpt>
      <trkpt lat="48.25652" lon="-2.87148">
        <ele>152</ele>
        <time>2019-04-22T09:39:08Z</time>
      </trkpt>
      <trkpt lat="48.25574" lon="-2.87137">
        <ele>153</ele>
        <time>2019-04-22T09:39:26Z</time>
      </trkpt>
      <trkpt lat="48.2556" lon="-2.87127">
        <ele>153</ele>
        <time>2019-04-22T09:39:30Z</time>
      </trkpt>
      <trkpt lat="48.25554" lon="-2.87121">
        <ele>151</ele>
        <time>2019-04-22T09:39:32Z</time>
      </trkpt>
      <trkpt lat="48.25523" lon="-2.87088">
        <ele>147</ele>
        <time>2019-04-22T09:39:42Z</time>
      </trkpt>
      <trkpt lat="48.25503" lon="-2.87067">
        <ele>148</ele>
        <time>2019-04-22T09:39:47Z</time>
      </trkpt>
      <trkpt lat="48.2547" lon="-2.87053">
        <ele>148</ele>
        <time>2019-04-22T09:39:56Z</time>
      </trkpt>
      <trkpt lat="48.25463" lon="-2.87049">
        <ele>148</ele>
        <time>2019-04-22T09:39:58Z</time>
      </trkpt>
      <trkpt lat="48.25434" lon="-2.87038">
        <ele>148</ele>
        <time>2019-04-22T09:40:06Z</time>
      </trkpt>
      <trkpt lat="48.25414" lon="-2.87026">
        <ele>145</ele>
        <time>2019-04-22T09:40:11Z</time>
      </trkpt>
      <trkpt lat="48.25396" lon="-2.87021">
        <ele>146</ele>
        <time>2019-04-22T09:40:15Z</time>
      </trkpt>
      <trkpt lat="48.25345" lon="-2.87039">
        <ele>145</ele>
        <time>2019-04-22T09:40:28Z</time>
      </trkpt>
      <trkpt lat="48.25307" lon="-2.87075">
        <ele>143</ele>
        <time>2019-04-22T09:40:40Z</time>
      </trkpt>
      <trkpt lat="48.25293" lon="-2.87086">
        <ele>144</ele>
        <time>2019-04-22T09:40:44Z</time>
      </trkpt>
      <trkpt lat="48.25273" lon="-2.87113">
        <ele>146</ele>
        <time>2019-04-22T09:40:50Z</time>
      </trkpt>
      <trkpt lat="48.25254" lon="-2.8715">
        <ele>146</ele>
        <time>2019-04-22T09:40:58Z</time>
      </trkpt>
      <trkpt lat="48.25248" lon="-2.87159">
        <ele>146</ele>
        <time>2019-04-22T09:41:00Z</time>
      </trkpt>
      <trkpt lat="48.25241" lon="-2.87167">
        <ele>146</ele>
        <time>2019-04-22T09:41:02Z</time>
      </trkpt>
      <trkpt lat="48.25234" lon="-2.87172">
        <ele>146</ele>
        <time>2019-04-22T09:41:04Z</time>
      </trkpt>
      <trkpt lat="48.25215" lon="-2.87172">
        <ele>148</ele>
        <time>2019-04-22T09:41:10Z</time>
      </trkpt>
      <trkpt lat="48.25161" lon="-2.87148">
        <ele>151</ele>
        <time>2019-04-22T09:41:26Z</time>
      </trkpt>
      <trkpt lat="48.25125" lon="-2.87119">
        <ele>152</ele>
        <time>2019-04-22T09:41:36Z</time>
      </trkpt>
      <trkpt lat="48.25118" lon="-2.87115">
        <ele>152</ele>
        <time>2019-04-22T09:41:38Z</time>
      </trkpt>
      <trkpt lat="48.25111" lon="-2.87113">
        <ele>152</ele>
        <time>2019-04-22T09:41:40Z</time>
      </trkpt>
      <trkpt lat="48.25106" lon="-2.87111">
        <ele>153</ele>
        <time>2019-04-22T09:41:42Z</time>
      </trkpt>
      <trkpt lat="48.25099" lon="-2.8711">
        <ele>153</ele>
        <time>2019-04-22T09:41:44Z</time>
      </trkpt>
      <trkpt lat="48.25092" lon="-2.87111">
        <ele>153</ele>
        <time>2019-04-22T09:41:46Z</time>
      </trkpt>
      <trkpt lat="48.25086" lon="-2.87113">
        <ele>153</ele>
        <time>2019-04-22T09:41:48Z</time>
      </trkpt>
      <trkpt lat="48.25075" lon="-2.87118">
        <ele>153</ele>
        <time>2019-04-22T09:41:52Z</time>
      </trkpt>
      <trkpt lat="48.2507" lon="-2.87117">
        <ele>153</ele>
        <time>2019-04-22T09:41:58Z</time>
      </trkpt>
      <trkpt lat="48.25067" lon="-2.87111">
        <ele>153</ele>
        <time>2019-04-22T09:42:02Z</time>
      </trkpt>
      <trkpt lat="48.25063" lon="-2.87107">
        <ele>154</ele>
        <time>2019-04-22T09:42:06Z</time>
      </trkpt>
      <trkpt lat="48.25062" lon="-2.87097">
        <ele>154</ele>
        <time>2019-04-22T09:42:10Z</time>
      </trkpt>
      <trkpt lat="48.25073" lon="-2.87033">
        <ele>151</ele>
        <time>2019-04-22T09:42:35Z</time>
      </trkpt>
      <trkpt lat="48.25078" lon="-2.86969">
        <ele>140</ele>
        <time>2019-04-22T09:43:05Z</time>
      </trkpt>
      <trkpt lat="48.25079" lon="-2.86899">
        <ele>133</ele>
        <time>2019-04-22T09:43:35Z</time>
      </trkpt>
      <trkpt lat="48.25078" lon="-2.86877">
        <ele>132</ele>
        <time>2019-04-22T09:43:44Z</time>
      </trkpt>
      <trkpt lat="48.25074" lon="-2.86818">
        <ele>128</ele>
        <time>2019-04-22T09:44:08Z</time>
      </trkpt>
      <trkpt lat="48.25071" lon="-2.8675">
        <ele>123</ele>
        <time>2019-04-22T09:44:39Z</time>
      </trkpt>
      <trkpt lat="48.25068" lon="-2.86681">
        <ele>116</ele>
        <time>2019-04-22T09:45:09Z</time>
      </trkpt>
      <trkpt lat="48.25065" lon="-2.86622">
        <ele>115</ele>
        <time>2019-04-22T09:45:34Z</time>
      </trkpt>
      <trkpt lat="48.25063" lon="-2.86615">
        <ele>115</ele>
        <time>2019-04-22T09:45:37Z</time>
      </trkpt>
      <trkpt lat="48.2505" lon="-2.86587">
        <ele>118</ele>
        <time>2019-04-22T09:45:49Z</time>
      </trkpt>
      <trkpt lat="48.25039" lon="-2.8655">
        <ele>117</ele>
        <time>2019-04-22T09:46:08Z</time>
      </trkpt>
      <trkpt lat="48.25039" lon="-2.86543">
        <ele>116</ele>
        <time>2019-04-22T09:46:12Z</time>
      </trkpt>
      <trkpt lat="48.25039" lon="-2.86524">
        <ele>115</ele>
        <time>2019-04-22T09:46:19Z</time>
      </trkpt>
      <trkpt lat="48.2504" lon="-2.86517">
        <ele>114</ele>
        <time>2019-04-22T09:46:22Z</time>
      </trkpt>
      <trkpt lat="48.25042" lon="-2.86509">
        <ele>114</ele>
        <time>2019-04-22T09:46:25Z</time>
      </trkpt>
      <trkpt lat="48.25044" lon="-2.86502">
        <ele>114</ele>
        <time>2019-04-22T09:46:28Z</time>
      </trkpt>
      <trkpt lat="48.25048" lon="-2.86484">
        <ele>114</ele>
        <time>2019-04-22T09:46:35Z</time>
      </trkpt>
      <trkpt lat="48.25043" lon="-2.86444">
        <ele>111</ele>
        <time>2019-04-22T09:46:53Z</time>
      </trkpt>
      <trkpt lat="48.25047" lon="-2.86424">
        <ele>112</ele>
        <time>2019-04-22T09:47:02Z</time>
      </trkpt>
      <trkpt lat="48.25049" lon="-2.86418">
        <ele>113</ele>
        <time>2019-04-22T09:47:05Z</time>
      </trkpt>
      <trkpt lat="48.2505" lon="-2.86409">
        <ele>113</ele>
        <time>2019-04-22T09:47:08Z</time>
      </trkpt>
      <trkpt lat="48.2505" lon="-2.86401">
        <ele>114</ele>
        <time>2019-04-22T09:47:11Z</time>
      </trkpt>
      <trkpt lat="48.25052" lon="-2.86379">
        <ele>113</ele>
        <time>2019-04-22T09:47:18Z</time>
      </trkpt>
      <trkpt lat="48.25053" lon="-2.86371">
        <ele>113</ele>
        <time>2019-04-22T09:47:20Z</time>
      </trkpt>
      <trkpt lat="48.25054" lon="-2.86362">
        <ele>113</ele>
        <time>2019-04-22T09:47:22Z</time>
      </trkpt>
      <trkpt lat="48.25073" lon="-2.86299">
        <ele>111</ele>
        <time>2019-04-22T09:47:32Z</time>
      </trkpt>
      <trkpt lat="48.2509" lon="-2.8618">
        <ele>104</ele>
        <time>2019-04-22T09:47:48Z</time>
      </trkpt>
      <trkpt lat="48.25091" lon="-2.8617">
        <ele>103</ele>
        <time>2019-04-22T09:47:50Z</time>
      </trkpt>
      <trkpt lat="48.25077" lon="-2.86134">
        <ele>100</ele>
        <time>2019-04-22T09:47:56Z</time>
      </trkpt>
      <trkpt lat="48.25072" lon="-2.86104">
        <ele>99</ele>
        <time>2019-04-22T09:48:01Z</time>
      </trkpt>
      <trkpt lat="48.25072" lon="-2.86071">
        <ele>100</ele>
        <time>2019-04-22T09:48:07Z</time>
      </trkpt>
      <trkpt lat="48.25071" lon="-2.86062">
        <ele>100</ele>
        <time>2019-04-22T09:48:10Z</time>
      </trkpt>
      <trkpt lat="48.25067" lon="-2.86055">
        <ele>101</ele>
        <time>2019-04-22T09:48:12Z</time>
      </trkpt>
      <trkpt lat="48.25062" lon="-2.86048">
        <ele>104</ele>
        <time>2019-04-22T09:48:13Z</time>
      </trkpt>
      <trkpt lat="48.25055" lon="-2.86044">
        <ele>106</ele>
        <time>2019-04-22T09:48:14Z</time>
      </trkpt>
      <trkpt lat="48.25011" lon="-2.86061">
        <ele>114</ele>
        <time>2019-04-22T09:48:22Z</time>
      </trkpt>
      <trkpt lat="48.24978" lon="-2.86072">
        <ele>116</ele>
        <time>2019-04-22T09:48:29Z</time>
      </trkpt>
      <trkpt lat="48.24974" lon="-2.86075">
        <ele>116</ele>
        <time>2019-04-22T09:48:30Z</time>
      </trkpt>
      <trkpt lat="48.24926" lon="-2.86147">
        <ele>114</ele>
        <time>2019-04-22T09:48:44Z</time>
      </trkpt>
      <trkpt lat="48.24911" lon="-2.86154">
        <ele>115</ele>
        <time>2019-04-22T09:48:48Z</time>
      </trkpt>
      <trkpt lat="48.24883" lon="-2.86149">
        <ele>113</ele>
        <time>2019-04-22T09:48:56Z</time>
      </trkpt>
      <trkpt lat="48.24876" lon="-2.86145">
        <ele>113</ele>
        <time>2019-04-22T09:48:58Z</time>
      </trkpt>
      <trkpt lat="48.24869" lon="-2.86144">
        <ele>112</ele>
        <time>2019-04-22T09:49:00Z</time>
      </trkpt>
      <trkpt lat="48.24863" lon="-2.86148">
        <ele>113</ele>
        <time>2019-04-22T09:49:02Z</time>
      </trkpt>
      <trkpt lat="48.24842" lon="-2.86181">
        <ele>114</ele>
        <time>2019-04-22T09:49:09Z</time>
      </trkpt>
      <trkpt lat="48.24825" lon="-2.86199">
        <ele>116</ele>
        <time>2019-04-22T09:49:15Z</time>
      </trkpt>
      <trkpt lat="48.24818" lon="-2.86211">
        <ele>118</ele>
        <time>2019-04-22T09:49:19Z</time>
      </trkpt>
      <trkpt lat="48.24813" lon="-2.86217">
        <ele>118</ele>
        <time>2019-04-22T09:49:25Z</time>
      </trkpt>
      <trkpt lat="48.2481" lon="-2.86223">
        <ele>119</ele>
        <time>2019-04-22T09:49:46Z</time>
      </trkpt>
      <trkpt lat="48.24798" lon="-2.86224">
        <ele>117</ele>
        <time>2019-04-22T09:49:52Z</time>
      </trkpt>
      <trkpt lat="48.24797" lon="-2.86231">
        <ele>115</ele>
        <time>2019-04-22T09:50:00Z</time>
      </trkpt>
      <trkpt lat="48.24841" lon="-2.86337">
        <ele>116</ele>
        <time>2019-04-22T09:50:25Z</time>
      </trkpt>
      <trkpt lat="48.24854" lon="-2.8638">
        <ele>118</ele>
        <time>2019-04-22T09:50:35Z</time>
      </trkpt>
      <trkpt lat="48.24898" lon="-2.86448">
        <ele>115</ele>
        <time>2019-04-22T09:50:53Z</time>
      </trkpt>
      <trkpt lat="48.25004" lon="-2.86547">
        <ele>118</ele>
        <time>2019-04-22T09:51:24Z</time>
      </trkpt>
      <trkpt lat="48.25042" lon="-2.86584">
        <ele>123</ele>
        <time>2019-04-22T09:51:45Z</time>
      </trkpt>
      <trkpt lat="48.25051" lon="-2.86592">
        <ele>124</ele>
        <time>2019-04-22T09:52:29Z</time>
      </trkpt>
      <trkpt lat="48.25056" lon="-2.86595">
        <ele>124</ele>
        <time>2019-04-22T09:52:47Z</time>
      </trkpt>
      <trkpt lat="48.25059" lon="-2.86601">
        <ele>124</ele>
        <time>2019-04-22T09:52:51Z</time>
      </trkpt>
      <trkpt lat="48.25065" lon="-2.86656">
        <ele>122</ele>
        <time>2019-04-22T09:53:18Z</time>
      </trkpt>
      <trkpt lat="48.25065" lon="-2.86664">
        <ele>122</ele>
        <time>2019-04-22T09:53:22Z</time>
      </trkpt>
      <trkpt lat="48.25065" lon="-2.86704">
        <ele>120</ele>
        <time>2019-04-22T09:53:38Z</time>
      </trkpt>
      <trkpt lat="48.25065" lon="-2.86711">
        <ele>120</ele>
        <time>2019-04-22T09:53:41Z</time>
      </trkpt>
      <trkpt lat="48.25071" lon="-2.86773">
        <ele>125</ele>
        <time>2019-04-22T09:54:07Z</time>
      </trkpt>
      <trkpt lat="48.25072" lon="-2.86788">
        <ele>128</ele>
        <time>2019-04-22T09:54:13Z</time>
      </trkpt>
      <trkpt lat="48.25074" lon="-2.86828">
        <ele>131</ele>
        <time>2019-04-22T09:54:26Z</time>
      </trkpt>
      <trkpt lat="48.25075" lon="-2.86842">
        <ele>132</ele>
        <time>2019-04-22T09:54:31Z</time>
      </trkpt>
      <trkpt lat="48.25076" lon="-2.86856">
        <ele>134</ele>
        <time>2019-04-22T09:54:39Z</time>
      </trkpt>
      <trkpt lat="48.25074" lon="-2.8685">
        <ele>134</ele>
        <time>2019-04-22T09:55:00Z</time>
      </trkpt>
      <trkpt lat="48.25074" lon="-2.86842">
        <ele>135</ele>
        <time>2019-04-22T09:55:17Z</time>
      </trkpt>
      <trkpt lat="48.25077" lon="-2.86835">
        <ele>134</ele>
        <time>2019-04-22T09:55:22Z</time>
      </trkpt>
      <trkpt lat="48.25076" lon="-2.86827">
        <ele>133</ele>
        <time>2019-04-22T09:55:25Z</time>
      </trkpt>
      <trkpt lat="48.25077" lon="-2.86812">
        <ele>131</ele>
        <time>2019-04-22T09:55:32Z</time>
      </trkpt>
      <trkpt lat="48.25077" lon="-2.86797">
        <ele>128</ele>
        <time>2019-04-22T09:55:39Z</time>
      </trkpt>
      <trkpt lat="48.25077" lon="-2.8679">
        <ele>127</ele>
        <time>2019-04-22T09:55:43Z</time>
      </trkpt>
      <trkpt lat="48.25072" lon="-2.86736">
        <ele>123</ele>
        <time>2019-04-22T09:56:13Z</time>
      </trkpt>
      <trkpt lat="48.2507" lon="-2.86695">
        <ele>120</ele>
        <time>2019-04-22T09:56:28Z</time>
      </trkpt>
      <trkpt lat="48.25068" lon="-2.86685">
        <ele>120</ele>
        <time>2019-04-22T09:56:30Z</time>
      </trkpt>
      <trkpt lat="48.25065" lon="-2.86626">
        <ele>118</ele>
        <time>2019-04-22T09:56:42Z</time>
      </trkpt>
      <trkpt lat="48.25063" lon="-2.86616">
        <ele>117</ele>
        <time>2019-04-22T09:56:44Z</time>
      </trkpt>
      <trkpt lat="48.25054" lon="-2.86597">
        <ele>117</ele>
        <time>2019-04-22T09:56:48Z</time>
      </trkpt>
      <trkpt lat="48.24919" lon="-2.86483">
        <ele>111</ele>
        <time>2019-04-22T09:57:18Z</time>
      </trkpt>
      <trkpt lat="48.24899" lon="-2.86464">
        <ele>111</ele>
        <time>2019-04-22T09:57:23Z</time>
      </trkpt>
      <trkpt lat="48.24869" lon="-2.8641">
        <ele>109</ele>
        <time>2019-04-22T09:57:34Z</time>
      </trkpt>
      <trkpt lat="48.24865" lon="-2.86405">
        <ele>108</ele>
        <time>2019-04-22T09:57:36Z</time>
      </trkpt>
      <trkpt lat="48.2486" lon="-2.86401">
        <ele>108</ele>
        <time>2019-04-22T09:57:38Z</time>
      </trkpt>
      <trkpt lat="48.2486" lon="-2.86412">
        <ele>108</ele>
        <time>2019-04-22T09:57:42Z</time>
      </trkpt>
      <trkpt lat="48.24915" lon="-2.8651">
        <ele>108</ele>
        <time>2019-04-22T09:57:58Z</time>
      </trkpt>
      <trkpt lat="48.24917" lon="-2.86523">
        <ele>109</ele>
        <time>2019-04-22T09:58:00Z</time>
      </trkpt>
      <trkpt lat="48.24861" lon="-2.86756">
        <ele>119</ele>
        <time>2019-04-22T09:58:31Z</time>
      </trkpt>
      <trkpt lat="48.24858" lon="-2.86769">
        <ele>121</ele>
        <time>2019-04-22T09:58:36Z</time>
      </trkpt>
      <trkpt lat="48.24858" lon="-2.86776">
        <ele>122</ele>
        <time>2019-04-22T09:58:52Z</time>
      </trkpt>
      <trkpt lat="48.2486" lon="-2.86784">
        <ele>124</ele>
        <time>2019-04-22T09:58:55Z</time>
      </trkpt>
      <trkpt lat="48.24863" lon="-2.8679">
        <ele>125</ele>
        <time>2019-04-22T09:59:01Z</time>
      </trkpt>
      <trkpt lat="48.24865" lon="-2.86798">
        <ele>125</ele>
        <time>2019-04-22T09:59:26Z</time>
      </trkpt>
      <trkpt lat="48.24865" lon="-2.86805">
        <ele>125</ele>
        <time>2019-04-22T09:59:29Z</time>
      </trkpt>
      <trkpt lat="48.24863" lon="-2.86813">
        <ele>124</ele>
        <time>2019-04-22T09:59:32Z</time>
      </trkpt>
      <trkpt lat="48.24855" lon="-2.86873">
        <ele>122</ele>
        <time>2019-04-22T09:59:47Z</time>
      </trkpt>
      <trkpt lat="48.24847" lon="-2.86894">
        <ele>120</ele>
        <time>2019-04-22T09:59:50Z</time>
      </trkpt>
      <trkpt lat="48.24827" lon="-2.86938">
        <ele>118</ele>
        <time>2019-04-22T09:59:57Z</time>
      </trkpt>
      <trkpt lat="48.24817" lon="-2.86972">
        <ele>117</ele>
        <time>2019-04-22T10:00:18Z</time>
      </trkpt>
      <trkpt lat="48.24816" lon="-2.86987">
        <ele>119</ele>
        <time>2019-04-22T10:00:26Z</time>
      </trkpt>
      <trkpt lat="48.24814" lon="-2.87008">
        <ele>121</ele>
        <time>2019-04-22T10:00:36Z</time>
      </trkpt>
      <trkpt lat="48.24812" lon="-2.87015">
        <ele>122</ele>
        <time>2019-04-22T10:00:38Z</time>
      </trkpt>
      <trkpt lat="48.24811" lon="-2.87022">
        <ele>122</ele>
        <time>2019-04-22T10:00:41Z</time>
      </trkpt>
      <trkpt lat="48.2481" lon="-2.87029">
        <ele>125</ele>
        <time>2019-04-22T10:00:45Z</time>
      </trkpt>
      <trkpt lat="48.24812" lon="-2.87037">
        <ele>126</ele>
        <time>2019-04-22T10:00:49Z</time>
      </trkpt>
      <trkpt lat="48.24811" lon="-2.87045">
        <ele>127</ele>
        <time>2019-04-22T10:00:52Z</time>
      </trkpt>
      <trkpt lat="48.2481" lon="-2.87054">
        <ele>127</ele>
        <time>2019-04-22T10:00:55Z</time>
      </trkpt>
      <trkpt lat="48.24812" lon="-2.8706">
        <ele>127</ele>
        <time>2019-04-22T10:00:57Z</time>
      </trkpt>
      <trkpt lat="48.24814" lon="-2.87067">
        <ele>127</ele>
        <time>2019-04-22T10:01:00Z</time>
      </trkpt>
      <trkpt lat="48.24814" lon="-2.87078">
        <ele>128</ele>
        <time>2019-04-22T10:01:04Z</time>
      </trkpt>
      <trkpt lat="48.24818" lon="-2.87092">
        <ele>128</ele>
        <time>2019-04-22T10:01:08Z</time>
      </trkpt>
      <trkpt lat="48.24824" lon="-2.87105">
        <ele>127</ele>
        <time>2019-04-22T10:01:13Z</time>
      </trkpt>
      <trkpt lat="48.24826" lon="-2.87112">
        <ele>127</ele>
        <time>2019-04-22T10:01:16Z</time>
      </trkpt>
      <trkpt lat="48.2483" lon="-2.87119">
        <ele>126</ele>
        <time>2019-04-22T10:01:18Z</time>
      </trkpt>
      <trkpt lat="48.24834" lon="-2.87125">
        <ele>125</ele>
        <time>2019-04-22T10:01:20Z</time>
      </trkpt>
      <trkpt lat="48.24839" lon="-2.8713">
        <ele>124</ele>
        <time>2019-04-22T10:01:22Z</time>
      </trkpt>
      <trkpt lat="48.2485" lon="-2.87142">
        <ele>124</ele>
        <time>2019-04-22T10:01:27Z</time>
      </trkpt>
      <trkpt lat="48.24854" lon="-2.87146">
        <ele>124</ele>
        <time>2019-04-22T10:01:29Z</time>
      </trkpt>
      <trkpt lat="48.24861" lon="-2.87157">
        <ele>124</ele>
        <time>2019-04-22T10:01:39Z</time>
      </trkpt>
      <trkpt lat="48.24866" lon="-2.87165">
        <ele>124</ele>
        <time>2019-04-22T10:01:42Z</time>
      </trkpt>
      <trkpt lat="48.24879" lon="-2.87187">
        <ele>126</ele>
        <time>2019-04-22T10:01:53Z</time>
      </trkpt>
      <trkpt lat="48.24883" lon="-2.87202">
        <ele>129</ele>
        <time>2019-04-22T10:02:01Z</time>
      </trkpt>
      <trkpt lat="48.24888" lon="-2.87209">
        <ele>131</ele>
        <time>2019-04-22T10:02:05Z</time>
      </trkpt>
      <trkpt lat="48.24889" lon="-2.87217">
        <ele>132</ele>
        <time>2019-04-22T10:02:09Z</time>
      </trkpt>
      <trkpt lat="48.24889" lon="-2.87227">
        <ele>133</ele>
        <time>2019-04-22T10:02:11Z</time>
      </trkpt>
      <trkpt lat="48.24897" lon="-2.87241">
        <ele>137</ele>
        <time>2019-04-22T10:02:17Z</time>
      </trkpt>
      <trkpt lat="48.24899" lon="-2.87248">
        <ele>140</ele>
        <time>2019-04-22T10:02:22Z</time>
      </trkpt>
      <trkpt lat="48.24902" lon="-2.87264">
        <ele>142</ele>
        <time>2019-04-22T10:02:29Z</time>
      </trkpt>
      <trkpt lat="48.24907" lon="-2.87271">
        <ele>143</ele>
        <time>2019-04-22T10:02:32Z</time>
      </trkpt>
      <trkpt lat="48.24921" lon="-2.87284">
        <ele>145</ele>
        <time>2019-04-22T10:02:41Z</time>
      </trkpt>
      <trkpt lat="48.24928" lon="-2.87296">
        <ele>146</ele>
        <time>2019-04-22T10:02:50Z</time>
      </trkpt>
      <trkpt lat="48.24945" lon="-2.87315">
        <ele>143</ele>
        <time>2019-04-22T10:03:04Z</time>
      </trkpt>
      <trkpt lat="48.24948" lon="-2.87321">
        <ele>142</ele>
        <time>2019-04-22T10:03:08Z</time>
      </trkpt>
      <trkpt lat="48.24959" lon="-2.87325">
        <ele>141</ele>
        <time>2019-04-22T10:03:16Z</time>
      </trkpt>
      <trkpt lat="48.24964" lon="-2.87329">
        <ele>140</ele>
        <time>2019-04-22T10:03:20Z</time>
      </trkpt>
      <trkpt lat="48.24976" lon="-2.87332">
        <ele>141</ele>
        <time>2019-04-22T10:03:28Z</time>
      </trkpt>
      <trkpt lat="48.24991" lon="-2.87338">
        <ele>142</ele>
        <time>2019-04-22T10:03:37Z</time>
      </trkpt>
      <trkpt lat="48.25007" lon="-2.8734">
        <ele>140</ele>
        <time>2019-04-22T10:03:48Z</time>
      </trkpt>
      <trkpt lat="48.25016" lon="-2.87346">
        <ele>139</ele>
        <time>2019-04-22T10:03:56Z</time>
      </trkpt>
      <trkpt lat="48.25023" lon="-2.87358">
        <ele>140</ele>
        <time>2019-04-22T10:04:03Z</time>
      </trkpt>
      <trkpt lat="48.25024" lon="-2.87366">
        <ele>142</ele>
        <time>2019-04-22T10:04:06Z</time>
      </trkpt>
      <trkpt lat="48.25022" lon="-2.8738">
        <ele>143</ele>
        <time>2019-04-22T10:04:12Z</time>
      </trkpt>
      <trkpt lat="48.2502" lon="-2.87404">
        <ele>145</ele>
        <time>2019-04-22T10:04:23Z</time>
      </trkpt>
      <trkpt lat="48.25017" lon="-2.87417">
        <ele>146</ele>
        <time>2019-04-22T10:04:29Z</time>
      </trkpt>
      <trkpt lat="48.25016" lon="-2.87424">
        <ele>146</ele>
        <time>2019-04-22T10:04:33Z</time>
      </trkpt>
      <trkpt lat="48.25015" lon="-2.87432">
        <ele>146</ele>
        <time>2019-04-22T10:04:36Z</time>
      </trkpt>
      <trkpt lat="48.25014" lon="-2.87448">
        <ele>147</ele>
        <time>2019-04-22T10:04:42Z</time>
      </trkpt>
      <trkpt lat="48.25014" lon="-2.87456">
        <ele>146</ele>
        <time>2019-04-22T10:04:45Z</time>
      </trkpt>
      <trkpt lat="48.25018" lon="-2.87459">
        <ele>146</ele>
        <time>2019-04-22T10:04:53Z</time>
      </trkpt>
      <trkpt lat="48.25022" lon="-2.87463">
        <ele>145</ele>
        <time>2019-04-22T10:04:57Z</time>
      </trkpt>
      <trkpt lat="48.25023" lon="-2.8747">
        <ele>145</ele>
        <time>2019-04-22T10:05:01Z</time>
      </trkpt>
      <trkpt lat="48.25021" lon="-2.87477">
        <ele>146</ele>
        <time>2019-04-22T10:05:04Z</time>
      </trkpt>
      <trkpt lat="48.2502" lon="-2.87484">
        <ele>146</ele>
        <time>2019-04-22T10:05:07Z</time>
      </trkpt>
      <trkpt lat="48.25005" lon="-2.87501">
        <ele>147</ele>
        <time>2019-04-22T10:05:14Z</time>
      </trkpt>
      <trkpt lat="48.24994" lon="-2.87512">
        <ele>148</ele>
        <time>2019-04-22T10:05:18Z</time>
      </trkpt>
      <trkpt lat="48.24871" lon="-2.87616">
        <ele>151</ele>
        <time>2019-04-22T10:05:47Z</time>
      </trkpt>
      <trkpt lat="48.24861" lon="-2.87622">
        <ele>151</ele>
        <time>2019-04-22T10:05:52Z</time>
      </trkpt>
      <trkpt lat="48.2479" lon="-2.87688">
        <ele>150</ele>
        <time>2019-04-22T10:06:17Z</time>
      </trkpt>
      <trkpt lat="48.24766" lon="-2.87702">
        <ele>153</ele>
        <time>2019-04-22T10:06:37Z</time>
      </trkpt>
      <trkpt lat="48.2476" lon="-2.87701">
        <ele>152</ele>
        <time>2019-04-22T10:06:41Z</time>
      </trkpt>
      <trkpt lat="48.24755" lon="-2.87702">
        <ele>151</ele>
        <time>2019-04-22T10:06:44Z</time>
      </trkpt>
      <trkpt lat="48.24746" lon="-2.87706">
        <ele>151</ele>
        <time>2019-04-22T10:06:48Z</time>
      </trkpt>
      <trkpt lat="48.24742" lon="-2.87708">
        <ele>150</ele>
        <time>2019-04-22T10:06:51Z</time>
      </trkpt>
      <trkpt lat="48.24737" lon="-2.87709">
        <ele>151</ele>
        <time>2019-04-22T10:06:55Z</time>
      </trkpt>
      <trkpt lat="48.24727" lon="-2.87711">
        <ele>151</ele>
        <time>2019-04-22T10:07:01Z</time>
      </trkpt>
      <trkpt lat="48.24716" lon="-2.87713">
        <ele>151</ele>
        <time>2019-04-22T10:07:08Z</time>
      </trkpt>
      <trkpt lat="48.24711" lon="-2.87711">
        <ele>152</ele>
        <time>2019-04-22T10:07:12Z</time>
      </trkpt>
      <trkpt lat="48.24706" lon="-2.87713">
        <ele>152</ele>
        <time>2019-04-22T10:07:17Z</time>
      </trkpt>
      <trkpt lat="48.247" lon="-2.87715">
        <ele>152</ele>
        <time>2019-04-22T10:07:19Z</time>
      </trkpt>
      <trkpt lat="48.24664" lon="-2.87715">
        <ele>151</ele>
        <time>2019-04-22T10:07:31Z</time>
      </trkpt>
      <trkpt lat="48.24652" lon="-2.87719">
        <ele>150</ele>
        <time>2019-04-22T10:07:35Z</time>
      </trkpt>
      <trkpt lat="48.24644" lon="-2.87717">
        <ele>149</ele>
        <time>2019-04-22T10:07:37Z</time>
      </trkpt>
      <trkpt lat="48.24639" lon="-2.87717">
        <ele>149</ele>
        <time>2019-04-22T10:07:39Z</time>
      </trkpt>
      <trkpt lat="48.24633" lon="-2.87721">
        <ele>149</ele>
        <time>2019-04-22T10:07:42Z</time>
      </trkpt>
      <trkpt lat="48.24612" lon="-2.87727">
        <ele>150</ele>
        <time>2019-04-22T10:07:47Z</time>
      </trkpt>
      <trkpt lat="48.24587" lon="-2.87757">
        <ele>149</ele>
        <time>2019-04-22T10:07:54Z</time>
      </trkpt>
      <trkpt lat="48.24583" lon="-2.87763">
        <ele>149</ele>
        <time>2019-04-22T10:07:56Z</time>
      </trkpt>
      <trkpt lat="48.24578" lon="-2.87778">
        <ele>148</ele>
        <time>2019-04-22T10:08:00Z</time>
      </trkpt>
      <trkpt lat="48.24574" lon="-2.87782">
        <ele>148</ele>
        <time>2019-04-22T10:08:03Z</time>
      </trkpt>
      <trkpt lat="48.2457" lon="-2.87784">
        <ele>149</ele>
        <time>2019-04-22T10:08:05Z</time>
      </trkpt>
      <trkpt lat="48.24572" lon="-2.87776">
        <ele>151</ele>
        <time>2019-04-22T10:08:52Z</time>
      </trkpt>
      <trkpt lat="48.24586" lon="-2.87751">
        <ele>150</ele>
        <time>2019-04-22T10:09:02Z</time>
      </trkpt>
      <trkpt lat="48.24588" lon="-2.87744">
        <ele>151</ele>
        <time>2019-04-22T10:09:04Z</time>
      </trkpt>
      <trkpt lat="48.24596" lon="-2.87731">
        <ele>151</ele>
        <time>2019-04-22T10:09:08Z</time>
      </trkpt>
      <trkpt lat="48.24599" lon="-2.87722">
        <ele>151</ele>
        <time>2019-04-22T10:09:10Z</time>
      </trkpt>
      <trkpt lat="48.24603" lon="-2.87702">
        <ele>151</ele>
        <time>2019-04-22T10:09:14Z</time>
      </trkpt>
      <trkpt lat="48.24605" lon="-2.87674">
        <ele>150</ele>
        <time>2019-04-22T10:09:20Z</time>
      </trkpt>
      <trkpt lat="48.24605" lon="-2.87519">
        <ele>154</ele>
        <time>2019-04-22T10:09:51Z</time>
      </trkpt>
      <trkpt lat="48.24607" lon="-2.87509">
        <ele>154</ele>
        <time>2019-04-22T10:09:53Z</time>
      </trkpt>
      <trkpt lat="48.24622" lon="-2.87464">
        <ele>154</ele>
        <time>2019-04-22T10:10:03Z</time>
      </trkpt>
      <trkpt lat="48.24624" lon="-2.87455">
        <ele>154</ele>
        <time>2019-04-22T10:10:05Z</time>
      </trkpt>
      <trkpt lat="48.24627" lon="-2.87414">
        <ele>151</ele>
        <time>2019-04-22T10:10:13Z</time>
      </trkpt>
      <trkpt lat="48.24634" lon="-2.87377">
        <ele>150</ele>
        <time>2019-04-22T10:10:23Z</time>
      </trkpt>
      <trkpt lat="48.24637" lon="-2.87368">
        <ele>150</ele>
        <time>2019-04-22T10:10:27Z</time>
      </trkpt>
      <trkpt lat="48.24646" lon="-2.87316">
        <ele>149</ele>
        <time>2019-04-22T10:10:37Z</time>
      </trkpt>
      <trkpt lat="48.24648" lon="-2.87296">
        <ele>148</ele>
        <time>2019-04-22T10:10:41Z</time>
      </trkpt>
      <trkpt lat="48.24691" lon="-2.87203">
        <ele>146</ele>
        <time>2019-04-22T10:11:04Z</time>
      </trkpt>
      <trkpt lat="48.24694" lon="-2.87194">
        <ele>146</ele>
        <time>2019-04-22T10:11:06Z</time>
      </trkpt>
      <trkpt lat="48.24696" lon="-2.87187">
        <ele>146</ele>
        <time>2019-04-22T10:11:08Z</time>
      </trkpt>
      <trkpt lat="48.24693" lon="-2.87171">
        <ele>146</ele>
        <time>2019-04-22T10:11:13Z</time>
      </trkpt>
      <trkpt lat="48.24682" lon="-2.87153">
        <ele>144</ele>
        <time>2019-04-22T10:11:20Z</time>
      </trkpt>
      <trkpt lat="48.24664" lon="-2.87137">
        <ele>145</ele>
        <time>2019-04-22T10:11:31Z</time>
      </trkpt>
      <trkpt lat="48.24622" lon="-2.87119">
        <ele>145</ele>
        <time>2019-04-22T10:11:46Z</time>
      </trkpt>
      <trkpt lat="48.24608" lon="-2.87116">
        <ele>145</ele>
        <time>2019-04-22T10:11:50Z</time>
      </trkpt>
      <trkpt lat="48.24579" lon="-2.87126">
        <ele>145</ele>
        <time>2019-04-22T10:12:00Z</time>
      </trkpt>
      <trkpt lat="48.24544" lon="-2.87169">
        <ele>144</ele>
        <time>2019-04-22T10:12:11Z</time>
      </trkpt>
      <trkpt lat="48.24513" lon="-2.87214">
        <ele>147</ele>
        <time>2019-04-22T10:12:23Z</time>
      </trkpt>
      <trkpt lat="48.24508" lon="-2.87219">
        <ele>148</ele>
        <time>2019-04-22T10:12:25Z</time>
      </trkpt>
      <trkpt lat="48.24496" lon="-2.87223">
        <ele>149</ele>
        <time>2019-04-22T10:12:29Z</time>
      </trkpt>
      <trkpt lat="48.24429" lon="-2.87211">
        <ele>153</ele>
        <time>2019-04-22T10:12:49Z</time>
      </trkpt>
      <trkpt lat="48.24418" lon="-2.87214">
        <ele>154</ele>
        <time>2019-04-22T10:12:53Z</time>
      </trkpt>
      <trkpt lat="48.2439" lon="-2.87215">
        <ele>155</ele>
        <time>2019-04-22T10:13:03Z</time>
      </trkpt>
      <trkpt lat="48.24384" lon="-2.87216">
        <ele>155</ele>
        <time>2019-04-22T10:13:05Z</time>
      </trkpt>
      <trkpt lat="48.24379" lon="-2.87219">
        <ele>156</ele>
        <time>2019-04-22T10:13:07Z</time>
      </trkpt>
      <trkpt lat="48.24374" lon="-2.87223">
        <ele>156</ele>
        <time>2019-04-22T10:13:11Z</time>
      </trkpt>
      <trkpt lat="48.2436" lon="-2.87229">
        <ele>157</ele>
        <time>2019-04-22T10:13:20Z</time>
      </trkpt>
      <trkpt lat="48.24357" lon="-2.87234">
        <ele>156</ele>
        <time>2019-04-22T10:13:24Z</time>
      </trkpt>
      <trkpt lat="48.24356" lon="-2.87242">
        <ele>156</ele>
        <time>2019-04-22T10:13:29Z</time>
      </trkpt>
      <trkpt lat="48.24346" lon="-2.87242">
        <ele>154</ele>
        <time>2019-04-22T10:13:38Z</time>
      </trkpt>
      <trkpt lat="48.24351" lon="-2.87239">
        <ele>154</ele>
        <time>2019-04-22T10:13:53Z</time>
      </trkpt>
      <trkpt lat="48.24354" lon="-2.87234">
        <ele>153</ele>
        <time>2019-04-22T10:13:57Z</time>
      </trkpt>
      <trkpt lat="48.24356" lon="-2.87226">
        <ele>151</ele>
        <time>2019-04-22T10:14:02Z</time>
      </trkpt>
      <trkpt lat="48.24352" lon="-2.87221">
        <ele>151</ele>
        <time>2019-04-22T10:14:07Z</time>
      </trkpt>
      <trkpt lat="48.24342" lon="-2.8722">
        <ele>150</ele>
        <time>2019-04-22T10:14:12Z</time>
      </trkpt>
      <trkpt lat="48.24331" lon="-2.87224">
        <ele>149</ele>
        <time>2019-04-22T10:14:17Z</time>
      </trkpt>
      <trkpt lat="48.24305" lon="-2.87256">
        <ele>147</ele>
        <time>2019-04-22T10:14:27Z</time>
      </trkpt>
      <trkpt lat="48.24291" lon="-2.87268">
        <ele>147</ele>
        <time>2019-04-22T10:14:33Z</time>
      </trkpt>
      <trkpt lat="48.24254" lon="-2.87287">
        <ele>145</ele>
        <time>2019-04-22T10:14:43Z</time>
      </trkpt>
      <trkpt lat="48.24235" lon="-2.87302">
        <ele>145</ele>
        <time>2019-04-22T10:14:49Z</time>
      </trkpt>
      <trkpt lat="48.24212" lon="-2.87332">
        <ele>145</ele>
        <time>2019-04-22T10:14:57Z</time>
      </trkpt>
      <trkpt lat="48.24208" lon="-2.8734">
        <ele>145</ele>
        <time>2019-04-22T10:14:59Z</time>
      </trkpt>
      <trkpt lat="48.24195" lon="-2.8739">
        <ele>143</ele>
        <time>2019-04-22T10:15:13Z</time>
      </trkpt>
      <trkpt lat="48.24186" lon="-2.87419">
        <ele>142</ele>
        <time>2019-04-22T10:15:19Z</time>
      </trkpt>
      <trkpt lat="48.24177" lon="-2.8743">
        <ele>142</ele>
        <time>2019-04-22T10:15:23Z</time>
      </trkpt>
      <trkpt lat="48.24121" lon="-2.87458">
        <ele>144</ele>
        <time>2019-04-22T10:15:38Z</time>
      </trkpt>
      <trkpt lat="48.24089" lon="-2.87487">
        <ele>147</ele>
        <time>2019-04-22T10:15:48Z</time>
      </trkpt>
      <trkpt lat="48.24083" lon="-2.87489">
        <ele>149</ele>
        <time>2019-04-22T10:15:51Z</time>
      </trkpt>
      <trkpt lat="48.24078" lon="-2.87491">
        <ele>149</ele>
        <time>2019-04-22T10:15:54Z</time>
      </trkpt>
      <trkpt lat="48.24068" lon="-2.87483">
        <ele>151</ele>
        <time>2019-04-22T10:16:03Z</time>
      </trkpt>
      <trkpt lat="48.24064" lon="-2.87484">
        <ele>152</ele>
        <time>2019-04-22T10:16:07Z</time>
      </trkpt>
      <trkpt lat="48.24041" lon="-2.87506">
        <ele>152</ele>
        <time>2019-04-22T10:16:23Z</time>
      </trkpt>
      <trkpt lat="48.24037" lon="-2.87511">
        <ele>152</ele>
        <time>2019-04-22T10:16:27Z</time>
      </trkpt>
      <trkpt lat="48.24029" lon="-2.87522">
        <ele>151</ele>
        <time>2019-04-22T10:16:37Z</time>
      </trkpt>
      <trkpt lat="48.24022" lon="-2.87533">
        <ele>149</ele>
        <time>2019-04-22T10:16:43Z</time>
      </trkpt>
      <trkpt lat="48.24008" lon="-2.8755">
        <ele>148</ele>
        <time>2019-04-22T10:16:55Z</time>
      </trkpt>
      <trkpt lat="48.24003" lon="-2.87552">
        <ele>147</ele>
        <time>2019-04-22T10:16:59Z</time>
      </trkpt>
      <trkpt lat="48.23994" lon="-2.87556">
        <ele>147</ele>
        <time>2019-04-22T10:17:04Z</time>
      </trkpt>
      <trkpt lat="48.23989" lon="-2.87555">
        <ele>147</ele>
        <time>2019-04-22T10:17:07Z</time>
      </trkpt>
      <trkpt lat="48.23968" lon="-2.87523">
        <ele>143</ele>
        <time>2019-04-22T10:17:29Z</time>
      </trkpt>
      <trkpt lat="48.23965" lon="-2.87517">
        <ele>143</ele>
        <time>2019-04-22T10:17:32Z</time>
      </trkpt>
      <trkpt lat="48.2395" lon="-2.87498">
        <ele>144</ele>
        <time>2019-04-22T10:17:44Z</time>
      </trkpt>
      <trkpt lat="48.23946" lon="-2.87495">
        <ele>144</ele>
        <time>2019-04-22T10:17:48Z</time>
      </trkpt>
      <trkpt lat="48.23941" lon="-2.87493">
        <ele>144</ele>
        <time>2019-04-22T10:17:54Z</time>
      </trkpt>
      <trkpt lat="48.2394" lon="-2.87501">
        <ele>145</ele>
        <time>2019-04-22T10:17:58Z</time>
      </trkpt>
      <trkpt lat="48.23944" lon="-2.87519">
        <ele>146</ele>
        <time>2019-04-22T10:18:04Z</time>
      </trkpt>
      <trkpt lat="48.23964" lon="-2.87554">
        <ele>146</ele>
        <time>2019-04-22T10:18:14Z</time>
      </trkpt>
      <trkpt lat="48.2398" lon="-2.87572">
        <ele>147</ele>
        <time>2019-04-22T10:18:20Z</time>
      </trkpt>
      <trkpt lat="48.23985" lon="-2.87578">
        <ele>147</ele>
        <time>2019-04-22T10:18:22Z</time>
      </trkpt>
      <trkpt lat="48.24005" lon="-2.87583">
        <ele>147</ele>
        <time>2019-04-22T10:18:28Z</time>
      </trkpt>
      <trkpt lat="48.24012" lon="-2.87588">
        <ele>147</ele>
        <time>2019-04-22T10:18:30Z</time>
      </trkpt>
      <trkpt lat="48.2406" lon="-2.87725">
        <ele>156</ele>
        <time>2019-04-22T10:19:01Z</time>
      </trkpt>
      <trkpt lat="48.24093" lon="-2.87822">
        <ele>168</ele>
        <time>2019-04-22T10:19:32Z</time>
      </trkpt>
      <trkpt lat="48.24097" lon="-2.87835">
        <ele>169</ele>
        <time>2019-04-22T10:19:38Z</time>
      </trkpt>
      <trkpt lat="48.24105" lon="-2.87873">
        <ele>172</ele>
        <time>2019-04-22T10:19:59Z</time>
      </trkpt>
      <trkpt lat="48.24131" lon="-2.8793">
        <ele>179</ele>
        <time>2019-04-22T10:20:30Z</time>
      </trkpt>
      <trkpt lat="48.24134" lon="-2.87936">
        <ele>179</ele>
        <time>2019-04-22T10:20:34Z</time>
      </trkpt>
      <trkpt lat="48.24143" lon="-2.87955">
        <ele>181</ele>
        <time>2019-04-22T10:20:44Z</time>
      </trkpt>
      <trkpt lat="48.24145" lon="-2.87961">
        <ele>182</ele>
        <time>2019-04-22T10:20:47Z</time>
      </trkpt>
      <trkpt lat="48.24147" lon="-2.87969">
        <ele>183</ele>
        <time>2019-04-22T10:20:51Z</time>
      </trkpt>
      <trkpt lat="48.2415" lon="-2.87975">
        <ele>184</ele>
        <time>2019-04-22T10:20:54Z</time>
      </trkpt>
      <trkpt lat="48.24152" lon="-2.87981">
        <ele>184</ele>
        <time>2019-04-22T10:20:57Z</time>
      </trkpt>
      <trkpt lat="48.2415" lon="-2.87996">
        <ele>185</ele>
        <time>2019-04-22T10:21:04Z</time>
      </trkpt>
      <trkpt lat="48.24142" lon="-2.88007">
        <ele>185</ele>
        <time>2019-04-22T10:21:12Z</time>
      </trkpt>
      <trkpt lat="48.24133" lon="-2.88012">
        <ele>185</ele>
        <time>2019-04-22T10:21:19Z</time>
      </trkpt>
      <trkpt lat="48.24128" lon="-2.88012">
        <ele>185</ele>
        <time>2019-04-22T10:21:23Z</time>
      </trkpt>
      <trkpt lat="48.24098" lon="-2.88033">
        <ele>179</ele>
        <time>2019-04-22T10:21:45Z</time>
      </trkpt>
      <trkpt lat="48.24093" lon="-2.88037">
        <ele>179</ele>
        <time>2019-04-22T10:21:48Z</time>
      </trkpt>
      <trkpt lat="48.24079" lon="-2.88045">
        <ele>181</ele>
        <time>2019-04-22T10:21:58Z</time>
      </trkpt>
      <trkpt lat="48.24074" lon="-2.88051">
        <ele>182</ele>
        <time>2019-04-22T10:22:02Z</time>
      </trkpt>
      <trkpt lat="48.24043" lon="-2.88077">
        <ele>184</ele>
        <time>2019-04-22T10:22:28Z</time>
      </trkpt>
      <trkpt lat="48.24039" lon="-2.88082">
        <ele>183</ele>
        <time>2019-04-22T10:22:31Z</time>
      </trkpt>
      <trkpt lat="48.2403" lon="-2.8809">
        <ele>182</ele>
        <time>2019-04-22T10:22:38Z</time>
      </trkpt>
      <trkpt lat="48.24025" lon="-2.88093">
        <ele>182</ele>
        <time>2019-04-22T10:22:42Z</time>
      </trkpt>
      <trkpt lat="48.24021" lon="-2.88096">
        <ele>182</ele>
        <time>2019-04-22T10:22:46Z</time>
      </trkpt>
      <trkpt lat="48.24015" lon="-2.88097">
        <ele>182</ele>
        <time>2019-04-22T10:22:50Z</time>
      </trkpt>
      <trkpt lat="48.2401" lon="-2.88102">
        <ele>182</ele>
        <time>2019-04-22T10:22:54Z</time>
      </trkpt>
      <trkpt lat="48.24006" lon="-2.88107">
        <ele>182</ele>
        <time>2019-04-22T10:22:58Z</time>
      </trkpt>
      <trkpt lat="48.24002" lon="-2.88111">
        <ele>182</ele>
        <time>2019-04-22T10:23:02Z</time>
      </trkpt>
      <trkpt lat="48.23997" lon="-2.88116">
        <ele>183</ele>
        <time>2019-04-22T10:23:06Z</time>
      </trkpt>
      <trkpt lat="48.23988" lon="-2.88127">
        <ele>183</ele>
        <time>2019-04-22T10:23:12Z</time>
      </trkpt>
      <trkpt lat="48.23985" lon="-2.88133">
        <ele>183</ele>
        <time>2019-04-22T10:23:15Z</time>
      </trkpt>
      <trkpt lat="48.23983" lon="-2.88139">
        <ele>183</ele>
        <time>2019-04-22T10:23:18Z</time>
      </trkpt>
      <trkpt lat="48.23975" lon="-2.88146">
        <ele>183</ele>
        <time>2019-04-22T10:23:24Z</time>
      </trkpt>
      <trkpt lat="48.23949" lon="-2.88156">
        <ele>184</ele>
        <time>2019-04-22T10:23:45Z</time>
      </trkpt>
      <trkpt lat="48.23944" lon="-2.8816">
        <ele>183</ele>
        <time>2019-04-22T10:23:49Z</time>
      </trkpt>
      <trkpt lat="48.23908" lon="-2.88188">
        <ele>185</ele>
        <time>2019-04-22T10:24:15Z</time>
      </trkpt>
      <trkpt lat="48.23895" lon="-2.88201">
        <ele>188</ele>
        <time>2019-04-22T10:24:26Z</time>
      </trkpt>
      <trkpt lat="48.23891" lon="-2.88203">
        <ele>188</ele>
        <time>2019-04-22T10:24:30Z</time>
      </trkpt>
      <trkpt lat="48.23886" lon="-2.88207">
        <ele>189</ele>
        <time>2019-04-22T10:25:25Z</time>
      </trkpt>
      <trkpt lat="48.2387" lon="-2.88234">
        <ele>191</ele>
        <time>2019-04-22T10:25:55Z</time>
      </trkpt>
      <trkpt lat="48.23874" lon="-2.88239">
        <ele>192</ele>
        <time>2019-04-22T10:26:01Z</time>
      </trkpt>
      <trkpt lat="48.23884" lon="-2.88234">
        <ele>190</ele>
        <time>2019-04-22T10:26:08Z</time>
      </trkpt>
      <trkpt lat="48.2389" lon="-2.88235">
        <ele>190</ele>
        <time>2019-04-22T10:26:11Z</time>
      </trkpt>
      <trkpt lat="48.23895" lon="-2.88237">
        <ele>190</ele>
        <time>2019-04-22T10:26:14Z</time>
      </trkpt>
      <trkpt lat="48.239" lon="-2.88238">
        <ele>190</ele>
        <time>2019-04-22T10:26:17Z</time>
      </trkpt>
      <trkpt lat="48.23905" lon="-2.88241">
        <ele>191</ele>
        <time>2019-04-22T10:26:20Z</time>
      </trkpt>
      <trkpt lat="48.23911" lon="-2.88242">
        <ele>193</ele>
        <time>2019-04-22T10:26:26Z</time>
      </trkpt>
      <trkpt lat="48.23916" lon="-2.88241">
        <ele>194</ele>
        <time>2019-04-22T10:26:31Z</time>
      </trkpt>
      <trkpt lat="48.23921" lon="-2.8824">
        <ele>195</ele>
        <time>2019-04-22T10:26:38Z</time>
      </trkpt>
      <trkpt lat="48.23925" lon="-2.88243">
        <ele>194</ele>
        <time>2019-04-22T10:26:44Z</time>
      </trkpt>
      <trkpt lat="48.23934" lon="-2.88249">
        <ele>191</ele>
        <time>2019-04-22T10:26:52Z</time>
      </trkpt>
      <trkpt lat="48.2393" lon="-2.88252">
        <ele>190</ele>
        <time>2019-04-22T10:27:09Z</time>
      </trkpt>
      <trkpt lat="48.23925" lon="-2.88251">
        <ele>190</ele>
        <time>2019-04-22T10:27:13Z</time>
      </trkpt>
    </trkseg>
  </trk>
</gpx>